<?xml version="1.0" encoding="UTF-8" standalone="no" ?>
<gpx xmlns="http://www.topografix.com/GPX/1/1" xmlns:xsi="http://www.w3.org/2001/XMLSchema-instance" xsi:schemaLocation="http://www.topografix.com/GPX/1/1 http://www.topografix.com/GPX/1/1/gpx.xsd" version="1.1" creator="VisuGPX - https://www.visugpx.com">
  <metadata>
    <name> Col de cenise</name>
    <desc><![CDATA[ski de randonnée nordique]]></desc>
  </metadata>
  <trk>
    <name><![CDATA[Col de cenise Guillaume]]></name>
    <trkseg>
      <trkpt lat="46.02827" lon="6.48673">
        <ele>1229.663574</ele>
        <time>2014-03-06T08:34:55Z</time>
      </trkpt>
      <trkpt lat="46.02828" lon="6.48672">
        <ele>1227.740723</ele>
        <time>2014-03-06T08:35:16Z</time>
      </trkpt>
      <trkpt lat="46.02829" lon="6.48672">
        <ele>1227.740723</ele>
        <time>2014-03-06T08:35:39Z</time>
      </trkpt>
      <trkpt lat="46.02828" lon="6.48673">
        <ele>1224.856934</ele>
        <time>2014-03-06T08:35:54Z</time>
      </trkpt>
      <trkpt lat="46.02828" lon="6.48673">
        <ele>1228.702393</ele>
        <time>2014-03-06T08:35:55Z</time>
      </trkpt>
      <trkpt lat="46.02826" lon="6.48676">
        <ele>1228.22168</ele>
        <time>2014-03-06T08:36:00Z</time>
      </trkpt>
      <trkpt lat="46.0282" lon="6.48678">
        <ele>1230.144287</ele>
        <time>2014-03-06T08:36:13Z</time>
      </trkpt>
      <trkpt lat="46.0282" lon="6.48678">
        <ele>1226.779541</ele>
        <time>2014-03-06T08:36:34Z</time>
      </trkpt>
      <trkpt lat="46.0282" lon="6.48678">
        <ele>1226.779541</ele>
        <time>2014-03-06T08:36:35Z</time>
      </trkpt>
      <trkpt lat="46.0282" lon="6.48679">
        <ele>1235.431396</ele>
        <time>2014-03-06T08:36:38Z</time>
      </trkpt>
      <trkpt lat="46.0282" lon="6.48679">
        <ele>1230.625</ele>
        <time>2014-03-06T08:36:39Z</time>
      </trkpt>
      <trkpt lat="46.0282" lon="6.48679">
        <ele>1228.22168</ele>
        <time>2014-03-06T08:36:45Z</time>
      </trkpt>
      <trkpt lat="46.0282" lon="6.48678">
        <ele>1231.105713</ele>
        <time>2014-03-06T08:36:51Z</time>
      </trkpt>
      <trkpt lat="46.02821" lon="6.48679">
        <ele>1227.260254</ele>
        <time>2014-03-06T08:37:02Z</time>
      </trkpt>
      <trkpt lat="46.02821" lon="6.48679">
        <ele>1232.066895</ele>
        <time>2014-03-06T08:37:03Z</time>
      </trkpt>
      <trkpt lat="46.0282" lon="6.48678">
        <ele>1231.105713</ele>
        <time>2014-03-06T08:37:14Z</time>
      </trkpt>
      <trkpt lat="46.02811" lon="6.48673">
        <ele>1230.625</ele>
        <time>2014-03-06T08:37:23Z</time>
      </trkpt>
      <trkpt lat="46.028" lon="6.48671">
        <ele>1233.989502</ele>
        <time>2014-03-06T08:37:35Z</time>
      </trkpt>
      <trkpt lat="46.02787" lon="6.48668">
        <ele>1234.950928</ele>
        <time>2014-03-06T08:37:49Z</time>
      </trkpt>
      <trkpt lat="46.02781" lon="6.48666">
        <ele>1236.392822</ele>
        <time>2014-03-06T08:37:55Z</time>
      </trkpt>
      <trkpt lat="46.02768" lon="6.48662">
        <ele>1239.276611</ele>
        <time>2014-03-06T08:38:09Z</time>
      </trkpt>
      <trkpt lat="46.02763" lon="6.48661">
        <ele>1239.757324</ele>
        <time>2014-03-06T08:38:14Z</time>
      </trkpt>
      <trkpt lat="46.02749" lon="6.48656">
        <ele>1240.718506</ele>
        <time>2014-03-06T08:38:29Z</time>
      </trkpt>
      <trkpt lat="46.02736" lon="6.48646">
        <ele>1241.679932</ele>
        <time>2014-03-06T08:38:44Z</time>
      </trkpt>
      <trkpt lat="46.02733" lon="6.48644">
        <ele>1244.083496</ele>
        <time>2014-03-06T08:38:48Z</time>
      </trkpt>
      <trkpt lat="46.0272" lon="6.48633">
        <ele>1245.044678</ele>
        <time>2014-03-06T08:39:03Z</time>
      </trkpt>
      <trkpt lat="46.02717" lon="6.48631">
        <ele>1247.447998</ele>
        <time>2014-03-06T08:39:07Z</time>
      </trkpt>
      <trkpt lat="46.02715" lon="6.4863">
        <ele>1246.006104</ele>
        <time>2014-03-06T08:39:09Z</time>
      </trkpt>
      <trkpt lat="46.0271" lon="6.48626">
        <ele>1247.447998</ele>
        <time>2014-03-06T08:39:15Z</time>
      </trkpt>
      <trkpt lat="46.02697" lon="6.48622">
        <ele>1249.370605</ele>
        <time>2014-03-06T08:39:29Z</time>
      </trkpt>
      <trkpt lat="46.02684" lon="6.48616">
        <ele>1249.851318</ele>
        <time>2014-03-06T08:39:43Z</time>
      </trkpt>
      <trkpt lat="46.02679" lon="6.48614">
        <ele>1253.21582</ele>
        <time>2014-03-06T08:39:49Z</time>
      </trkpt>
      <trkpt lat="46.02668" lon="6.48608">
        <ele>1254.177246</ele>
        <time>2014-03-06T08:40:02Z</time>
      </trkpt>
      <trkpt lat="46.02661" lon="6.48601">
        <ele>1255.138428</ele>
        <time>2014-03-06T08:40:13Z</time>
      </trkpt>
      <trkpt lat="46.02658" lon="6.48587">
        <ele>1257.061035</ele>
        <time>2014-03-06T08:40:25Z</time>
      </trkpt>
      <trkpt lat="46.02658" lon="6.48571">
        <ele>1255.619141</ele>
        <time>2014-03-06T08:40:38Z</time>
      </trkpt>
      <trkpt lat="46.02657" lon="6.48559">
        <ele>1257.061035</ele>
        <time>2014-03-06T08:40:47Z</time>
      </trkpt>
      <trkpt lat="46.02658" lon="6.48544">
        <ele>1258.50293</ele>
        <time>2014-03-06T08:40:59Z</time>
      </trkpt>
      <trkpt lat="46.02658" lon="6.48541">
        <ele>1257.061035</ele>
        <time>2014-03-06T08:41:16Z</time>
      </trkpt>
      <trkpt lat="46.02657" lon="6.4854">
        <ele>1255.619141</ele>
        <time>2014-03-06T08:41:31Z</time>
      </trkpt>
      <trkpt lat="46.02654" lon="6.48534">
        <ele>1253.21582</ele>
        <time>2014-03-06T08:41:40Z</time>
      </trkpt>
      <trkpt lat="46.02649" lon="6.48536">
        <ele>1251.773926</ele>
        <time>2014-03-06T08:41:44Z</time>
      </trkpt>
      <trkpt lat="46.02643" lon="6.48541">
        <ele>1252.735107</ele>
        <time>2014-03-06T08:41:48Z</time>
      </trkpt>
      <trkpt lat="46.02627" lon="6.48538">
        <ele>1251.293213</ele>
        <time>2014-03-06T08:42:00Z</time>
      </trkpt>
      <trkpt lat="46.02619" lon="6.48534">
        <ele>1251.773926</ele>
        <time>2014-03-06T08:42:07Z</time>
      </trkpt>
      <trkpt lat="46.02617" lon="6.48532">
        <ele>1250.8125</ele>
        <time>2014-03-06T08:42:09Z</time>
      </trkpt>
      <trkpt lat="46.02603" lon="6.48522">
        <ele>1250.8125</ele>
        <time>2014-03-06T08:42:21Z</time>
      </trkpt>
      <trkpt lat="46.02589" lon="6.48511">
        <ele>1247.928711</ele>
        <time>2014-03-06T08:42:34Z</time>
      </trkpt>
      <trkpt lat="46.02584" lon="6.48508">
        <ele>1247.928711</ele>
        <time>2014-03-06T08:42:38Z</time>
      </trkpt>
      <trkpt lat="46.02571" lon="6.485">
        <ele>1246.486816</ele>
        <time>2014-03-06T08:42:50Z</time>
      </trkpt>
      <trkpt lat="46.02559" lon="6.48493">
        <ele>1245.044678</ele>
        <time>2014-03-06T08:43:02Z</time>
      </trkpt>
      <trkpt lat="46.02547" lon="6.4848">
        <ele>1244.083496</ele>
        <time>2014-03-06T08:43:15Z</time>
      </trkpt>
      <trkpt lat="46.02542" lon="6.48471">
        <ele>1244.083496</ele>
        <time>2014-03-06T08:43:28Z</time>
      </trkpt>
      <trkpt lat="46.02541" lon="6.48468">
        <ele>1242.641357</ele>
        <time>2014-03-06T08:43:45Z</time>
      </trkpt>
      <trkpt lat="46.0254" lon="6.48459">
        <ele>1242.641357</ele>
        <time>2014-03-06T08:43:49Z</time>
      </trkpt>
      <trkpt lat="46.02539" lon="6.48441">
        <ele>1244.083496</ele>
        <time>2014-03-06T08:44:00Z</time>
      </trkpt>
      <trkpt lat="46.02539" lon="6.48431">
        <ele>1242.641357</ele>
        <time>2014-03-06T08:44:06Z</time>
      </trkpt>
      <trkpt lat="46.02539" lon="6.48428">
        <ele>1243.602539</ele>
        <time>2014-03-06T08:44:08Z</time>
      </trkpt>
      <trkpt lat="46.02539" lon="6.48425">
        <ele>1242.160645</ele>
        <time>2014-03-06T08:44:10Z</time>
      </trkpt>
      <trkpt lat="46.0254" lon="6.48405">
        <ele>1242.160645</ele>
        <time>2014-03-06T08:44:23Z</time>
      </trkpt>
      <trkpt lat="46.02541" lon="6.48384">
        <ele>1240.718506</ele>
        <time>2014-03-06T08:44:37Z</time>
      </trkpt>
      <trkpt lat="46.02541" lon="6.48376">
        <ele>1244.083496</ele>
        <time>2014-03-06T08:44:43Z</time>
      </trkpt>
      <trkpt lat="46.0254" lon="6.48357">
        <ele>1243.602539</ele>
        <time>2014-03-06T08:44:56Z</time>
      </trkpt>
      <trkpt lat="46.0254" lon="6.48352">
        <ele>1244.083496</ele>
        <time>2014-03-06T08:45:00Z</time>
      </trkpt>
      <trkpt lat="46.02538" lon="6.48337">
        <ele>1242.160645</ele>
        <time>2014-03-06T08:45:11Z</time>
      </trkpt>
      <trkpt lat="46.02535" lon="6.48319">
        <ele>1242.641357</ele>
        <time>2014-03-06T08:45:24Z</time>
      </trkpt>
      <trkpt lat="46.02532" lon="6.4831">
        <ele>1243.121826</ele>
        <time>2014-03-06T08:45:35Z</time>
      </trkpt>
      <trkpt lat="46.02526" lon="6.48293">
        <ele>1243.121826</ele>
        <time>2014-03-06T08:45:48Z</time>
      </trkpt>
      <trkpt lat="46.02522" lon="6.48274">
        <ele>1244.083496</ele>
        <time>2014-03-06T08:46:02Z</time>
      </trkpt>
      <trkpt lat="46.02519" lon="6.48262">
        <ele>1243.602539</ele>
        <time>2014-03-06T08:46:11Z</time>
      </trkpt>
      <trkpt lat="46.0251" lon="6.48251">
        <ele>1243.602539</ele>
        <time>2014-03-06T08:46:25Z</time>
      </trkpt>
      <trkpt lat="46.0251" lon="6.4825">
        <ele>1239.276611</ele>
        <time>2014-03-06T08:46:31Z</time>
      </trkpt>
      <trkpt lat="46.02509" lon="6.4825">
        <ele>1245.044678</ele>
        <time>2014-03-06T08:46:32Z</time>
      </trkpt>
      <trkpt lat="46.0251" lon="6.4825">
        <ele>1242.641357</ele>
        <time>2014-03-06T08:46:35Z</time>
      </trkpt>
      <trkpt lat="46.0251" lon="6.4825">
        <ele>1246.486816</ele>
        <time>2014-03-06T08:46:37Z</time>
      </trkpt>
      <trkpt lat="46.0251" lon="6.48249">
        <ele>1243.602539</ele>
        <time>2014-03-06T08:46:38Z</time>
      </trkpt>
      <trkpt lat="46.02508" lon="6.48236">
        <ele>1241.199219</ele>
        <time>2014-03-06T08:46:49Z</time>
      </trkpt>
      <trkpt lat="46.02507" lon="6.48234">
        <ele>1243.121826</ele>
        <time>2014-03-06T08:47:05Z</time>
      </trkpt>
      <trkpt lat="46.02507" lon="6.48235">
        <ele>1245.044678</ele>
        <time>2014-03-06T08:47:06Z</time>
      </trkpt>
      <trkpt lat="46.02518" lon="6.48252">
        <ele>1244.083496</ele>
        <time>2014-03-06T08:47:17Z</time>
      </trkpt>
      <trkpt lat="46.0253" lon="6.48259">
        <ele>1241.679932</ele>
        <time>2014-03-06T08:47:27Z</time>
      </trkpt>
      <trkpt lat="46.02534" lon="6.48262">
        <ele>1245.044678</ele>
        <time>2014-03-06T08:47:34Z</time>
      </trkpt>
      <trkpt lat="46.02536" lon="6.48263">
        <ele>1241.199219</ele>
        <time>2014-03-06T08:47:40Z</time>
      </trkpt>
      <trkpt lat="46.02536" lon="6.48263">
        <ele>1245.525391</ele>
        <time>2014-03-06T08:47:41Z</time>
      </trkpt>
      <trkpt lat="46.02536" lon="6.48263">
        <ele>1241.199219</ele>
        <time>2014-03-06T08:47:44Z</time>
      </trkpt>
      <trkpt lat="46.02536" lon="6.48263">
        <ele>1244.563965</ele>
        <time>2014-03-06T08:47:45Z</time>
      </trkpt>
      <trkpt lat="46.02537" lon="6.48263">
        <ele>1241.679932</ele>
        <time>2014-03-06T08:48:04Z</time>
      </trkpt>
      <trkpt lat="46.02538" lon="6.48263">
        <ele>1243.602539</ele>
        <time>2014-03-06T08:48:05Z</time>
      </trkpt>
      <trkpt lat="46.02545" lon="6.48249">
        <ele>1242.160645</ele>
        <time>2014-03-06T08:48:17Z</time>
      </trkpt>
      <trkpt lat="46.02546" lon="6.48238">
        <ele>1244.083496</ele>
        <time>2014-03-06T08:48:25Z</time>
      </trkpt>
      <trkpt lat="46.02543" lon="6.48232">
        <ele>1244.083496</ele>
        <time>2014-03-06T08:48:29Z</time>
      </trkpt>
      <trkpt lat="46.02533" lon="6.48217">
        <ele>1245.525391</ele>
        <time>2014-03-06T08:48:41Z</time>
      </trkpt>
      <trkpt lat="46.0252" lon="6.48195">
        <ele>1246.486816</ele>
        <time>2014-03-06T08:48:57Z</time>
      </trkpt>
      <trkpt lat="46.02517" lon="6.48184">
        <ele>1246.486816</ele>
        <time>2014-03-06T08:49:05Z</time>
      </trkpt>
      <trkpt lat="46.02507" lon="6.48173">
        <ele>1248.40918</ele>
        <time>2014-03-06T08:49:18Z</time>
      </trkpt>
      <trkpt lat="46.02495" lon="6.48167">
        <ele>1246.967285</ele>
        <time>2014-03-06T08:49:30Z</time>
      </trkpt>
      <trkpt lat="46.02484" lon="6.48148">
        <ele>1247.928711</ele>
        <time>2014-03-06T08:49:44Z</time>
      </trkpt>
      <trkpt lat="46.02478" lon="6.48141">
        <ele>1248.40918</ele>
        <time>2014-03-06T08:49:57Z</time>
      </trkpt>
      <trkpt lat="46.02465" lon="6.48137">
        <ele>1248.889893</ele>
        <time>2014-03-06T08:50:11Z</time>
      </trkpt>
      <trkpt lat="46.02451" lon="6.48134">
        <ele>1249.370605</ele>
        <time>2014-03-06T08:50:24Z</time>
      </trkpt>
      <trkpt lat="46.0245" lon="6.48131">
        <ele>1249.851318</ele>
        <time>2014-03-06T08:50:27Z</time>
      </trkpt>
      <trkpt lat="46.02453" lon="6.48108">
        <ele>1249.851318</ele>
        <time>2014-03-06T08:50:41Z</time>
      </trkpt>
      <trkpt lat="46.02457" lon="6.4809">
        <ele>1250.8125</ele>
        <time>2014-03-06T08:50:53Z</time>
      </trkpt>
      <trkpt lat="46.02463" lon="6.48072">
        <ele>1252.254395</ele>
        <time>2014-03-06T08:51:06Z</time>
      </trkpt>
      <trkpt lat="46.02469" lon="6.48053">
        <ele>1253.696533</ele>
        <time>2014-03-06T08:51:20Z</time>
      </trkpt>
      <trkpt lat="46.02474" lon="6.48036">
        <ele>1253.696533</ele>
        <time>2014-03-06T08:51:33Z</time>
      </trkpt>
      <trkpt lat="46.02478" lon="6.48016">
        <ele>1255.138428</ele>
        <time>2014-03-06T08:51:47Z</time>
      </trkpt>
      <trkpt lat="46.02482" lon="6.47999">
        <ele>1255.619141</ele>
        <time>2014-03-06T08:52:00Z</time>
      </trkpt>
      <trkpt lat="46.02483" lon="6.47996">
        <ele>1257.061035</ele>
        <time>2014-03-06T08:52:02Z</time>
      </trkpt>
      <trkpt lat="46.02485" lon="6.47983">
        <ele>1257.541748</ele>
        <time>2014-03-06T08:52:12Z</time>
      </trkpt>
      <trkpt lat="46.02483" lon="6.47978">
        <ele>1257.541748</ele>
        <time>2014-03-06T08:52:15Z</time>
      </trkpt>
      <trkpt lat="46.02473" lon="6.4796">
        <ele>1258.50293</ele>
        <time>2014-03-06T08:52:30Z</time>
      </trkpt>
      <trkpt lat="46.02472" lon="6.47957">
        <ele>1258.983643</ele>
        <time>2014-03-06T08:52:51Z</time>
      </trkpt>
      <trkpt lat="46.02472" lon="6.47959">
        <ele>1259.464355</ele>
        <time>2014-03-06T08:53:33Z</time>
      </trkpt>
      <trkpt lat="46.02471" lon="6.47959">
        <ele>1258.983643</ele>
        <time>2014-03-06T08:54:05Z</time>
      </trkpt>
      <trkpt lat="46.02465" lon="6.47942">
        <ele>1260.425781</ele>
        <time>2014-03-06T08:54:27Z</time>
      </trkpt>
      <trkpt lat="46.02469" lon="6.4792">
        <ele>1261.387207</ele>
        <time>2014-03-06T08:54:42Z</time>
      </trkpt>
      <trkpt lat="46.02476" lon="6.47897">
        <ele>1264.270996</ele>
        <time>2014-03-06T08:54:58Z</time>
      </trkpt>
      <trkpt lat="46.0248" lon="6.47879">
        <ele>1267.635498</ele>
        <time>2014-03-06T08:55:10Z</time>
      </trkpt>
      <trkpt lat="46.02479" lon="6.47856">
        <ele>1269.077637</ele>
        <time>2014-03-06T08:55:26Z</time>
      </trkpt>
      <trkpt lat="46.0247" lon="6.47836">
        <ele>1270.038818</ele>
        <time>2014-03-06T08:55:40Z</time>
      </trkpt>
      <trkpt lat="46.02461" lon="6.47819">
        <ele>1269.077637</ele>
        <time>2014-03-06T08:55:54Z</time>
      </trkpt>
      <trkpt lat="46.02459" lon="6.47818">
        <ele>1269.55835</ele>
        <time>2014-03-06T08:56:28Z</time>
      </trkpt>
      <trkpt lat="46.02452" lon="6.4781">
        <ele>1268.116211</ele>
        <time>2014-03-06T08:56:46Z</time>
      </trkpt>
      <trkpt lat="46.02441" lon="6.47803">
        <ele>1267.155029</ele>
        <time>2014-03-06T08:56:52Z</time>
      </trkpt>
      <trkpt lat="46.02424" lon="6.47795">
        <ele>1265.713135</ele>
        <time>2014-03-06T08:57:04Z</time>
      </trkpt>
      <trkpt lat="46.0242" lon="6.47788">
        <ele>1266.674316</ele>
        <time>2014-03-06T08:57:10Z</time>
      </trkpt>
      <trkpt lat="46.02419" lon="6.47784">
        <ele>1266.193604</ele>
        <time>2014-03-06T08:57:13Z</time>
      </trkpt>
      <trkpt lat="46.02431" lon="6.47775">
        <ele>1267.635498</ele>
        <time>2014-03-06T08:57:24Z</time>
      </trkpt>
      <trkpt lat="46.02442" lon="6.4777">
        <ele>1268.596924</ele>
        <time>2014-03-06T08:57:36Z</time>
      </trkpt>
      <trkpt lat="46.02456" lon="6.47768">
        <ele>1270.519531</ele>
        <time>2014-03-06T08:57:51Z</time>
      </trkpt>
      <trkpt lat="46.02469" lon="6.47768">
        <ele>1272.442139</ele>
        <time>2014-03-06T08:58:04Z</time>
      </trkpt>
      <trkpt lat="46.02482" lon="6.47761">
        <ele>1273.403564</ele>
        <time>2014-03-06T08:58:18Z</time>
      </trkpt>
      <trkpt lat="46.02485" lon="6.47759">
        <ele>1273.884033</ele>
        <time>2014-03-06T08:58:21Z</time>
      </trkpt>
      <trkpt lat="46.02495" lon="6.47754">
        <ele>1275.806641</ele>
        <time>2014-03-06T08:58:35Z</time>
      </trkpt>
      <trkpt lat="46.02498" lon="6.47751">
        <ele>1276.768311</ele>
        <time>2014-03-06T08:58:45Z</time>
      </trkpt>
      <trkpt lat="46.02495" lon="6.47739">
        <ele>1278.210205</ele>
        <time>2014-03-06T08:58:55Z</time>
      </trkpt>
      <trkpt lat="46.02504" lon="6.47731">
        <ele>1279.6521</ele>
        <time>2014-03-06T08:59:08Z</time>
      </trkpt>
      <trkpt lat="46.02509" lon="6.47727">
        <ele>1281.574707</ele>
        <time>2014-03-06T08:59:19Z</time>
      </trkpt>
      <trkpt lat="46.02517" lon="6.47727">
        <ele>1283.497314</ele>
        <time>2014-03-06T08:59:30Z</time>
      </trkpt>
      <trkpt lat="46.02517" lon="6.47726">
        <ele>1283.497314</ele>
        <time>2014-03-06T08:59:31Z</time>
      </trkpt>
      <trkpt lat="46.02513" lon="6.47713">
        <ele>1284.939453</ele>
        <time>2014-03-06T08:59:42Z</time>
      </trkpt>
      <trkpt lat="46.0251" lon="6.47706">
        <ele>1286.861816</ele>
        <time>2014-03-06T08:59:52Z</time>
      </trkpt>
      <trkpt lat="46.02512" lon="6.47712">
        <ele>1286.861816</ele>
        <time>2014-03-06T09:00:09Z</time>
      </trkpt>
      <trkpt lat="46.02523" lon="6.4772">
        <ele>1289.265137</ele>
        <time>2014-03-06T09:00:24Z</time>
      </trkpt>
      <trkpt lat="46.02528" lon="6.47722">
        <ele>1290.707031</ele>
        <time>2014-03-06T09:00:34Z</time>
      </trkpt>
      <trkpt lat="46.02533" lon="6.47726">
        <ele>1291.187744</ele>
        <time>2014-03-06T09:00:46Z</time>
      </trkpt>
      <trkpt lat="46.02544" lon="6.47729">
        <ele>1292.149414</ele>
        <time>2014-03-06T09:00:58Z</time>
      </trkpt>
      <trkpt lat="46.02554" lon="6.47735">
        <ele>1292.149414</ele>
        <time>2014-03-06T09:01:11Z</time>
      </trkpt>
      <trkpt lat="46.02555" lon="6.47735">
        <ele>1292.149414</ele>
        <time>2014-03-06T09:01:13Z</time>
      </trkpt>
      <trkpt lat="46.02566" lon="6.47737">
        <ele>1294.55249</ele>
        <time>2014-03-06T09:01:26Z</time>
      </trkpt>
      <trkpt lat="46.02571" lon="6.47734">
        <ele>1295.994629</ele>
        <time>2014-03-06T09:01:33Z</time>
      </trkpt>
      <trkpt lat="46.02572" lon="6.47724">
        <ele>1296.475342</ele>
        <time>2014-03-06T09:01:49Z</time>
      </trkpt>
      <trkpt lat="46.02565" lon="6.4773">
        <ele>1295.994629</ele>
        <time>2014-03-06T09:02:30Z</time>
      </trkpt>
      <trkpt lat="46.02568" lon="6.47729">
        <ele>1296.475342</ele>
        <time>2014-03-06T09:03:56Z</time>
      </trkpt>
      <trkpt lat="46.02578" lon="6.4772">
        <ele>1299.359131</ele>
        <time>2014-03-06T09:04:09Z</time>
      </trkpt>
      <trkpt lat="46.02578" lon="6.47717">
        <ele>1299.359131</ele>
        <time>2014-03-06T09:04:11Z</time>
      </trkpt>
      <trkpt lat="46.02582" lon="6.47712">
        <ele>1301.281738</ele>
        <time>2014-03-06T09:04:23Z</time>
      </trkpt>
      <trkpt lat="46.02586" lon="6.47718">
        <ele>1302.723633</ele>
        <time>2014-03-06T09:04:34Z</time>
      </trkpt>
      <trkpt lat="46.0259" lon="6.47722">
        <ele>1304.64624</ele>
        <time>2014-03-06T09:04:42Z</time>
      </trkpt>
      <trkpt lat="46.02595" lon="6.47718">
        <ele>1305.607666</ele>
        <time>2014-03-06T09:04:47Z</time>
      </trkpt>
      <trkpt lat="46.02602" lon="6.47709">
        <ele>1307.049561</ele>
        <time>2014-03-06T09:04:57Z</time>
      </trkpt>
      <trkpt lat="46.02607" lon="6.47707">
        <ele>1309.453125</ele>
        <time>2014-03-06T09:05:04Z</time>
      </trkpt>
      <trkpt lat="46.02611" lon="6.47709">
        <ele>1311.375732</ele>
        <time>2014-03-06T09:05:09Z</time>
      </trkpt>
      <trkpt lat="46.02623" lon="6.47724">
        <ele>1310.414307</ele>
        <time>2014-03-06T09:05:23Z</time>
      </trkpt>
      <trkpt lat="46.02635" lon="6.47743">
        <ele>1309.453125</ele>
        <time>2014-03-06T09:05:37Z</time>
      </trkpt>
      <trkpt lat="46.02646" lon="6.47762">
        <ele>1307.530273</ele>
        <time>2014-03-06T09:05:50Z</time>
      </trkpt>
      <trkpt lat="46.02655" lon="6.47775">
        <ele>1307.049561</ele>
        <time>2014-03-06T09:06:03Z</time>
      </trkpt>
      <trkpt lat="46.02653" lon="6.47775">
        <ele>1307.530273</ele>
        <time>2014-03-06T09:06:10Z</time>
      </trkpt>
      <trkpt lat="46.02654" lon="6.47773">
        <ele>1306.088135</ele>
        <time>2014-03-06T09:06:27Z</time>
      </trkpt>
      <trkpt lat="46.02656" lon="6.47778">
        <ele>1305.607666</ele>
        <time>2014-03-06T09:06:33Z</time>
      </trkpt>
      <trkpt lat="46.02657" lon="6.47781">
        <ele>1305.126953</ele>
        <time>2014-03-06T09:06:35Z</time>
      </trkpt>
      <trkpt lat="46.02666" lon="6.47787">
        <ele>1306.568848</ele>
        <time>2014-03-06T09:06:48Z</time>
      </trkpt>
      <trkpt lat="46.02663" lon="6.4779">
        <ele>1297.917236</ele>
        <time>2014-03-06T09:06:51Z</time>
      </trkpt>
      <trkpt lat="46.02662" lon="6.4779">
        <ele>1305.607666</ele>
        <time>2014-03-06T09:06:52Z</time>
      </trkpt>
      <trkpt lat="46.02662" lon="6.47791">
        <ele>1309.933594</ele>
        <time>2014-03-06T09:06:53Z</time>
      </trkpt>
      <trkpt lat="46.02662" lon="6.47791">
        <ele>1308.491699</ele>
        <time>2014-03-06T09:06:54Z</time>
      </trkpt>
      <trkpt lat="46.02662" lon="6.47791">
        <ele>1306.568848</ele>
        <time>2014-03-06T09:06:56Z</time>
      </trkpt>
      <trkpt lat="46.02676" lon="6.47802">
        <ele>1307.530273</ele>
        <time>2014-03-06T09:07:13Z</time>
      </trkpt>
      <trkpt lat="46.02684" lon="6.47815">
        <ele>1308.972412</ele>
        <time>2014-03-06T09:07:26Z</time>
      </trkpt>
      <trkpt lat="46.02693" lon="6.47821">
        <ele>1309.453125</ele>
        <time>2014-03-06T09:07:36Z</time>
      </trkpt>
      <trkpt lat="46.02709" lon="6.47831">
        <ele>1313.29834</ele>
        <time>2014-03-06T09:07:50Z</time>
      </trkpt>
      <trkpt lat="46.02724" lon="6.4784">
        <ele>1314.740234</ele>
        <time>2014-03-06T09:08:03Z</time>
      </trkpt>
      <trkpt lat="46.02736" lon="6.47853">
        <ele>1315.220947</ele>
        <time>2014-03-06T09:08:16Z</time>
      </trkpt>
      <trkpt lat="46.02748" lon="6.47864">
        <ele>1316.182129</ele>
        <time>2014-03-06T09:08:29Z</time>
      </trkpt>
      <trkpt lat="46.02766" lon="6.47874">
        <ele>1317.624023</ele>
        <time>2014-03-06T09:08:47Z</time>
      </trkpt>
      <trkpt lat="46.02782" lon="6.47883">
        <ele>1320.027344</ele>
        <time>2014-03-06T09:09:03Z</time>
      </trkpt>
      <trkpt lat="46.02785" lon="6.47884">
        <ele>1320.98877</ele>
        <time>2014-03-06T09:09:05Z</time>
      </trkpt>
      <trkpt lat="46.02796" lon="6.47886">
        <ele>1321.949951</ele>
        <time>2014-03-06T09:09:15Z</time>
      </trkpt>
      <trkpt lat="46.02799" lon="6.47888">
        <ele>1321.949951</ele>
        <time>2014-03-06T09:09:29Z</time>
      </trkpt>
      <trkpt lat="46.02799" lon="6.47891">
        <ele>1322.430664</ele>
        <time>2014-03-06T09:10:20Z</time>
      </trkpt>
      <trkpt lat="46.02813" lon="6.47893">
        <ele>1323.39209</ele>
        <time>2014-03-06T09:10:29Z</time>
      </trkpt>
      <trkpt lat="46.0283" lon="6.47903">
        <ele>1325.314697</ele>
        <time>2014-03-06T09:10:44Z</time>
      </trkpt>
      <trkpt lat="46.02842" lon="6.47913">
        <ele>1326.756836</ele>
        <time>2014-03-06T09:10:56Z</time>
      </trkpt>
      <trkpt lat="46.02853" lon="6.47918">
        <ele>1328.679443</ele>
        <time>2014-03-06T09:11:09Z</time>
      </trkpt>
      <trkpt lat="46.02866" lon="6.47923">
        <ele>1330.121338</ele>
        <time>2014-03-06T09:11:20Z</time>
      </trkpt>
      <trkpt lat="46.02871" lon="6.47926">
        <ele>1330.602051</ele>
        <time>2014-03-06T09:11:26Z</time>
      </trkpt>
      <trkpt lat="46.02882" lon="6.47929">
        <ele>1332.524658</ele>
        <time>2014-03-06T09:11:39Z</time>
      </trkpt>
      <trkpt lat="46.02897" lon="6.47931">
        <ele>1334.927979</ele>
        <time>2014-03-06T09:11:50Z</time>
      </trkpt>
      <trkpt lat="46.02906" lon="6.47944">
        <ele>1335.88916</ele>
        <time>2014-03-06T09:12:02Z</time>
      </trkpt>
      <trkpt lat="46.02912" lon="6.47955">
        <ele>1338.773193</ele>
        <time>2014-03-06T09:12:12Z</time>
      </trkpt>
      <trkpt lat="46.02917" lon="6.47967">
        <ele>1339.253662</ele>
        <time>2014-03-06T09:12:24Z</time>
      </trkpt>
      <trkpt lat="46.02928" lon="6.4798">
        <ele>1340.215332</ele>
        <time>2014-03-06T09:12:35Z</time>
      </trkpt>
      <trkpt lat="46.02931" lon="6.47984">
        <ele>1340.695801</ele>
        <time>2014-03-06T09:12:37Z</time>
      </trkpt>
      <trkpt lat="46.02945" lon="6.47996">
        <ele>1342.137939</ele>
        <time>2014-03-06T09:12:51Z</time>
      </trkpt>
      <trkpt lat="46.02955" lon="6.48">
        <ele>1342.618652</ele>
        <time>2014-03-06T09:12:58Z</time>
      </trkpt>
      <trkpt lat="46.02967" lon="6.48006">
        <ele>1343.579834</ele>
        <time>2014-03-06T09:13:08Z</time>
      </trkpt>
      <trkpt lat="46.02984" lon="6.48011">
        <ele>1345.021729</ele>
        <time>2014-03-06T09:13:23Z</time>
      </trkpt>
      <trkpt lat="46.02998" lon="6.48011">
        <ele>1347.905762</ele>
        <time>2014-03-06T09:13:35Z</time>
      </trkpt>
      <trkpt lat="46.03008" lon="6.48004">
        <ele>1348.38623</ele>
        <time>2014-03-06T09:13:45Z</time>
      </trkpt>
      <trkpt lat="46.03009" lon="6.48004">
        <ele>1349.347656</ele>
        <time>2014-03-06T09:13:46Z</time>
      </trkpt>
      <trkpt lat="46.03024" lon="6.47996">
        <ele>1350.309082</ele>
        <time>2014-03-06T09:14:00Z</time>
      </trkpt>
      <trkpt lat="46.03041" lon="6.47993">
        <ele>1353.192871</ele>
        <time>2014-03-06T09:14:15Z</time>
      </trkpt>
      <trkpt lat="46.03054" lon="6.47996">
        <ele>1355.115479</ele>
        <time>2014-03-06T09:14:27Z</time>
      </trkpt>
      <trkpt lat="46.03066" lon="6.48001">
        <ele>1355.115479</ele>
        <time>2014-03-06T09:14:37Z</time>
      </trkpt>
      <trkpt lat="46.03069" lon="6.48002">
        <ele>1357.03833</ele>
        <time>2014-03-06T09:14:39Z</time>
      </trkpt>
      <trkpt lat="46.03084" lon="6.4801">
        <ele>1357.03833</ele>
        <time>2014-03-06T09:14:53Z</time>
      </trkpt>
      <trkpt lat="46.03098" lon="6.48019">
        <ele>1357.999756</ele>
        <time>2014-03-06T09:15:09Z</time>
      </trkpt>
      <trkpt lat="46.03108" lon="6.48026">
        <ele>1359.44165</ele>
        <time>2014-03-06T09:15:21Z</time>
      </trkpt>
      <trkpt lat="46.03113" lon="6.48034">
        <ele>1362.325439</ele>
        <time>2014-03-06T09:15:32Z</time>
      </trkpt>
      <trkpt lat="46.03125" lon="6.48041">
        <ele>1362.325439</ele>
        <time>2014-03-06T09:15:45Z</time>
      </trkpt>
      <trkpt lat="46.03141" lon="6.48047">
        <ele>1361.364258</ele>
        <time>2014-03-06T09:15:57Z</time>
      </trkpt>
      <trkpt lat="46.03148" lon="6.4805">
        <ele>1364.72876</ele>
        <time>2014-03-06T09:16:03Z</time>
      </trkpt>
      <trkpt lat="46.03163" lon="6.4806">
        <ele>1363.767334</ele>
        <time>2014-03-06T09:16:15Z</time>
      </trkpt>
      <trkpt lat="46.03175" lon="6.48062">
        <ele>1365.209473</ele>
        <time>2014-03-06T09:16:23Z</time>
      </trkpt>
      <trkpt lat="46.0318" lon="6.48058">
        <ele>1365.209473</ele>
        <time>2014-03-06T09:16:27Z</time>
      </trkpt>
      <trkpt lat="46.03173" lon="6.48041">
        <ele>1368.573975</ele>
        <time>2014-03-06T09:16:39Z</time>
      </trkpt>
      <trkpt lat="46.0316" lon="6.48029">
        <ele>1369.5354</ele>
        <time>2014-03-06T09:16:52Z</time>
      </trkpt>
      <trkpt lat="46.03152" lon="6.48019">
        <ele>1370.015869</ele>
        <time>2014-03-06T09:17:02Z</time>
      </trkpt>
      <trkpt lat="46.03146" lon="6.48012">
        <ele>1371.938477</ele>
        <time>2014-03-06T09:17:10Z</time>
      </trkpt>
      <trkpt lat="46.03137" lon="6.47999">
        <ele>1372.900146</ele>
        <time>2014-03-06T09:17:23Z</time>
      </trkpt>
      <trkpt lat="46.0313" lon="6.47991">
        <ele>1375.303223</ele>
        <time>2014-03-06T09:17:32Z</time>
      </trkpt>
      <trkpt lat="46.03121" lon="6.4798">
        <ele>1376.264648</ele>
        <time>2014-03-06T09:17:42Z</time>
      </trkpt>
      <trkpt lat="46.03118" lon="6.47976">
        <ele>1376.264648</ele>
        <time>2014-03-06T09:17:45Z</time>
      </trkpt>
      <trkpt lat="46.03116" lon="6.47971">
        <ele>1378.187256</ele>
        <time>2014-03-06T09:17:49Z</time>
      </trkpt>
      <trkpt lat="46.03109" lon="6.47961">
        <ele>1377.226074</ele>
        <time>2014-03-06T09:18:02Z</time>
      </trkpt>
      <trkpt lat="46.03107" lon="6.4796">
        <ele>1379.148438</ele>
        <time>2014-03-06T09:19:01Z</time>
      </trkpt>
      <trkpt lat="46.03107" lon="6.47961">
        <ele>1377.226074</ele>
        <time>2014-03-06T09:19:57Z</time>
      </trkpt>
      <trkpt lat="46.03107" lon="6.4796">
        <ele>1379.148438</ele>
        <time>2014-03-06T09:20:09Z</time>
      </trkpt>
      <trkpt lat="46.03108" lon="6.47958">
        <ele>1378.667969</ele>
        <time>2014-03-06T09:20:18Z</time>
      </trkpt>
      <trkpt lat="46.03105" lon="6.47953">
        <ele>1378.667969</ele>
        <time>2014-03-06T09:20:29Z</time>
      </trkpt>
      <trkpt lat="46.03093" lon="6.47937">
        <ele>1379.148438</ele>
        <time>2014-03-06T09:20:45Z</time>
      </trkpt>
      <trkpt lat="46.03084" lon="6.47927">
        <ele>1382.032471</ele>
        <time>2014-03-06T09:20:55Z</time>
      </trkpt>
      <trkpt lat="46.03075" lon="6.47912">
        <ele>1383.474365</ele>
        <time>2014-03-06T09:21:07Z</time>
      </trkpt>
      <trkpt lat="46.03071" lon="6.47906">
        <ele>1383.955078</ele>
        <time>2014-03-06T09:21:12Z</time>
      </trkpt>
      <trkpt lat="46.0306" lon="6.47891">
        <ele>1385.396973</ele>
        <time>2014-03-06T09:21:27Z</time>
      </trkpt>
      <trkpt lat="46.0306" lon="6.47889">
        <ele>1382.032471</ele>
        <time>2014-03-06T09:22:01Z</time>
      </trkpt>
      <trkpt lat="46.0306" lon="6.47889">
        <ele>1385.877686</ele>
        <time>2014-03-06T09:22:02Z</time>
      </trkpt>
      <trkpt lat="46.0306" lon="6.47888">
        <ele>1382.032471</ele>
        <time>2014-03-06T09:22:05Z</time>
      </trkpt>
      <trkpt lat="46.0306" lon="6.47888">
        <ele>1386.358398</ele>
        <time>2014-03-06T09:22:06Z</time>
      </trkpt>
      <trkpt lat="46.0306" lon="6.47889">
        <ele>1383.474365</ele>
        <time>2014-03-06T09:22:09Z</time>
      </trkpt>
      <trkpt lat="46.0306" lon="6.47888">
        <ele>1380.109863</ele>
        <time>2014-03-06T09:22:11Z</time>
      </trkpt>
      <trkpt lat="46.0306" lon="6.47888">
        <ele>1386.838867</ele>
        <time>2014-03-06T09:22:12Z</time>
      </trkpt>
      <trkpt lat="46.0306" lon="6.47887">
        <ele>1383.474365</ele>
        <time>2014-03-06T09:22:13Z</time>
      </trkpt>
      <trkpt lat="46.0305" lon="6.47873">
        <ele>1386.838867</ele>
        <time>2014-03-06T09:22:25Z</time>
      </trkpt>
      <trkpt lat="46.03041" lon="6.47862">
        <ele>1385.877686</ele>
        <time>2014-03-06T09:22:35Z</time>
      </trkpt>
      <trkpt lat="46.03037" lon="6.47856">
        <ele>1386.838867</ele>
        <time>2014-03-06T09:22:40Z</time>
      </trkpt>
      <trkpt lat="46.03027" lon="6.47842">
        <ele>1387.31958</ele>
        <time>2014-03-06T09:22:53Z</time>
      </trkpt>
      <trkpt lat="46.03018" lon="6.47828">
        <ele>1389.242432</ele>
        <time>2014-03-06T09:23:05Z</time>
      </trkpt>
      <trkpt lat="46.03009" lon="6.47812">
        <ele>1391.165039</ele>
        <time>2014-03-06T09:23:17Z</time>
      </trkpt>
      <trkpt lat="46.03" lon="6.47799">
        <ele>1392.607178</ele>
        <time>2014-03-06T09:23:29Z</time>
      </trkpt>
      <trkpt lat="46.02992" lon="6.47785">
        <ele>1394.049072</ele>
        <time>2014-03-06T09:23:41Z</time>
      </trkpt>
      <trkpt lat="46.02983" lon="6.4777">
        <ele>1395.97168</ele>
        <time>2014-03-06T09:23:54Z</time>
      </trkpt>
      <trkpt lat="46.02974" lon="6.47753">
        <ele>1396.452393</ele>
        <time>2014-03-06T09:24:08Z</time>
      </trkpt>
      <trkpt lat="46.02965" lon="6.47734">
        <ele>1397.894287</ele>
        <time>2014-03-06T09:24:23Z</time>
      </trkpt>
      <trkpt lat="46.0296" lon="6.47724">
        <ele>1398.855469</ele>
        <time>2014-03-06T09:24:31Z</time>
      </trkpt>
      <trkpt lat="46.0295" lon="6.47706">
        <ele>1398.855469</ele>
        <time>2014-03-06T09:24:45Z</time>
      </trkpt>
      <trkpt lat="46.02949" lon="6.47704">
        <ele>1398.855469</ele>
        <time>2014-03-06T09:24:47Z</time>
      </trkpt>
      <trkpt lat="46.02939" lon="6.47686">
        <ele>1401.739502</ele>
        <time>2014-03-06T09:25:01Z</time>
      </trkpt>
      <trkpt lat="46.02929" lon="6.47669">
        <ele>1403.181396</ele>
        <time>2014-03-06T09:25:15Z</time>
      </trkpt>
      <trkpt lat="46.02928" lon="6.47664">
        <ele>1403.662109</ele>
        <time>2014-03-06T09:25:18Z</time>
      </trkpt>
      <trkpt lat="46.0292" lon="6.47653">
        <ele>1404.623535</ele>
        <time>2014-03-06T09:25:27Z</time>
      </trkpt>
      <trkpt lat="46.02913" lon="6.47641">
        <ele>1406.546143</ele>
        <time>2014-03-06T09:25:37Z</time>
      </trkpt>
      <trkpt lat="46.0291" lon="6.47626">
        <ele>1407.988281</ele>
        <time>2014-03-06T09:25:47Z</time>
      </trkpt>
      <trkpt lat="46.02902" lon="6.47606">
        <ele>1409.430176</ele>
        <time>2014-03-06T09:26:01Z</time>
      </trkpt>
      <trkpt lat="46.02889" lon="6.47591">
        <ele>1410.87207</ele>
        <time>2014-03-06T09:26:16Z</time>
      </trkpt>
      <trkpt lat="46.02878" lon="6.4758">
        <ele>1411.352783</ele>
        <time>2014-03-06T09:26:30Z</time>
      </trkpt>
      <trkpt lat="46.02868" lon="6.47568">
        <ele>1412.313965</ele>
        <time>2014-03-06T09:26:42Z</time>
      </trkpt>
      <trkpt lat="46.02859" lon="6.47552">
        <ele>1413.755859</ele>
        <time>2014-03-06T09:26:56Z</time>
      </trkpt>
      <trkpt lat="46.02855" lon="6.47545">
        <ele>1414.236572</ele>
        <time>2014-03-06T09:27:02Z</time>
      </trkpt>
      <trkpt lat="46.0285" lon="6.47528">
        <ele>1415.678711</ele>
        <time>2014-03-06T09:27:15Z</time>
      </trkpt>
      <trkpt lat="46.02852" lon="6.4751">
        <ele>1416.639893</ele>
        <time>2014-03-06T09:27:27Z</time>
      </trkpt>
      <trkpt lat="46.02853" lon="6.47508">
        <ele>1417.120605</ele>
        <time>2014-03-06T09:27:32Z</time>
      </trkpt>
      <trkpt lat="46.02854" lon="6.47508">
        <ele>1419.043213</ele>
        <time>2014-03-06T09:27:56Z</time>
      </trkpt>
      <trkpt lat="46.0286" lon="6.47501">
        <ele>1420.004639</ele>
        <time>2014-03-06T09:28:03Z</time>
      </trkpt>
      <trkpt lat="46.02872" lon="6.47488">
        <ele>1420.004639</ele>
        <time>2014-03-06T09:28:17Z</time>
      </trkpt>
      <trkpt lat="46.02887" lon="6.4748">
        <ele>1421.446533</ele>
        <time>2014-03-06T09:28:31Z</time>
      </trkpt>
      <trkpt lat="46.029" lon="6.47482">
        <ele>1423.849854</ele>
        <time>2014-03-06T09:28:44Z</time>
      </trkpt>
      <trkpt lat="46.02911" lon="6.47489">
        <ele>1425.291748</ele>
        <time>2014-03-06T09:28:56Z</time>
      </trkpt>
      <trkpt lat="46.02928" lon="6.47501">
        <ele>1426.253174</ele>
        <time>2014-03-06T09:29:13Z</time>
      </trkpt>
      <trkpt lat="46.02942" lon="6.47513">
        <ele>1428.175781</ele>
        <time>2014-03-06T09:29:30Z</time>
      </trkpt>
      <trkpt lat="46.02955" lon="6.47524">
        <ele>1430.098389</ele>
        <time>2014-03-06T09:29:45Z</time>
      </trkpt>
      <trkpt lat="46.0297" lon="6.47534">
        <ele>1431.540283</ele>
        <time>2014-03-06T09:30:00Z</time>
      </trkpt>
      <trkpt lat="46.02982" lon="6.47544">
        <ele>1432.982178</ele>
        <time>2014-03-06T09:30:14Z</time>
      </trkpt>
      <trkpt lat="46.02998" lon="6.47558">
        <ele>1434.424316</ele>
        <time>2014-03-06T09:30:32Z</time>
      </trkpt>
      <trkpt lat="46.0301" lon="6.47567">
        <ele>1435.385498</ele>
        <time>2014-03-06T09:30:46Z</time>
      </trkpt>
      <trkpt lat="46.03018" lon="6.47575">
        <ele>1439.230957</ele>
        <time>2014-03-06T09:30:57Z</time>
      </trkpt>
      <trkpt lat="46.0303" lon="6.47582">
        <ele>1438.750488</ele>
        <time>2014-03-06T09:31:09Z</time>
      </trkpt>
      <trkpt lat="46.03044" lon="6.47588">
        <ele>1439.71167</ele>
        <time>2014-03-06T09:31:23Z</time>
      </trkpt>
      <trkpt lat="46.03053" lon="6.47592">
        <ele>1442.595703</ele>
        <time>2014-03-06T09:31:35Z</time>
      </trkpt>
      <trkpt lat="46.03061" lon="6.47594">
        <ele>1444.518066</ele>
        <time>2014-03-06T09:31:45Z</time>
      </trkpt>
      <trkpt lat="46.03074" lon="6.47599">
        <ele>1444.998779</ele>
        <time>2014-03-06T09:31:58Z</time>
      </trkpt>
      <trkpt lat="46.03087" lon="6.47599">
        <ele>1446.921387</ele>
        <time>2014-03-06T09:32:10Z</time>
      </trkpt>
      <trkpt lat="46.03102" lon="6.47601">
        <ele>1448.363281</ele>
        <time>2014-03-06T09:32:25Z</time>
      </trkpt>
      <trkpt lat="46.03117" lon="6.47606">
        <ele>1449.80542</ele>
        <time>2014-03-06T09:32:41Z</time>
      </trkpt>
      <trkpt lat="46.0313" lon="6.47612">
        <ele>1449.80542</ele>
        <time>2014-03-06T09:32:55Z</time>
      </trkpt>
      <trkpt lat="46.03144" lon="6.4762">
        <ele>1450.286133</ele>
        <time>2014-03-06T09:33:10Z</time>
      </trkpt>
      <trkpt lat="46.03157" lon="6.4762">
        <ele>1453.650879</ele>
        <time>2014-03-06T09:33:23Z</time>
      </trkpt>
      <trkpt lat="46.03173" lon="6.47621">
        <ele>1454.612061</ele>
        <time>2014-03-06T09:33:37Z</time>
      </trkpt>
      <trkpt lat="46.03184" lon="6.47624">
        <ele>1456.053955</ele>
        <time>2014-03-06T09:33:51Z</time>
      </trkpt>
      <trkpt lat="46.03189" lon="6.47626">
        <ele>1457.015381</ele>
        <time>2014-03-06T09:33:56Z</time>
      </trkpt>
      <trkpt lat="46.03205" lon="6.4764">
        <ele>1458.937988</ele>
        <time>2014-03-06T09:34:13Z</time>
      </trkpt>
      <trkpt lat="46.0322" lon="6.47653">
        <ele>1458.937988</ele>
        <time>2014-03-06T09:34:29Z</time>
      </trkpt>
      <trkpt lat="46.03234" lon="6.47658">
        <ele>1459.89917</ele>
        <time>2014-03-06T09:34:43Z</time>
      </trkpt>
      <trkpt lat="46.03241" lon="6.47655">
        <ele>1461.822021</ele>
        <time>2014-03-06T09:34:59Z</time>
      </trkpt>
      <trkpt lat="46.03242" lon="6.47655">
        <ele>1461.822021</ele>
        <time>2014-03-06T09:35:16Z</time>
      </trkpt>
      <trkpt lat="46.03237" lon="6.47656">
        <ele>1459.89917</ele>
        <time>2014-03-06T09:35:49Z</time>
      </trkpt>
      <trkpt lat="46.03237" lon="6.47655">
        <ele>1459.89917</ele>
        <time>2014-03-06T09:36:17Z</time>
      </trkpt>
      <trkpt lat="46.03238" lon="6.47652">
        <ele>1463.263916</ele>
        <time>2014-03-06T09:37:17Z</time>
      </trkpt>
      <trkpt lat="46.03239" lon="6.47652">
        <ele>1459.89917</ele>
        <time>2014-03-06T09:37:18Z</time>
      </trkpt>
      <trkpt lat="46.03247" lon="6.47636">
        <ele>1460.860596</ele>
        <time>2014-03-06T09:37:30Z</time>
      </trkpt>
      <trkpt lat="46.03249" lon="6.47615">
        <ele>1464.225098</ele>
        <time>2014-03-06T09:37:43Z</time>
      </trkpt>
      <trkpt lat="46.03253" lon="6.47601">
        <ele>1463.744385</ele>
        <time>2014-03-06T09:37:54Z</time>
      </trkpt>
      <trkpt lat="46.03257" lon="6.47594">
        <ele>1463.744385</ele>
        <time>2014-03-06T09:37:59Z</time>
      </trkpt>
      <trkpt lat="46.0326" lon="6.47593">
        <ele>1462.783203</ele>
        <time>2014-03-06T09:38:01Z</time>
      </trkpt>
      <trkpt lat="46.03276" lon="6.47602">
        <ele>1464.705811</ele>
        <time>2014-03-06T09:38:14Z</time>
      </trkpt>
      <trkpt lat="46.03292" lon="6.47613">
        <ele>1466.147705</ele>
        <time>2014-03-06T09:38:27Z</time>
      </trkpt>
      <trkpt lat="46.03305" lon="6.47624">
        <ele>1467.5896</ele>
        <time>2014-03-06T09:38:40Z</time>
      </trkpt>
      <trkpt lat="46.03316" lon="6.47633">
        <ele>1468.070557</ele>
        <time>2014-03-06T09:38:52Z</time>
      </trkpt>
      <trkpt lat="46.03331" lon="6.47641">
        <ele>1469.031982</ele>
        <time>2014-03-06T09:39:04Z</time>
      </trkpt>
      <trkpt lat="46.03344" lon="6.47647">
        <ele>1470.473877</ele>
        <time>2014-03-06T09:39:15Z</time>
      </trkpt>
      <trkpt lat="46.03356" lon="6.47652">
        <ele>1471.915771</ele>
        <time>2014-03-06T09:39:27Z</time>
      </trkpt>
      <trkpt lat="46.03367" lon="6.47656">
        <ele>1471.915771</ele>
        <time>2014-03-06T09:39:38Z</time>
      </trkpt>
      <trkpt lat="46.03375" lon="6.47659">
        <ele>1473.838379</ele>
        <time>2014-03-06T09:39:45Z</time>
      </trkpt>
      <trkpt lat="46.03388" lon="6.47661">
        <ele>1474.319092</ele>
        <time>2014-03-06T09:39:57Z</time>
      </trkpt>
      <trkpt lat="46.034" lon="6.47661">
        <ele>1476.722412</ele>
        <time>2014-03-06T09:40:09Z</time>
      </trkpt>
      <trkpt lat="46.03402" lon="6.47658">
        <ele>1476.722412</ele>
        <time>2014-03-06T09:40:12Z</time>
      </trkpt>
      <trkpt lat="46.03407" lon="6.47649">
        <ele>1479.606201</ele>
        <time>2014-03-06T09:40:23Z</time>
      </trkpt>
      <trkpt lat="46.0342" lon="6.47644">
        <ele>1480.567627</ele>
        <time>2014-03-06T09:40:37Z</time>
      </trkpt>
      <trkpt lat="46.03431" lon="6.47638">
        <ele>1480.086914</ele>
        <time>2014-03-06T09:40:49Z</time>
      </trkpt>
      <trkpt lat="46.03441" lon="6.47632">
        <ele>1481.528809</ele>
        <time>2014-03-06T09:41:01Z</time>
      </trkpt>
      <trkpt lat="46.03452" lon="6.47628">
        <ele>1482.970703</ele>
        <time>2014-03-06T09:41:13Z</time>
      </trkpt>
      <trkpt lat="46.03463" lon="6.47624">
        <ele>1482.970703</ele>
        <time>2014-03-06T09:41:25Z</time>
      </trkpt>
      <trkpt lat="46.03475" lon="6.47619">
        <ele>1483.932129</ele>
        <time>2014-03-06T09:41:38Z</time>
      </trkpt>
      <trkpt lat="46.03486" lon="6.47618">
        <ele>1483.451416</ele>
        <time>2014-03-06T09:41:50Z</time>
      </trkpt>
      <trkpt lat="46.03497" lon="6.47621">
        <ele>1484.893799</ele>
        <time>2014-03-06T09:42:02Z</time>
      </trkpt>
      <trkpt lat="46.03504" lon="6.47624">
        <ele>1487.777588</ele>
        <time>2014-03-06T09:42:10Z</time>
      </trkpt>
      <trkpt lat="46.03512" lon="6.47628">
        <ele>1486.816162</ele>
        <time>2014-03-06T09:42:20Z</time>
      </trkpt>
      <trkpt lat="46.03519" lon="6.47632">
        <ele>1488.739014</ele>
        <time>2014-03-06T09:42:32Z</time>
      </trkpt>
      <trkpt lat="46.03517" lon="6.47628">
        <ele>1487.777588</ele>
        <time>2014-03-06T09:43:22Z</time>
      </trkpt>
      <trkpt lat="46.03518" lon="6.47629">
        <ele>1488.258301</ele>
        <time>2014-03-06T09:44:36Z</time>
      </trkpt>
      <trkpt lat="46.03519" lon="6.47629">
        <ele>1491.14209</ele>
        <time>2014-03-06T09:44:39Z</time>
      </trkpt>
      <trkpt lat="46.03519" lon="6.47628">
        <ele>1487.777588</ele>
        <time>2014-03-06T09:44:41Z</time>
      </trkpt>
      <trkpt lat="46.03519" lon="6.47626">
        <ele>1488.739014</ele>
        <time>2014-03-06T09:44:46Z</time>
      </trkpt>
      <trkpt lat="46.03526" lon="6.47601">
        <ele>1486.335693</ele>
        <time>2014-03-06T09:45:00Z</time>
      </trkpt>
      <trkpt lat="46.03533" lon="6.47581">
        <ele>1486.335693</ele>
        <time>2014-03-06T09:45:11Z</time>
      </trkpt>
      <trkpt lat="46.03539" lon="6.47563">
        <ele>1484.893799</ele>
        <time>2014-03-06T09:45:23Z</time>
      </trkpt>
      <trkpt lat="46.03544" lon="6.47548">
        <ele>1485.85498</ele>
        <time>2014-03-06T09:45:34Z</time>
      </trkpt>
      <trkpt lat="46.03545" lon="6.47545">
        <ele>1486.816162</ele>
        <time>2014-03-06T09:45:36Z</time>
      </trkpt>
      <trkpt lat="46.0355" lon="6.4753">
        <ele>1487.777588</ele>
        <time>2014-03-06T09:45:50Z</time>
      </trkpt>
      <trkpt lat="46.03553" lon="6.47515">
        <ele>1491.622803</ele>
        <time>2014-03-06T09:46:03Z</time>
      </trkpt>
      <trkpt lat="46.03554" lon="6.47504">
        <ele>1493.064697</ele>
        <time>2014-03-06T09:46:13Z</time>
      </trkpt>
      <trkpt lat="46.03555" lon="6.47492">
        <ele>1493.54541</ele>
        <time>2014-03-06T09:46:24Z</time>
      </trkpt>
      <trkpt lat="46.03556" lon="6.47483">
        <ele>1494.506592</ele>
        <time>2014-03-06T09:46:31Z</time>
      </trkpt>
      <trkpt lat="46.03558" lon="6.47467">
        <ele>1494.987305</ele>
        <time>2014-03-06T09:46:44Z</time>
      </trkpt>
      <trkpt lat="46.03553" lon="6.47449">
        <ele>1494.987305</ele>
        <time>2014-03-06T09:46:57Z</time>
      </trkpt>
      <trkpt lat="46.03543" lon="6.4742">
        <ele>1492.584229</ele>
        <time>2014-03-06T09:47:09Z</time>
      </trkpt>
      <trkpt lat="46.0354" lon="6.47412">
        <ele>1491.14209</ele>
        <time>2014-03-06T09:47:15Z</time>
      </trkpt>
      <trkpt lat="46.03539" lon="6.4741">
        <ele>1493.064697</ele>
        <time>2014-03-06T09:47:17Z</time>
      </trkpt>
      <trkpt lat="46.03532" lon="6.47397">
        <ele>1493.54541</ele>
        <time>2014-03-06T09:47:31Z</time>
      </trkpt>
      <trkpt lat="46.03525" lon="6.47386">
        <ele>1497.390625</ele>
        <time>2014-03-06T09:47:45Z</time>
      </trkpt>
      <trkpt lat="46.03519" lon="6.47376">
        <ele>1498.83252</ele>
        <time>2014-03-06T09:47:58Z</time>
      </trkpt>
      <trkpt lat="46.03513" lon="6.47367">
        <ele>1499.793945</ele>
        <time>2014-03-06T09:48:11Z</time>
      </trkpt>
      <trkpt lat="46.03512" lon="6.47357">
        <ele>1502.677979</ele>
        <time>2014-03-06T09:48:24Z</time>
      </trkpt>
      <trkpt lat="46.03513" lon="6.47357">
        <ele>1501.716797</ele>
        <time>2014-03-06T09:48:25Z</time>
      </trkpt>
      <trkpt lat="46.03525" lon="6.47354">
        <ele>1503.639404</ele>
        <time>2014-03-06T09:48:38Z</time>
      </trkpt>
      <trkpt lat="46.03534" lon="6.47351">
        <ele>1504.600586</ele>
        <time>2014-03-06T09:48:49Z</time>
      </trkpt>
      <trkpt lat="46.0354" lon="6.47345">
        <ele>1506.523193</ele>
        <time>2014-03-06T09:48:59Z</time>
      </trkpt>
      <trkpt lat="46.03548" lon="6.47336">
        <ele>1507.965332</ele>
        <time>2014-03-06T09:49:12Z</time>
      </trkpt>
      <trkpt lat="46.03549" lon="6.47334">
        <ele>1506.523193</ele>
        <time>2014-03-06T09:49:15Z</time>
      </trkpt>
      <trkpt lat="46.03542" lon="6.47323">
        <ele>1508.445801</ele>
        <time>2014-03-06T09:49:27Z</time>
      </trkpt>
      <trkpt lat="46.03537" lon="6.47312">
        <ele>1510.849121</ele>
        <time>2014-03-06T09:49:38Z</time>
      </trkpt>
      <trkpt lat="46.03534" lon="6.47302">
        <ele>1510.849121</ele>
        <time>2014-03-06T09:49:50Z</time>
      </trkpt>
      <trkpt lat="46.03537" lon="6.473">
        <ele>1512.291016</ele>
        <time>2014-03-06T09:49:56Z</time>
      </trkpt>
      <trkpt lat="46.03546" lon="6.473">
        <ele>1513.252441</ele>
        <time>2014-03-06T09:50:07Z</time>
      </trkpt>
      <trkpt lat="46.03555" lon="6.473">
        <ele>1515.175049</ele>
        <time>2014-03-06T09:50:18Z</time>
      </trkpt>
      <trkpt lat="46.03561" lon="6.47294">
        <ele>1514.694336</ele>
        <time>2014-03-06T09:50:29Z</time>
      </trkpt>
      <trkpt lat="46.03558" lon="6.47285">
        <ele>1518.539795</ele>
        <time>2014-03-06T09:50:39Z</time>
      </trkpt>
      <trkpt lat="46.03557" lon="6.47283">
        <ele>1518.539795</ele>
        <time>2014-03-06T09:50:41Z</time>
      </trkpt>
      <trkpt lat="46.03555" lon="6.47278">
        <ele>1517.0979</ele>
        <time>2014-03-06T09:50:46Z</time>
      </trkpt>
      <trkpt lat="46.03554" lon="6.47276">
        <ele>1519.501221</ele>
        <time>2014-03-06T09:50:48Z</time>
      </trkpt>
      <trkpt lat="46.03551" lon="6.47264">
        <ele>1521.904297</ele>
        <time>2014-03-06T09:51:02Z</time>
      </trkpt>
      <trkpt lat="46.03551" lon="6.47263">
        <ele>1518.539795</ele>
        <time>2014-03-06T09:51:04Z</time>
      </trkpt>
      <trkpt lat="46.03552" lon="6.47265">
        <ele>1519.981689</ele>
        <time>2014-03-06T09:51:07Z</time>
      </trkpt>
      <trkpt lat="46.03557" lon="6.47262">
        <ele>1521.423584</ele>
        <time>2014-03-06T09:51:20Z</time>
      </trkpt>
      <trkpt lat="46.03556" lon="6.47255">
        <ele>1523.346436</ele>
        <time>2014-03-06T09:51:26Z</time>
      </trkpt>
      <trkpt lat="46.03555" lon="6.4725">
        <ele>1521.904297</ele>
        <time>2014-03-06T09:51:43Z</time>
      </trkpt>
      <trkpt lat="46.03555" lon="6.47237">
        <ele>1523.826904</ele>
        <time>2014-03-06T09:52:04Z</time>
      </trkpt>
      <trkpt lat="46.03556" lon="6.47223">
        <ele>1523.826904</ele>
        <time>2014-03-06T09:52:16Z</time>
      </trkpt>
      <trkpt lat="46.03554" lon="6.47207">
        <ele>1524.307617</ele>
        <time>2014-03-06T09:52:30Z</time>
      </trkpt>
      <trkpt lat="46.0355" lon="6.47191">
        <ele>1526.230225</ele>
        <time>2014-03-06T09:52:44Z</time>
      </trkpt>
      <trkpt lat="46.03546" lon="6.47183">
        <ele>1527.19165</ele>
        <time>2014-03-06T09:52:57Z</time>
      </trkpt>
      <trkpt lat="46.03541" lon="6.47176">
        <ele>1527.672119</ele>
        <time>2014-03-06T09:53:07Z</time>
      </trkpt>
      <trkpt lat="46.03534" lon="6.47163">
        <ele>1529.114014</ele>
        <time>2014-03-06T09:53:21Z</time>
      </trkpt>
      <trkpt lat="46.0353" lon="6.47151">
        <ele>1529.594727</ele>
        <time>2014-03-06T09:53:36Z</time>
      </trkpt>
      <trkpt lat="46.03522" lon="6.47139">
        <ele>1530.556152</ele>
        <time>2014-03-06T09:53:56Z</time>
      </trkpt>
      <trkpt lat="46.03516" lon="6.47132">
        <ele>1531.998047</ele>
        <time>2014-03-06T09:54:07Z</time>
      </trkpt>
      <trkpt lat="46.03508" lon="6.47123">
        <ele>1533.440186</ele>
        <time>2014-03-06T09:54:21Z</time>
      </trkpt>
      <trkpt lat="46.03506" lon="6.4712">
        <ele>1533.920898</ele>
        <time>2014-03-06T09:54:25Z</time>
      </trkpt>
      <trkpt lat="46.03499" lon="6.47108">
        <ele>1534.882324</ele>
        <time>2014-03-06T09:54:40Z</time>
      </trkpt>
      <trkpt lat="46.03492" lon="6.47096">
        <ele>1536.324219</ele>
        <time>2014-03-06T09:54:55Z</time>
      </trkpt>
      <trkpt lat="46.03488" lon="6.47088">
        <ele>1536.804688</ele>
        <time>2014-03-06T09:55:08Z</time>
      </trkpt>
      <trkpt lat="46.03481" lon="6.47076">
        <ele>1537.2854</ele>
        <time>2014-03-06T09:55:22Z</time>
      </trkpt>
      <trkpt lat="46.03477" lon="6.47065">
        <ele>1539.688721</ele>
        <time>2014-03-06T09:55:34Z</time>
      </trkpt>
      <trkpt lat="46.03475" lon="6.47052">
        <ele>1542.092041</ele>
        <time>2014-03-06T09:55:47Z</time>
      </trkpt>
      <trkpt lat="46.03475" lon="6.47038">
        <ele>1543.533936</ele>
        <time>2014-03-06T09:55:58Z</time>
      </trkpt>
      <trkpt lat="46.03474" lon="6.47026">
        <ele>1544.495117</ele>
        <time>2014-03-06T09:56:10Z</time>
      </trkpt>
      <trkpt lat="46.03473" lon="6.47009">
        <ele>1545.456543</ele>
        <time>2014-03-06T09:56:24Z</time>
      </trkpt>
      <trkpt lat="46.03471" lon="6.46993">
        <ele>1545.456543</ele>
        <time>2014-03-06T09:56:37Z</time>
      </trkpt>
      <trkpt lat="46.03469" lon="6.46978">
        <ele>1546.417969</ele>
        <time>2014-03-06T09:56:50Z</time>
      </trkpt>
      <trkpt lat="46.03468" lon="6.46965">
        <ele>1546.898438</ele>
        <time>2014-03-06T09:57:02Z</time>
      </trkpt>
      <trkpt lat="46.03466" lon="6.46948">
        <ele>1547.37915</ele>
        <time>2014-03-06T09:57:17Z</time>
      </trkpt>
      <trkpt lat="46.03465" lon="6.46939">
        <ele>1545.937256</ele>
        <time>2014-03-06T09:57:24Z</time>
      </trkpt>
      <trkpt lat="46.03464" lon="6.46936">
        <ele>1546.898438</ele>
        <time>2014-03-06T09:57:26Z</time>
      </trkpt>
      <trkpt lat="46.03464" lon="6.4692">
        <ele>1548.821289</ele>
        <time>2014-03-06T09:57:41Z</time>
      </trkpt>
      <trkpt lat="46.03464" lon="6.46916">
        <ele>1549.782715</ele>
        <time>2014-03-06T09:57:44Z</time>
      </trkpt>
      <trkpt lat="46.03462" lon="6.46911">
        <ele>1549.782715</ele>
        <time>2014-03-06T09:57:49Z</time>
      </trkpt>
      <trkpt lat="46.03459" lon="6.46891">
        <ele>1549.302002</ele>
        <time>2014-03-06T09:58:06Z</time>
      </trkpt>
      <trkpt lat="46.03459" lon="6.4689">
        <ele>1549.302002</ele>
        <time>2014-03-06T09:58:07Z</time>
      </trkpt>
      <trkpt lat="46.03459" lon="6.46887">
        <ele>1550.743896</ele>
        <time>2014-03-06T09:58:09Z</time>
      </trkpt>
      <trkpt lat="46.03459" lon="6.46885">
        <ele>1552.185791</ele>
        <time>2014-03-06T09:58:34Z</time>
      </trkpt>
      <trkpt lat="46.03459" lon="6.46885">
        <ele>1548.821289</ele>
        <time>2014-03-06T09:59:10Z</time>
      </trkpt>
      <trkpt lat="46.03457" lon="6.46877">
        <ele>1551.224609</ele>
        <time>2014-03-06T09:59:57Z</time>
      </trkpt>
      <trkpt lat="46.03449" lon="6.46863">
        <ele>1552.666504</ele>
        <time>2014-03-06T10:00:11Z</time>
      </trkpt>
      <trkpt lat="46.03441" lon="6.4685">
        <ele>1553.147217</ele>
        <time>2014-03-06T10:00:23Z</time>
      </trkpt>
      <trkpt lat="46.03437" lon="6.46844">
        <ele>1553.62793</ele>
        <time>2014-03-06T10:00:29Z</time>
      </trkpt>
      <trkpt lat="46.03436" lon="6.46841">
        <ele>1553.62793</ele>
        <time>2014-03-06T10:00:31Z</time>
      </trkpt>
      <trkpt lat="46.03428" lon="6.46829">
        <ele>1556.031006</ele>
        <time>2014-03-06T10:00:45Z</time>
      </trkpt>
      <trkpt lat="46.0342" lon="6.46816">
        <ele>1557.473145</ele>
        <time>2014-03-06T10:00:59Z</time>
      </trkpt>
      <trkpt lat="46.03413" lon="6.46804">
        <ele>1557.473145</ele>
        <time>2014-03-06T10:01:12Z</time>
      </trkpt>
      <trkpt lat="46.03404" lon="6.46791">
        <ele>1558.434326</ele>
        <time>2014-03-06T10:01:27Z</time>
      </trkpt>
      <trkpt lat="46.03397" lon="6.46781">
        <ele>1559.876221</ele>
        <time>2014-03-06T10:01:39Z</time>
      </trkpt>
      <trkpt lat="46.03389" lon="6.46768">
        <ele>1561.318359</ele>
        <time>2014-03-06T10:01:53Z</time>
      </trkpt>
      <trkpt lat="46.03381" lon="6.46756">
        <ele>1561.799072</ele>
        <time>2014-03-06T10:02:06Z</time>
      </trkpt>
      <trkpt lat="46.03374" lon="6.46747">
        <ele>1563.240967</ele>
        <time>2014-03-06T10:02:17Z</time>
      </trkpt>
      <trkpt lat="46.0337" lon="6.46739">
        <ele>1562.279541</ele>
        <time>2014-03-06T10:02:24Z</time>
      </trkpt>
      <trkpt lat="46.03359" lon="6.46726">
        <ele>1564.683105</ele>
        <time>2014-03-06T10:02:39Z</time>
      </trkpt>
      <trkpt lat="46.03349" lon="6.46713">
        <ele>1565.644531</ele>
        <time>2014-03-06T10:02:54Z</time>
      </trkpt>
      <trkpt lat="46.0334" lon="6.46702">
        <ele>1567.086426</ele>
        <time>2014-03-06T10:03:07Z</time>
      </trkpt>
      <trkpt lat="46.0333" lon="6.4669">
        <ele>1567.566895</ele>
        <time>2014-03-06T10:03:22Z</time>
      </trkpt>
      <trkpt lat="46.03319" lon="6.46681">
        <ele>1569.970215</ele>
        <time>2014-03-06T10:03:36Z</time>
      </trkpt>
      <trkpt lat="46.03315" lon="6.46676">
        <ele>1570.450928</ele>
        <time>2014-03-06T10:03:49Z</time>
      </trkpt>
      <trkpt lat="46.03306" lon="6.46668">
        <ele>1570.931641</ele>
        <time>2014-03-06T10:04:04Z</time>
      </trkpt>
      <trkpt lat="46.03296" lon="6.46657">
        <ele>1571.412109</ele>
        <time>2014-03-06T10:04:18Z</time>
      </trkpt>
      <trkpt lat="46.03286" lon="6.46646">
        <ele>1572.373535</ele>
        <time>2014-03-06T10:04:31Z</time>
      </trkpt>
      <trkpt lat="46.03277" lon="6.46637">
        <ele>1573.334961</ele>
        <time>2014-03-06T10:04:44Z</time>
      </trkpt>
      <trkpt lat="46.0327" lon="6.4663">
        <ele>1573.81543</ele>
        <time>2014-03-06T10:04:59Z</time>
      </trkpt>
      <trkpt lat="46.03262" lon="6.4662">
        <ele>1575.257324</ele>
        <time>2014-03-06T10:05:12Z</time>
      </trkpt>
      <trkpt lat="46.03254" lon="6.4661">
        <ele>1577.180176</ele>
        <time>2014-03-06T10:05:25Z</time>
      </trkpt>
      <trkpt lat="46.03246" lon="6.466">
        <ele>1577.180176</ele>
        <time>2014-03-06T10:05:38Z</time>
      </trkpt>
      <trkpt lat="46.03238" lon="6.46589">
        <ele>1578.62207</ele>
        <time>2014-03-06T10:05:52Z</time>
      </trkpt>
      <trkpt lat="46.0323" lon="6.46577">
        <ele>1579.102539</ele>
        <time>2014-03-06T10:06:06Z</time>
      </trkpt>
      <trkpt lat="46.03223" lon="6.46567">
        <ele>1580.544922</ele>
        <time>2014-03-06T10:06:19Z</time>
      </trkpt>
      <trkpt lat="46.03217" lon="6.46556">
        <ele>1580.544922</ele>
        <time>2014-03-06T10:06:36Z</time>
      </trkpt>
      <trkpt lat="46.03209" lon="6.4654">
        <ele>1582.947998</ele>
        <time>2014-03-06T10:06:51Z</time>
      </trkpt>
      <trkpt lat="46.03204" lon="6.46532">
        <ele>1583.909424</ele>
        <time>2014-03-06T10:07:04Z</time>
      </trkpt>
      <trkpt lat="46.03197" lon="6.46521">
        <ele>1582.947998</ele>
        <time>2014-03-06T10:07:31Z</time>
      </trkpt>
      <trkpt lat="46.03187" lon="6.46507">
        <ele>1584.87085</ele>
        <time>2014-03-06T10:07:46Z</time>
      </trkpt>
      <trkpt lat="46.03177" lon="6.46494">
        <ele>1584.87085</ele>
        <time>2014-03-06T10:08:01Z</time>
      </trkpt>
      <trkpt lat="46.03177" lon="6.46493">
        <ele>1584.87085</ele>
        <time>2014-03-06T10:08:02Z</time>
      </trkpt>
      <trkpt lat="46.03176" lon="6.46492">
        <ele>1586.312744</ele>
        <time>2014-03-06T10:08:04Z</time>
      </trkpt>
      <trkpt lat="46.03169" lon="6.46483">
        <ele>1586.793213</ele>
        <time>2014-03-06T10:08:19Z</time>
      </trkpt>
      <trkpt lat="46.03159" lon="6.46472">
        <ele>1587.273926</ele>
        <time>2014-03-06T10:08:32Z</time>
      </trkpt>
      <trkpt lat="46.0315" lon="6.46462">
        <ele>1588.235352</ele>
        <time>2014-03-06T10:08:45Z</time>
      </trkpt>
      <trkpt lat="46.03145" lon="6.46455">
        <ele>1588.235352</ele>
        <time>2014-03-06T10:08:57Z</time>
      </trkpt>
      <trkpt lat="46.03141" lon="6.46451">
        <ele>1589.196533</ele>
        <time>2014-03-06T10:09:07Z</time>
      </trkpt>
      <trkpt lat="46.03129" lon="6.46447">
        <ele>1587.754639</ele>
        <time>2014-03-06T10:09:19Z</time>
      </trkpt>
      <trkpt lat="46.03128" lon="6.46446">
        <ele>1587.754639</ele>
        <time>2014-03-06T10:09:21Z</time>
      </trkpt>
      <trkpt lat="46.03111" lon="6.46441">
        <ele>1587.273926</ele>
        <time>2014-03-06T10:09:37Z</time>
      </trkpt>
      <trkpt lat="46.03097" lon="6.46437">
        <ele>1587.273926</ele>
        <time>2014-03-06T10:09:50Z</time>
      </trkpt>
      <trkpt lat="46.03085" lon="6.46436">
        <ele>1587.273926</ele>
        <time>2014-03-06T10:10:01Z</time>
      </trkpt>
      <trkpt lat="46.03071" lon="6.46432">
        <ele>1586.312744</ele>
        <time>2014-03-06T10:10:14Z</time>
      </trkpt>
      <trkpt lat="46.03057" lon="6.46428">
        <ele>1585.832031</ele>
        <time>2014-03-06T10:10:26Z</time>
      </trkpt>
      <trkpt lat="46.03044" lon="6.46426">
        <ele>1586.312744</ele>
        <time>2014-03-06T10:10:38Z</time>
      </trkpt>
      <trkpt lat="46.03032" lon="6.46422">
        <ele>1586.312744</ele>
        <time>2014-03-06T10:10:51Z</time>
      </trkpt>
      <trkpt lat="46.03022" lon="6.46417">
        <ele>1585.832031</ele>
        <time>2014-03-06T10:11:03Z</time>
      </trkpt>
      <trkpt lat="46.03017" lon="6.46414">
        <ele>1586.793213</ele>
        <time>2014-03-06T10:11:16Z</time>
      </trkpt>
      <trkpt lat="46.03008" lon="6.46411">
        <ele>1587.754639</ele>
        <time>2014-03-06T10:12:14Z</time>
      </trkpt>
      <trkpt lat="46.03007" lon="6.4641">
        <ele>1586.793213</ele>
        <time>2014-03-06T10:12:15Z</time>
      </trkpt>
      <trkpt lat="46.03004" lon="6.46408">
        <ele>1587.754639</ele>
        <time>2014-03-06T10:12:20Z</time>
      </trkpt>
      <trkpt lat="46.02999" lon="6.46405">
        <ele>1587.754639</ele>
        <time>2014-03-06T10:12:26Z</time>
      </trkpt>
      <trkpt lat="46.02988" lon="6.464">
        <ele>1589.196533</ele>
        <time>2014-03-06T10:12:38Z</time>
      </trkpt>
      <trkpt lat="46.02978" lon="6.46393">
        <ele>1590.638428</ele>
        <time>2014-03-06T10:12:50Z</time>
      </trkpt>
      <trkpt lat="46.02969" lon="6.46386">
        <ele>1590.157959</ele>
        <time>2014-03-06T10:13:01Z</time>
      </trkpt>
      <trkpt lat="46.02958" lon="6.46382">
        <ele>1591.599854</ele>
        <time>2014-03-06T10:13:14Z</time>
      </trkpt>
      <trkpt lat="46.02946" lon="6.46378">
        <ele>1591.599854</ele>
        <time>2014-03-06T10:13:27Z</time>
      </trkpt>
      <trkpt lat="46.02935" lon="6.46376">
        <ele>1592.561279</ele>
        <time>2014-03-06T10:13:40Z</time>
      </trkpt>
      <trkpt lat="46.02925" lon="6.46371">
        <ele>1594.483643</ele>
        <time>2014-03-06T10:13:52Z</time>
      </trkpt>
      <trkpt lat="46.02916" lon="6.46366">
        <ele>1595.925781</ele>
        <time>2014-03-06T10:14:03Z</time>
      </trkpt>
      <trkpt lat="46.02907" lon="6.46358">
        <ele>1595.925781</ele>
        <time>2014-03-06T10:14:16Z</time>
      </trkpt>
      <trkpt lat="46.02898" lon="6.46352">
        <ele>1598.329102</ele>
        <time>2014-03-06T10:14:28Z</time>
      </trkpt>
      <trkpt lat="46.02892" lon="6.46342">
        <ele>1599.77124</ele>
        <time>2014-03-06T10:14:40Z</time>
      </trkpt>
      <trkpt lat="46.02887" lon="6.46333">
        <ele>1599.77124</ele>
        <time>2014-03-06T10:14:49Z</time>
      </trkpt>
      <trkpt lat="46.02881" lon="6.46324">
        <ele>1600.251953</ele>
        <time>2014-03-06T10:14:59Z</time>
      </trkpt>
      <trkpt lat="46.02877" lon="6.46317">
        <ele>1601.693848</ele>
        <time>2014-03-06T10:15:09Z</time>
      </trkpt>
      <trkpt lat="46.0287" lon="6.46311">
        <ele>1601.213135</ele>
        <time>2014-03-06T10:15:33Z</time>
      </trkpt>
      <trkpt lat="46.02863" lon="6.46306">
        <ele>1601.693848</ele>
        <time>2014-03-06T10:15:43Z</time>
      </trkpt>
      <trkpt lat="46.02854" lon="6.46302">
        <ele>1603.135742</ele>
        <time>2014-03-06T10:15:54Z</time>
      </trkpt>
      <trkpt lat="46.02844" lon="6.46302">
        <ele>1603.135742</ele>
        <time>2014-03-06T10:16:06Z</time>
      </trkpt>
      <trkpt lat="46.02838" lon="6.463">
        <ele>1606.500244</ele>
        <time>2014-03-06T10:16:14Z</time>
      </trkpt>
      <trkpt lat="46.02832" lon="6.46291">
        <ele>1607.942383</ele>
        <time>2014-03-06T10:16:25Z</time>
      </trkpt>
      <trkpt lat="46.02831" lon="6.4629">
        <ele>1608.903564</ele>
        <time>2014-03-06T10:16:26Z</time>
      </trkpt>
      <trkpt lat="46.02822" lon="6.46278">
        <ele>1608.903564</ele>
        <time>2014-03-06T10:16:40Z</time>
      </trkpt>
      <trkpt lat="46.02819" lon="6.46274">
        <ele>1609.384277</ele>
        <time>2014-03-06T10:17:02Z</time>
      </trkpt>
      <trkpt lat="46.02816" lon="6.46271">
        <ele>1609.864746</ele>
        <time>2014-03-06T10:17:06Z</time>
      </trkpt>
      <trkpt lat="46.02809" lon="6.46266">
        <ele>1610.345459</ele>
        <time>2014-03-06T10:17:17Z</time>
      </trkpt>
      <trkpt lat="46.028" lon="6.4626">
        <ele>1611.306885</ele>
        <time>2014-03-06T10:17:28Z</time>
      </trkpt>
      <trkpt lat="46.02789" lon="6.46252">
        <ele>1611.787598</ele>
        <time>2014-03-06T10:17:41Z</time>
      </trkpt>
      <trkpt lat="46.02777" lon="6.46244">
        <ele>1611.787598</ele>
        <time>2014-03-06T10:17:55Z</time>
      </trkpt>
      <trkpt lat="46.02767" lon="6.46235">
        <ele>1611.787598</ele>
        <time>2014-03-06T10:18:07Z</time>
      </trkpt>
      <trkpt lat="46.02755" lon="6.46225">
        <ele>1613.229736</ele>
        <time>2014-03-06T10:18:20Z</time>
      </trkpt>
      <trkpt lat="46.02745" lon="6.46215">
        <ele>1611.787598</ele>
        <time>2014-03-06T10:18:33Z</time>
      </trkpt>
      <trkpt lat="46.02739" lon="6.46209">
        <ele>1611.787598</ele>
        <time>2014-03-06T10:18:45Z</time>
      </trkpt>
      <trkpt lat="46.0273" lon="6.462">
        <ele>1612.749023</ele>
        <time>2014-03-06T10:19:01Z</time>
      </trkpt>
      <trkpt lat="46.02721" lon="6.46189">
        <ele>1612.749023</ele>
        <time>2014-03-06T10:19:12Z</time>
      </trkpt>
      <trkpt lat="46.02715" lon="6.46181">
        <ele>1612.749023</ele>
        <time>2014-03-06T10:19:20Z</time>
      </trkpt>
      <trkpt lat="46.02709" lon="6.46172">
        <ele>1611.787598</ele>
        <time>2014-03-06T10:19:30Z</time>
      </trkpt>
      <trkpt lat="46.02703" lon="6.46161">
        <ele>1614.190918</ele>
        <time>2014-03-06T10:19:42Z</time>
      </trkpt>
      <trkpt lat="46.02695" lon="6.4615">
        <ele>1613.710205</ele>
        <time>2014-03-06T10:19:54Z</time>
      </trkpt>
      <trkpt lat="46.02688" lon="6.4614">
        <ele>1615.152344</ele>
        <time>2014-03-06T10:20:05Z</time>
      </trkpt>
      <trkpt lat="46.02683" lon="6.46132">
        <ele>1616.594238</ele>
        <time>2014-03-06T10:20:14Z</time>
      </trkpt>
      <trkpt lat="46.02674" lon="6.46124">
        <ele>1617.074951</ele>
        <time>2014-03-06T10:20:26Z</time>
      </trkpt>
      <trkpt lat="46.02668" lon="6.46118">
        <ele>1617.55542</ele>
        <time>2014-03-06T10:20:37Z</time>
      </trkpt>
      <trkpt lat="46.02661" lon="6.46111">
        <ele>1618.036133</ele>
        <time>2014-03-06T10:21:06Z</time>
      </trkpt>
      <trkpt lat="46.02653" lon="6.46104">
        <ele>1619.478271</ele>
        <time>2014-03-06T10:21:18Z</time>
      </trkpt>
      <trkpt lat="46.02648" lon="6.46099">
        <ele>1620.920166</ele>
        <time>2014-03-06T10:21:26Z</time>
      </trkpt>
      <trkpt lat="46.0264" lon="6.46093">
        <ele>1622.362061</ele>
        <time>2014-03-06T10:21:37Z</time>
      </trkpt>
      <trkpt lat="46.02634" lon="6.46085">
        <ele>1623.323486</ele>
        <time>2014-03-06T10:21:48Z</time>
      </trkpt>
      <trkpt lat="46.02627" lon="6.46077">
        <ele>1625.24585</ele>
        <time>2014-03-06T10:21:59Z</time>
      </trkpt>
      <trkpt lat="46.0262" lon="6.46066">
        <ele>1625.726563</ele>
        <time>2014-03-06T10:22:12Z</time>
      </trkpt>
      <trkpt lat="46.02612" lon="6.46056">
        <ele>1627.64917</ele>
        <time>2014-03-06T10:22:24Z</time>
      </trkpt>
      <trkpt lat="46.0261" lon="6.46053">
        <ele>1627.168701</ele>
        <time>2014-03-06T10:22:40Z</time>
      </trkpt>
      <trkpt lat="46.02603" lon="6.46044">
        <ele>1628.61084</ele>
        <time>2014-03-06T10:22:50Z</time>
      </trkpt>
      <trkpt lat="46.02595" lon="6.46031">
        <ele>1629.572021</ele>
        <time>2014-03-06T10:23:02Z</time>
      </trkpt>
      <trkpt lat="46.02589" lon="6.46021">
        <ele>1630.533447</ele>
        <time>2014-03-06T10:23:14Z</time>
      </trkpt>
      <trkpt lat="46.02585" lon="6.46014">
        <ele>1632.456055</ele>
        <time>2014-03-06T10:23:23Z</time>
      </trkpt>
      <trkpt lat="46.02581" lon="6.46006">
        <ele>1631.975342</ele>
        <time>2014-03-06T10:23:32Z</time>
      </trkpt>
      <trkpt lat="46.02576" lon="6.45999">
        <ele>1635.339844</ele>
        <time>2014-03-06T10:23:40Z</time>
      </trkpt>
      <trkpt lat="46.02572" lon="6.45991">
        <ele>1635.820557</ele>
        <time>2014-03-06T10:23:48Z</time>
      </trkpt>
      <trkpt lat="46.02567" lon="6.45982">
        <ele>1636.781738</ele>
        <time>2014-03-06T10:23:58Z</time>
      </trkpt>
      <trkpt lat="46.02568" lon="6.45982">
        <ele>1637.262451</ele>
        <time>2014-03-06T10:24:21Z</time>
      </trkpt>
      <trkpt lat="46.02562" lon="6.45973">
        <ele>1636.781738</ele>
        <time>2014-03-06T10:24:37Z</time>
      </trkpt>
      <trkpt lat="46.02561" lon="6.4597">
        <ele>1638.223877</ele>
        <time>2014-03-06T10:24:40Z</time>
      </trkpt>
      <trkpt lat="46.02554" lon="6.4596">
        <ele>1638.70459</ele>
        <time>2014-03-06T10:24:51Z</time>
      </trkpt>
      <trkpt lat="46.02549" lon="6.45951">
        <ele>1640.146484</ele>
        <time>2014-03-06T10:25:01Z</time>
      </trkpt>
      <trkpt lat="46.02543" lon="6.45943">
        <ele>1641.588379</ele>
        <time>2014-03-06T10:25:12Z</time>
      </trkpt>
      <trkpt lat="46.02539" lon="6.45933">
        <ele>1643.030273</ele>
        <time>2014-03-06T10:25:23Z</time>
      </trkpt>
      <trkpt lat="46.02538" lon="6.4593">
        <ele>1643.510986</ele>
        <time>2014-03-06T10:25:37Z</time>
      </trkpt>
      <trkpt lat="46.02532" lon="6.4592">
        <ele>1642.549805</ele>
        <time>2014-03-06T10:25:49Z</time>
      </trkpt>
      <trkpt lat="46.02526" lon="6.45909">
        <ele>1644.953125</ele>
        <time>2014-03-06T10:26:00Z</time>
      </trkpt>
      <trkpt lat="46.0252" lon="6.45902">
        <ele>1645.433838</ele>
        <time>2014-03-06T10:26:11Z</time>
      </trkpt>
      <trkpt lat="46.02515" lon="6.45896">
        <ele>1644.953125</ele>
        <time>2014-03-06T10:26:41Z</time>
      </trkpt>
      <trkpt lat="46.02509" lon="6.45887">
        <ele>1646.395264</ele>
        <time>2014-03-06T10:26:51Z</time>
      </trkpt>
      <trkpt lat="46.02503" lon="6.45876">
        <ele>1647.356445</ele>
        <time>2014-03-06T10:27:03Z</time>
      </trkpt>
      <trkpt lat="46.02497" lon="6.45867">
        <ele>1650.240479</ele>
        <time>2014-03-06T10:27:13Z</time>
      </trkpt>
      <trkpt lat="46.02493" lon="6.4586">
        <ele>1649.279053</ele>
        <time>2014-03-06T10:27:20Z</time>
      </trkpt>
      <trkpt lat="46.02488" lon="6.45852">
        <ele>1649.279053</ele>
        <time>2014-03-06T10:27:31Z</time>
      </trkpt>
      <trkpt lat="46.02485" lon="6.45847">
        <ele>1652.643555</ele>
        <time>2014-03-06T10:27:36Z</time>
      </trkpt>
      <trkpt lat="46.0248" lon="6.45838">
        <ele>1652.643555</ele>
        <time>2014-03-06T10:27:47Z</time>
      </trkpt>
      <trkpt lat="46.02473" lon="6.45827">
        <ele>1653.124268</ele>
        <time>2014-03-06T10:27:59Z</time>
      </trkpt>
      <trkpt lat="46.02465" lon="6.45816">
        <ele>1653.60498</ele>
        <time>2014-03-06T10:28:12Z</time>
      </trkpt>
      <trkpt lat="46.02455" lon="6.45803">
        <ele>1653.124268</ele>
        <time>2014-03-06T10:28:25Z</time>
      </trkpt>
      <trkpt lat="46.02449" lon="6.45795">
        <ele>1655.046875</ele>
        <time>2014-03-06T10:28:35Z</time>
      </trkpt>
      <trkpt lat="46.02441" lon="6.45788">
        <ele>1655.046875</ele>
        <time>2014-03-06T10:28:46Z</time>
      </trkpt>
      <trkpt lat="46.02433" lon="6.45782">
        <ele>1654.085693</ele>
        <time>2014-03-06T10:28:55Z</time>
      </trkpt>
      <trkpt lat="46.02427" lon="6.45772">
        <ele>1656.008057</ele>
        <time>2014-03-06T10:29:07Z</time>
      </trkpt>
      <trkpt lat="46.0242" lon="6.45758">
        <ele>1656.969482</ele>
        <time>2014-03-06T10:29:21Z</time>
      </trkpt>
      <trkpt lat="46.02416" lon="6.45751">
        <ele>1657.930908</ele>
        <time>2014-03-06T10:29:29Z</time>
      </trkpt>
      <trkpt lat="46.02409" lon="6.45738">
        <ele>1658.89209</ele>
        <time>2014-03-06T10:29:41Z</time>
      </trkpt>
      <trkpt lat="46.02403" lon="6.45725">
        <ele>1660.814941</ele>
        <time>2014-03-06T10:29:53Z</time>
      </trkpt>
      <trkpt lat="46.02395" lon="6.45712">
        <ele>1663.69873</ele>
        <time>2014-03-06T10:30:08Z</time>
      </trkpt>
      <trkpt lat="46.0239" lon="6.45703">
        <ele>1665.140869</ele>
        <time>2014-03-06T10:30:22Z</time>
      </trkpt>
      <trkpt lat="46.02383" lon="6.45693">
        <ele>1665.140869</ele>
        <time>2014-03-06T10:30:41Z</time>
      </trkpt>
      <trkpt lat="46.02376" lon="6.45683">
        <ele>1665.621582</ele>
        <time>2014-03-06T10:30:54Z</time>
      </trkpt>
      <trkpt lat="46.02366" lon="6.4567">
        <ele>1667.543945</ele>
        <time>2014-03-06T10:31:09Z</time>
      </trkpt>
      <trkpt lat="46.02359" lon="6.4566">
        <ele>1668.505371</ele>
        <time>2014-03-06T10:31:23Z</time>
      </trkpt>
      <trkpt lat="46.0235" lon="6.45651">
        <ele>1671.869873</ele>
        <time>2014-03-06T10:31:37Z</time>
      </trkpt>
      <trkpt lat="46.02342" lon="6.45643">
        <ele>1672.831299</ele>
        <time>2014-03-06T10:31:50Z</time>
      </trkpt>
      <trkpt lat="46.02335" lon="6.45635">
        <ele>1676.196045</ele>
        <time>2014-03-06T10:32:01Z</time>
      </trkpt>
      <trkpt lat="46.02327" lon="6.45626">
        <ele>1677.157471</ele>
        <time>2014-03-06T10:32:14Z</time>
      </trkpt>
      <trkpt lat="46.02318" lon="6.45616">
        <ele>1680.04126</ele>
        <time>2014-03-06T10:32:28Z</time>
      </trkpt>
      <trkpt lat="46.0231" lon="6.45608">
        <ele>1681.963867</ele>
        <time>2014-03-06T10:32:40Z</time>
      </trkpt>
      <trkpt lat="46.02302" lon="6.45601">
        <ele>1683.886475</ele>
        <time>2014-03-06T10:32:52Z</time>
      </trkpt>
      <trkpt lat="46.02294" lon="6.45592">
        <ele>1685.328369</ele>
        <time>2014-03-06T10:33:05Z</time>
      </trkpt>
      <trkpt lat="46.02288" lon="6.45582">
        <ele>1686.770264</ele>
        <time>2014-03-06T10:33:16Z</time>
      </trkpt>
      <trkpt lat="46.02279" lon="6.45569">
        <ele>1687.250977</ele>
        <time>2014-03-06T10:33:30Z</time>
      </trkpt>
      <trkpt lat="46.02277" lon="6.45567">
        <ele>1688.212402</ele>
        <time>2014-03-06T10:33:32Z</time>
      </trkpt>
      <trkpt lat="46.02267" lon="6.45553">
        <ele>1688.212402</ele>
        <time>2014-03-06T10:33:47Z</time>
      </trkpt>
      <trkpt lat="46.02259" lon="6.45541">
        <ele>1690.615479</ele>
        <time>2014-03-06T10:34:01Z</time>
      </trkpt>
      <trkpt lat="46.02252" lon="6.45533">
        <ele>1690.615479</ele>
        <time>2014-03-06T10:34:12Z</time>
      </trkpt>
      <trkpt lat="46.02246" lon="6.45526">
        <ele>1693.980469</ele>
        <time>2014-03-06T10:34:21Z</time>
      </trkpt>
      <trkpt lat="46.02239" lon="6.45517">
        <ele>1694.94165</ele>
        <time>2014-03-06T10:34:33Z</time>
      </trkpt>
      <trkpt lat="46.02238" lon="6.45514">
        <ele>1694.94165</ele>
        <time>2014-03-06T10:34:35Z</time>
      </trkpt>
      <trkpt lat="46.02236" lon="6.45497">
        <ele>1695.903076</ele>
        <time>2014-03-06T10:34:49Z</time>
      </trkpt>
      <trkpt lat="46.02236" lon="6.45491">
        <ele>1695.903076</ele>
        <time>2014-03-06T10:35:04Z</time>
      </trkpt>
      <trkpt lat="46.02236" lon="6.45492">
        <ele>1683.886475</ele>
        <time>2014-03-06T10:35:18Z</time>
      </trkpt>
      <trkpt lat="46.02236" lon="6.45492">
        <ele>1694.460938</ele>
        <time>2014-03-06T10:35:19Z</time>
      </trkpt>
      <trkpt lat="46.02236" lon="6.45492">
        <ele>1695.903076</ele>
        <time>2014-03-06T10:35:21Z</time>
      </trkpt>
      <trkpt lat="46.02236" lon="6.45492">
        <ele>1704.074219</ele>
        <time>2014-03-06T10:36:39Z</time>
      </trkpt>
      <trkpt lat="46.02236" lon="6.45492">
        <ele>1695.422363</ele>
        <time>2014-03-06T10:36:40Z</time>
      </trkpt>
      <trkpt lat="46.02238" lon="6.45491">
        <ele>1695.422363</ele>
        <time>2014-03-06T10:37:00Z</time>
      </trkpt>
      <trkpt lat="46.02247" lon="6.45466">
        <ele>1694.460938</ele>
        <time>2014-03-06T10:37:14Z</time>
      </trkpt>
      <trkpt lat="46.02253" lon="6.45435">
        <ele>1694.460938</ele>
        <time>2014-03-06T10:37:27Z</time>
      </trkpt>
      <trkpt lat="46.02252" lon="6.45423">
        <ele>1693.019043</ele>
        <time>2014-03-06T10:37:31Z</time>
      </trkpt>
      <trkpt lat="46.02249" lon="6.454">
        <ele>1691.576904</ele>
        <time>2014-03-06T10:37:43Z</time>
      </trkpt>
      <trkpt lat="46.02248" lon="6.45381">
        <ele>1692.538574</ele>
        <time>2014-03-06T10:37:54Z</time>
      </trkpt>
      <trkpt lat="46.02243" lon="6.45365">
        <ele>1693.499756</ele>
        <time>2014-03-06T10:38:08Z</time>
      </trkpt>
      <trkpt lat="46.02237" lon="6.45353">
        <ele>1695.903076</ele>
        <time>2014-03-06T10:38:21Z</time>
      </trkpt>
      <trkpt lat="46.02233" lon="6.45345">
        <ele>1697.825684</ele>
        <time>2014-03-06T10:38:29Z</time>
      </trkpt>
      <trkpt lat="46.02227" lon="6.45332">
        <ele>1700.229004</ele>
        <time>2014-03-06T10:38:40Z</time>
      </trkpt>
      <trkpt lat="46.0222" lon="6.45319">
        <ele>1702.151367</ele>
        <time>2014-03-06T10:38:52Z</time>
      </trkpt>
      <trkpt lat="46.02213" lon="6.45304">
        <ele>1703.112793</ele>
        <time>2014-03-06T10:39:06Z</time>
      </trkpt>
      <trkpt lat="46.02205" lon="6.4529">
        <ele>1704.074219</ele>
        <time>2014-03-06T10:39:19Z</time>
      </trkpt>
      <trkpt lat="46.02198" lon="6.45278">
        <ele>1705.516113</ele>
        <time>2014-03-06T10:39:31Z</time>
      </trkpt>
      <trkpt lat="46.02194" lon="6.45265">
        <ele>1705.996582</ele>
        <time>2014-03-06T10:39:45Z</time>
      </trkpt>
      <trkpt lat="46.02188" lon="6.45253">
        <ele>1707.919434</ele>
        <time>2014-03-06T10:40:22Z</time>
      </trkpt>
      <trkpt lat="46.02179" lon="6.45238">
        <ele>1707.919434</ele>
        <time>2014-03-06T10:40:35Z</time>
      </trkpt>
      <trkpt lat="46.02178" lon="6.45237">
        <ele>1707.438721</ele>
        <time>2014-03-06T10:40:36Z</time>
      </trkpt>
      <trkpt lat="46.0217" lon="6.45224">
        <ele>1708.880859</ele>
        <time>2014-03-06T10:40:47Z</time>
      </trkpt>
      <trkpt lat="46.02162" lon="6.45212">
        <ele>1710.803467</ele>
        <time>2014-03-06T10:41:01Z</time>
      </trkpt>
      <trkpt lat="46.02154" lon="6.45203">
        <ele>1712.245361</ele>
        <time>2014-03-06T10:41:14Z</time>
      </trkpt>
      <trkpt lat="46.02148" lon="6.45195">
        <ele>1712.726074</ele>
        <time>2014-03-06T10:41:25Z</time>
      </trkpt>
      <trkpt lat="46.02142" lon="6.45187">
        <ele>1714.648682</ele>
        <time>2014-03-06T10:41:37Z</time>
      </trkpt>
      <trkpt lat="46.02132" lon="6.45181">
        <ele>1717.052002</ele>
        <time>2014-03-06T10:41:51Z</time>
      </trkpt>
      <trkpt lat="46.02127" lon="6.45178">
        <ele>1717.052002</ele>
        <time>2014-03-06T10:41:58Z</time>
      </trkpt>
      <trkpt lat="46.0212" lon="6.45173">
        <ele>1717.532471</ele>
        <time>2014-03-06T10:42:13Z</time>
      </trkpt>
      <trkpt lat="46.02109" lon="6.45168">
        <ele>1717.532471</ele>
        <time>2014-03-06T10:42:33Z</time>
      </trkpt>
      <trkpt lat="46.02095" lon="6.45159">
        <ele>1718.013184</ele>
        <time>2014-03-06T10:42:47Z</time>
      </trkpt>
      <trkpt lat="46.02086" lon="6.4515">
        <ele>1720.416504</ele>
        <time>2014-03-06T10:42:59Z</time>
      </trkpt>
      <trkpt lat="46.02075" lon="6.45138">
        <ele>1720.897217</ele>
        <time>2014-03-06T10:43:14Z</time>
      </trkpt>
      <trkpt lat="46.02065" lon="6.4513">
        <ele>1722.339111</ele>
        <time>2014-03-06T10:43:27Z</time>
      </trkpt>
      <trkpt lat="46.02054" lon="6.45119">
        <ele>1723.300537</ele>
        <time>2014-03-06T10:43:41Z</time>
      </trkpt>
      <trkpt lat="46.02041" lon="6.45111">
        <ele>1723.300537</ele>
        <time>2014-03-06T10:43:55Z</time>
      </trkpt>
      <trkpt lat="46.02029" lon="6.45103">
        <ele>1724.742676</ele>
        <time>2014-03-06T10:44:08Z</time>
      </trkpt>
      <trkpt lat="46.02019" lon="6.45095">
        <ele>1725.703857</ele>
        <time>2014-03-06T10:44:20Z</time>
      </trkpt>
      <trkpt lat="46.02016" lon="6.45093">
        <ele>1726.665283</ele>
        <time>2014-03-06T10:44:28Z</time>
      </trkpt>
      <trkpt lat="46.02015" lon="6.45092">
        <ele>1726.665283</ele>
        <time>2014-03-06T10:44:53Z</time>
      </trkpt>
      <trkpt lat="46.02007" lon="6.45086">
        <ele>1726.18457</ele>
        <time>2014-03-06T10:45:08Z</time>
      </trkpt>
      <trkpt lat="46.01996" lon="6.45077">
        <ele>1726.665283</ele>
        <time>2014-03-06T10:45:19Z</time>
      </trkpt>
      <trkpt lat="46.01981" lon="6.45066">
        <ele>1726.665283</ele>
        <time>2014-03-06T10:45:34Z</time>
      </trkpt>
      <trkpt lat="46.01964" lon="6.45055">
        <ele>1726.665283</ele>
        <time>2014-03-06T10:45:48Z</time>
      </trkpt>
      <trkpt lat="46.01957" lon="6.45051">
        <ele>1728.587891</ele>
        <time>2014-03-06T10:45:54Z</time>
      </trkpt>
      <trkpt lat="46.01941" lon="6.45041">
        <ele>1728.587891</ele>
        <time>2014-03-06T10:46:08Z</time>
      </trkpt>
      <trkpt lat="46.01925" lon="6.4503">
        <ele>1728.587891</ele>
        <time>2014-03-06T10:46:22Z</time>
      </trkpt>
      <trkpt lat="46.0191" lon="6.4502">
        <ele>1728.107178</ele>
        <time>2014-03-06T10:46:34Z</time>
      </trkpt>
      <trkpt lat="46.01901" lon="6.45015">
        <ele>1728.107178</ele>
        <time>2014-03-06T10:46:48Z</time>
      </trkpt>
      <trkpt lat="46.01886" lon="6.45007">
        <ele>1728.107178</ele>
        <time>2014-03-06T10:47:00Z</time>
      </trkpt>
      <trkpt lat="46.01866" lon="6.44994">
        <ele>1727.626465</ele>
        <time>2014-03-06T10:47:14Z</time>
      </trkpt>
      <trkpt lat="46.01848" lon="6.44983">
        <ele>1727.145996</ele>
        <time>2014-03-06T10:47:27Z</time>
      </trkpt>
      <trkpt lat="46.01832" lon="6.44975">
        <ele>1727.626465</ele>
        <time>2014-03-06T10:47:39Z</time>
      </trkpt>
      <trkpt lat="46.01816" lon="6.44967">
        <ele>1726.665283</ele>
        <time>2014-03-06T10:47:52Z</time>
      </trkpt>
      <trkpt lat="46.01799" lon="6.44958">
        <ele>1726.18457</ele>
        <time>2014-03-06T10:48:06Z</time>
      </trkpt>
      <trkpt lat="46.01787" lon="6.4495">
        <ele>1729.068359</ele>
        <time>2014-03-06T10:48:19Z</time>
      </trkpt>
      <trkpt lat="46.01774" lon="6.44945">
        <ele>1730.510498</ele>
        <time>2014-03-06T10:48:33Z</time>
      </trkpt>
      <trkpt lat="46.01761" lon="6.4494">
        <ele>1730.991211</ele>
        <time>2014-03-06T10:48:46Z</time>
      </trkpt>
      <trkpt lat="46.01758" lon="6.44939">
        <ele>1732.433105</ele>
        <time>2014-03-06T10:48:49Z</time>
      </trkpt>
      <trkpt lat="46.01744" lon="6.44933">
        <ele>1733.394287</ele>
        <time>2014-03-06T10:49:03Z</time>
      </trkpt>
      <trkpt lat="46.01731" lon="6.44928">
        <ele>1734.355713</ele>
        <time>2014-03-06T10:49:16Z</time>
      </trkpt>
      <trkpt lat="46.01717" lon="6.44924">
        <ele>1733.875</ele>
        <time>2014-03-06T10:49:29Z</time>
      </trkpt>
      <trkpt lat="46.01706" lon="6.44923">
        <ele>1736.27832</ele>
        <time>2014-03-06T10:49:40Z</time>
      </trkpt>
      <trkpt lat="46.01692" lon="6.44924">
        <ele>1736.758789</ele>
        <time>2014-03-06T10:49:52Z</time>
      </trkpt>
      <trkpt lat="46.01679" lon="6.44929">
        <ele>1736.758789</ele>
        <time>2014-03-06T10:50:03Z</time>
      </trkpt>
      <trkpt lat="46.01674" lon="6.44933">
        <ele>1736.758789</ele>
        <time>2014-03-06T10:50:08Z</time>
      </trkpt>
      <trkpt lat="46.01667" lon="6.44941">
        <ele>1737.239502</ele>
        <time>2014-03-06T10:50:20Z</time>
      </trkpt>
      <trkpt lat="46.01663" lon="6.44944">
        <ele>1737.720215</ele>
        <time>2014-03-06T10:50:58Z</time>
      </trkpt>
      <trkpt lat="46.0165" lon="6.44955">
        <ele>1739.162109</ele>
        <time>2014-03-06T10:51:11Z</time>
      </trkpt>
      <trkpt lat="46.01647" lon="6.44959">
        <ele>1739.162109</ele>
        <time>2014-03-06T10:51:15Z</time>
      </trkpt>
      <trkpt lat="46.01636" lon="6.44969">
        <ele>1739.642822</ele>
        <time>2014-03-06T10:51:28Z</time>
      </trkpt>
      <trkpt lat="46.01625" lon="6.4498">
        <ele>1740.604248</ele>
        <time>2014-03-06T10:51:42Z</time>
      </trkpt>
      <trkpt lat="46.01613" lon="6.44989">
        <ele>1742.5271</ele>
        <time>2014-03-06T10:51:56Z</time>
      </trkpt>
      <trkpt lat="46.01603" lon="6.44997">
        <ele>1743.007568</ele>
        <time>2014-03-06T10:52:09Z</time>
      </trkpt>
      <trkpt lat="46.01595" lon="6.45005">
        <ele>1745.410889</ele>
        <time>2014-03-06T10:52:21Z</time>
      </trkpt>
      <trkpt lat="46.01586" lon="6.45011">
        <ele>1747.333496</ele>
        <time>2014-03-06T10:52:34Z</time>
      </trkpt>
      <trkpt lat="46.0158" lon="6.45016">
        <ele>1746.372314</ele>
        <time>2014-03-06T10:52:47Z</time>
      </trkpt>
      <trkpt lat="46.01572" lon="6.45023">
        <ele>1748.294678</ele>
        <time>2014-03-06T10:53:05Z</time>
      </trkpt>
      <trkpt lat="46.01565" lon="6.45034">
        <ele>1749.256104</ele>
        <time>2014-03-06T10:53:18Z</time>
      </trkpt>
      <trkpt lat="46.01558" lon="6.45042">
        <ele>1751.178711</ele>
        <time>2014-03-06T10:53:30Z</time>
      </trkpt>
      <trkpt lat="46.0155" lon="6.45049">
        <ele>1751.178711</ele>
        <time>2014-03-06T10:53:49Z</time>
      </trkpt>
      <trkpt lat="46.01543" lon="6.45061">
        <ele>1752.139893</ele>
        <time>2014-03-06T10:54:03Z</time>
      </trkpt>
      <trkpt lat="46.01537" lon="6.4507">
        <ele>1753.101318</ele>
        <time>2014-03-06T10:54:15Z</time>
      </trkpt>
      <trkpt lat="46.01532" lon="6.45078">
        <ele>1755.985107</ele>
        <time>2014-03-06T10:54:25Z</time>
      </trkpt>
      <trkpt lat="46.01525" lon="6.45088">
        <ele>1758.388672</ele>
        <time>2014-03-06T10:54:37Z</time>
      </trkpt>
      <trkpt lat="46.0152" lon="6.45097">
        <ele>1758.388672</ele>
        <time>2014-03-06T10:54:51Z</time>
      </trkpt>
      <trkpt lat="46.01516" lon="6.45107">
        <ele>1758.869385</ele>
        <time>2014-03-06T10:55:04Z</time>
      </trkpt>
      <trkpt lat="46.01515" lon="6.45109">
        <ele>1758.869385</ele>
        <time>2014-03-06T10:55:29Z</time>
      </trkpt>
      <trkpt lat="46.01516" lon="6.4511">
        <ele>1759.830566</ele>
        <time>2014-03-06T10:55:46Z</time>
      </trkpt>
      <trkpt lat="46.01525" lon="6.45129">
        <ele>1759.350098</ele>
        <time>2014-03-06T10:56:00Z</time>
      </trkpt>
      <trkpt lat="46.01526" lon="6.45132">
        <ele>1759.830566</ele>
        <time>2014-03-06T10:56:02Z</time>
      </trkpt>
      <trkpt lat="46.01531" lon="6.45142">
        <ele>1758.869385</ele>
        <time>2014-03-06T10:56:10Z</time>
      </trkpt>
      <trkpt lat="46.01537" lon="6.45158">
        <ele>1759.830566</ele>
        <time>2014-03-06T10:56:22Z</time>
      </trkpt>
      <trkpt lat="46.01542" lon="6.45174">
        <ele>1758.869385</ele>
        <time>2014-03-06T10:56:33Z</time>
      </trkpt>
      <trkpt lat="46.01549" lon="6.45192">
        <ele>1760.311279</ele>
        <time>2014-03-06T10:56:46Z</time>
      </trkpt>
      <trkpt lat="46.01549" lon="6.45194">
        <ele>1759.830566</ele>
        <time>2014-03-06T10:56:48Z</time>
      </trkpt>
      <trkpt lat="46.0155" lon="6.45198">
        <ele>1760.791992</ele>
        <time>2014-03-06T10:56:50Z</time>
      </trkpt>
      <trkpt lat="46.01557" lon="6.45214">
        <ele>1760.311279</ele>
        <time>2014-03-06T10:57:03Z</time>
      </trkpt>
      <trkpt lat="46.01562" lon="6.45225">
        <ele>1761.753418</ele>
        <time>2014-03-06T10:57:14Z</time>
      </trkpt>
      <trkpt lat="46.01569" lon="6.45242">
        <ele>1762.233887</ele>
        <time>2014-03-06T10:57:27Z</time>
      </trkpt>
      <trkpt lat="46.01575" lon="6.45253">
        <ele>1762.233887</ele>
        <time>2014-03-06T10:57:41Z</time>
      </trkpt>
      <trkpt lat="46.01579" lon="6.4525">
        <ele>1761.753418</ele>
        <time>2014-03-06T10:57:47Z</time>
      </trkpt>
      <trkpt lat="46.01591" lon="6.45243">
        <ele>1761.272705</ele>
        <time>2014-03-06T10:58:03Z</time>
      </trkpt>
      <trkpt lat="46.01591" lon="6.45243">
        <ele>1759.830566</ele>
        <time>2014-03-06T10:58:35Z</time>
      </trkpt>
      <trkpt lat="46.0159" lon="6.45245">
        <ele>1759.350098</ele>
        <time>2014-03-06T10:59:29Z</time>
      </trkpt>
      <trkpt lat="46.01592" lon="6.45245">
        <ele>1760.311279</ele>
        <time>2014-03-06T11:00:20Z</time>
      </trkpt>
      <trkpt lat="46.01593" lon="6.45245">
        <ele>1760.791992</ele>
        <time>2014-03-06T11:00:49Z</time>
      </trkpt>
      <trkpt lat="46.0159" lon="6.45247">
        <ele>1759.350098</ele>
        <time>2014-03-06T11:01:29Z</time>
      </trkpt>
      <trkpt lat="46.01589" lon="6.45245">
        <ele>1758.869385</ele>
        <time>2014-03-06T11:02:02Z</time>
      </trkpt>
      <trkpt lat="46.01588" lon="6.45243">
        <ele>1754.062744</ele>
        <time>2014-03-06T11:02:34Z</time>
      </trkpt>
      <trkpt lat="46.01588" lon="6.45243">
        <ele>1758.388672</ele>
        <time>2014-03-06T11:02:35Z</time>
      </trkpt>
      <trkpt lat="46.01588" lon="6.45243">
        <ele>1762.233887</ele>
        <time>2014-03-06T11:02:36Z</time>
      </trkpt>
      <trkpt lat="46.01588" lon="6.45243">
        <ele>1758.388672</ele>
        <time>2014-03-06T11:02:37Z</time>
      </trkpt>
      <trkpt lat="46.01587" lon="6.45242">
        <ele>1747.814209</ele>
        <time>2014-03-06T11:02:49Z</time>
      </trkpt>
      <trkpt lat="46.01587" lon="6.45242">
        <ele>1757.42749</ele>
        <time>2014-03-06T11:02:50Z</time>
      </trkpt>
      <trkpt lat="46.01587" lon="6.45242">
        <ele>1758.869385</ele>
        <time>2014-03-06T11:02:52Z</time>
      </trkpt>
      <trkpt lat="46.01587" lon="6.45242">
        <ele>1765.11792</ele>
        <time>2014-03-06T11:02:59Z</time>
      </trkpt>
      <trkpt lat="46.01587" lon="6.45242">
        <ele>1761.272705</ele>
        <time>2014-03-06T11:03:00Z</time>
      </trkpt>
      <trkpt lat="46.01587" lon="6.45242">
        <ele>1759.350098</ele>
        <time>2014-03-06T11:03:02Z</time>
      </trkpt>
      <trkpt lat="46.01589" lon="6.45242">
        <ele>1755.985107</ele>
        <time>2014-03-06T11:03:13Z</time>
      </trkpt>
      <trkpt lat="46.01589" lon="6.45242">
        <ele>1759.350098</ele>
        <time>2014-03-06T11:03:14Z</time>
      </trkpt>
      <trkpt lat="46.01591" lon="6.45241">
        <ele>1759.350098</ele>
        <time>2014-03-06T11:03:50Z</time>
      </trkpt>
      <trkpt lat="46.0159" lon="6.45243">
        <ele>1753.582031</ele>
        <time>2014-03-06T11:04:16Z</time>
      </trkpt>
      <trkpt lat="46.0159" lon="6.45243">
        <ele>1753.582031</ele>
        <time>2014-03-06T11:04:17Z</time>
      </trkpt>
      <trkpt lat="46.0159" lon="6.45243">
        <ele>1758.388672</ele>
        <time>2014-03-06T11:04:18Z</time>
      </trkpt>
      <trkpt lat="46.0159" lon="6.45242">
        <ele>1758.869385</ele>
        <time>2014-03-06T11:04:19Z</time>
      </trkpt>
      <trkpt lat="46.0159" lon="6.45243">
        <ele>1765.11792</ele>
        <time>2014-03-06T11:04:29Z</time>
      </trkpt>
      <trkpt lat="46.01591" lon="6.45243">
        <ele>1760.311279</ele>
        <time>2014-03-06T11:04:30Z</time>
      </trkpt>
      <trkpt lat="46.01591" lon="6.45243">
        <ele>1755.985107</ele>
        <time>2014-03-06T11:04:33Z</time>
      </trkpt>
      <trkpt lat="46.01591" lon="6.45243">
        <ele>1763.195313</ele>
        <time>2014-03-06T11:04:34Z</time>
      </trkpt>
      <trkpt lat="46.01591" lon="6.45243">
        <ele>1758.869385</ele>
        <time>2014-03-06T11:04:36Z</time>
      </trkpt>
      <trkpt lat="46.01591" lon="6.45243">
        <ele>1759.350098</ele>
        <time>2014-03-06T11:04:37Z</time>
      </trkpt>
      <trkpt lat="46.01589" lon="6.45244">
        <ele>1758.869385</ele>
        <time>2014-03-06T11:05:00Z</time>
      </trkpt>
      <trkpt lat="46.01589" lon="6.45244">
        <ele>1755.985107</ele>
        <time>2014-03-06T11:05:07Z</time>
      </trkpt>
      <trkpt lat="46.01589" lon="6.45244">
        <ele>1759.830566</ele>
        <time>2014-03-06T11:05:09Z</time>
      </trkpt>
      <trkpt lat="46.01589" lon="6.45244">
        <ele>1759.830566</ele>
        <time>2014-03-06T11:05:10Z</time>
      </trkpt>
      <trkpt lat="46.01589" lon="6.45244">
        <ele>1761.272705</ele>
        <time>2014-03-06T11:05:13Z</time>
      </trkpt>
      <trkpt lat="46.01589" lon="6.45244">
        <ele>1760.311279</ele>
        <time>2014-03-06T11:05:15Z</time>
      </trkpt>
      <trkpt lat="46.01589" lon="6.45244">
        <ele>1760.791992</ele>
        <time>2014-03-06T11:05:35Z</time>
      </trkpt>
      <trkpt lat="46.01589" lon="6.45242">
        <ele>1758.869385</ele>
        <time>2014-03-06T11:06:28Z</time>
      </trkpt>
      <trkpt lat="46.01589" lon="6.45242">
        <ele>1760.311279</ele>
        <time>2014-03-06T11:06:31Z</time>
      </trkpt>
      <trkpt lat="46.01588" lon="6.45242">
        <ele>1758.388672</ele>
        <time>2014-03-06T11:06:53Z</time>
      </trkpt>
      <trkpt lat="46.01588" lon="6.45242">
        <ele>1759.830566</ele>
        <time>2014-03-06T11:06:55Z</time>
      </trkpt>
      <trkpt lat="46.01588" lon="6.45243">
        <ele>1753.101318</ele>
        <time>2014-03-06T11:07:04Z</time>
      </trkpt>
      <trkpt lat="46.01588" lon="6.45243">
        <ele>1759.350098</ele>
        <time>2014-03-06T11:07:05Z</time>
      </trkpt>
      <trkpt lat="46.01589" lon="6.45244">
        <ele>1758.869385</ele>
        <time>2014-03-06T11:07:30Z</time>
      </trkpt>
      <trkpt lat="46.01589" lon="6.45244">
        <ele>1758.869385</ele>
        <time>2014-03-06T11:07:56Z</time>
      </trkpt>
      <trkpt lat="46.0159" lon="6.45246">
        <ele>1758.388672</ele>
        <time>2014-03-06T11:08:29Z</time>
      </trkpt>
      <trkpt lat="46.01591" lon="6.45245">
        <ele>1757.908203</ele>
        <time>2014-03-06T11:08:31Z</time>
      </trkpt>
      <trkpt lat="46.01592" lon="6.45236">
        <ele>1758.869385</ele>
        <time>2014-03-06T11:08:36Z</time>
      </trkpt>
      <trkpt lat="46.01591" lon="6.45223">
        <ele>1757.908203</ele>
        <time>2014-03-06T11:08:42Z</time>
      </trkpt>
      <trkpt lat="46.01589" lon="6.45206">
        <ele>1757.42749</ele>
        <time>2014-03-06T11:08:52Z</time>
      </trkpt>
      <trkpt lat="46.01588" lon="6.45176">
        <ele>1756.946777</ele>
        <time>2014-03-06T11:09:05Z</time>
      </trkpt>
      <trkpt lat="46.0159" lon="6.45147">
        <ele>1755.504639</ele>
        <time>2014-03-06T11:09:11Z</time>
      </trkpt>
      <trkpt lat="46.01594" lon="6.45107">
        <ele>1751.178711</ele>
        <time>2014-03-06T11:09:18Z</time>
      </trkpt>
      <trkpt lat="46.01596" lon="6.45101">
        <ele>1751.659424</ele>
        <time>2014-03-06T11:09:19Z</time>
      </trkpt>
      <trkpt lat="46.01601" lon="6.45091">
        <ele>1748.294678</ele>
        <time>2014-03-06T11:09:21Z</time>
      </trkpt>
      <trkpt lat="46.01602" lon="6.45085">
        <ele>1748.294678</ele>
        <time>2014-03-06T11:09:22Z</time>
      </trkpt>
      <trkpt lat="46.01607" lon="6.45077">
        <ele>1745.891602</ele>
        <time>2014-03-06T11:09:26Z</time>
      </trkpt>
      <trkpt lat="46.01616" lon="6.4506">
        <ele>1744.449463</ele>
        <time>2014-03-06T11:09:35Z</time>
      </trkpt>
      <trkpt lat="46.01619" lon="6.45048">
        <ele>1743.007568</ele>
        <time>2014-03-06T11:09:37Z</time>
      </trkpt>
      <trkpt lat="46.01625" lon="6.45029">
        <ele>1741.084961</ele>
        <time>2014-03-06T11:09:40Z</time>
      </trkpt>
      <trkpt lat="46.01652" lon="6.44967">
        <ele>1737.720215</ele>
        <time>2014-03-06T11:09:53Z</time>
      </trkpt>
      <trkpt lat="46.01654" lon="6.44965">
        <ele>1737.239502</ele>
        <time>2014-03-06T11:09:54Z</time>
      </trkpt>
      <trkpt lat="46.01687" lon="6.44937">
        <ele>1734.355713</ele>
        <time>2014-03-06T11:10:10Z</time>
      </trkpt>
      <trkpt lat="46.0171" lon="6.44928">
        <ele>1732.913574</ele>
        <time>2014-03-06T11:10:26Z</time>
      </trkpt>
      <trkpt lat="46.01735" lon="6.44932">
        <ele>1731.952393</ele>
        <time>2014-03-06T11:10:40Z</time>
      </trkpt>
      <trkpt lat="46.01767" lon="6.44941">
        <ele>1731.952393</ele>
        <time>2014-03-06T11:10:53Z</time>
      </trkpt>
      <trkpt lat="46.01789" lon="6.4495">
        <ele>1730.029785</ele>
        <time>2014-03-06T11:10:59Z</time>
      </trkpt>
      <trkpt lat="46.01819" lon="6.44898">
        <ele>1727.145996</ele>
        <time>2014-03-06T11:11:12Z</time>
      </trkpt>
      <trkpt lat="46.01836" lon="6.44898">
        <ele>1727.626465</ele>
        <time>2014-03-06T11:11:25Z</time>
      </trkpt>
      <trkpt lat="46.01855" lon="6.4499">
        <ele>1727.626465</ele>
        <time>2014-03-06T11:11:38Z</time>
      </trkpt>
      <trkpt lat="46.01862" lon="6.44994">
        <ele>1728.107178</ele>
        <time>2014-03-06T11:11:43Z</time>
      </trkpt>
      <trkpt lat="46.01869" lon="6.44998">
        <ele>1729.068359</ele>
        <time>2014-03-06T11:11:49Z</time>
      </trkpt>
      <trkpt lat="46.01886" lon="6.45009">
        <ele>1728.107178</ele>
        <time>2014-03-06T11:12:02Z</time>
      </trkpt>
      <trkpt lat="46.01904" lon="6.45021">
        <ele>1728.587891</ele>
        <time>2014-03-06T11:12:16Z</time>
      </trkpt>
      <trkpt lat="46.01909" lon="6.45023">
        <ele>1730.029785</ele>
        <time>2014-03-06T11:12:19Z</time>
      </trkpt>
      <trkpt lat="46.01926" lon="6.45032">
        <ele>1730.029785</ele>
        <time>2014-03-06T11:12:32Z</time>
      </trkpt>
      <trkpt lat="46.01943" lon="6.45043">
        <ele>1729.549072</ele>
        <time>2014-03-06T11:12:44Z</time>
      </trkpt>
      <trkpt lat="46.01954" lon="6.4505">
        <ele>1730.991211</ele>
        <time>2014-03-06T11:12:53Z</time>
      </trkpt>
      <trkpt lat="46.0197" lon="6.4506">
        <ele>1727.626465</ele>
        <time>2014-03-06T11:13:05Z</time>
      </trkpt>
      <trkpt lat="46.01971" lon="6.45061">
        <ele>1727.626465</ele>
        <time>2014-03-06T11:13:06Z</time>
      </trkpt>
      <trkpt lat="46.01979" lon="6.45066">
        <ele>1730.510498</ele>
        <time>2014-03-06T11:13:12Z</time>
      </trkpt>
      <trkpt lat="46.0198" lon="6.45067">
        <ele>1730.510498</ele>
        <time>2014-03-06T11:13:13Z</time>
      </trkpt>
      <trkpt lat="46.01997" lon="6.45075">
        <ele>1730.029785</ele>
        <time>2014-03-06T11:13:26Z</time>
      </trkpt>
      <trkpt lat="46.02015" lon="6.45077">
        <ele>1728.587891</ele>
        <time>2014-03-06T11:13:39Z</time>
      </trkpt>
      <trkpt lat="46.02035" lon="6.45074">
        <ele>1728.587891</ele>
        <time>2014-03-06T11:13:55Z</time>
      </trkpt>
      <trkpt lat="46.02038" lon="6.45073">
        <ele>1729.549072</ele>
        <time>2014-03-06T11:13:57Z</time>
      </trkpt>
      <trkpt lat="46.02061" lon="6.45066">
        <ele>1728.587891</ele>
        <time>2014-03-06T11:14:14Z</time>
      </trkpt>
      <trkpt lat="46.02068" lon="6.45064">
        <ele>1729.068359</ele>
        <time>2014-03-06T11:14:19Z</time>
      </trkpt>
      <trkpt lat="46.02085" lon="6.45058">
        <ele>1727.626465</ele>
        <time>2014-03-06T11:14:31Z</time>
      </trkpt>
      <trkpt lat="46.02092" lon="6.45056">
        <ele>1728.107178</ele>
        <time>2014-03-06T11:14:43Z</time>
      </trkpt>
      <trkpt lat="46.02078" lon="6.45127">
        <ele>1723.781006</ele>
        <time>2014-03-06T11:14:51Z</time>
      </trkpt>
      <trkpt lat="46.02086" lon="6.45137">
        <ele>1722.339111</ele>
        <time>2014-03-06T11:14:54Z</time>
      </trkpt>
      <trkpt lat="46.02087" lon="6.45138">
        <ele>1721.858398</ele>
        <time>2014-03-06T11:15:05Z</time>
      </trkpt>
      <trkpt lat="46.02121" lon="6.45162">
        <ele>1721.377686</ele>
        <time>2014-03-06T11:15:10Z</time>
      </trkpt>
      <trkpt lat="46.02135" lon="6.45169">
        <ele>1716.571289</ele>
        <time>2014-03-06T11:15:15Z</time>
      </trkpt>
      <trkpt lat="46.0214" lon="6.45175">
        <ele>1715.610107</ele>
        <time>2014-03-06T11:15:17Z</time>
      </trkpt>
      <trkpt lat="46.02143" lon="6.45178">
        <ele>1712.245361</ele>
        <time>2014-03-06T11:15:20Z</time>
      </trkpt>
      <trkpt lat="46.02143" lon="6.45178">
        <ele>1712.726074</ele>
        <time>2014-03-06T11:15:25Z</time>
      </trkpt>
      <trkpt lat="46.02149" lon="6.45185">
        <ele>1712.726074</ele>
        <time>2014-03-06T11:15:29Z</time>
      </trkpt>
      <trkpt lat="46.02162" lon="6.45201">
        <ele>1712.245361</ele>
        <time>2014-03-06T11:15:42Z</time>
      </trkpt>
      <trkpt lat="46.02176" lon="6.45218">
        <ele>1711.28418</ele>
        <time>2014-03-06T11:15:54Z</time>
      </trkpt>
      <trkpt lat="46.02237" lon="6.45155">
        <ele>1709.842041</ele>
        <time>2014-03-06T11:16:07Z</time>
      </trkpt>
      <trkpt lat="46.02259" lon="6.45159">
        <ele>1710.803467</ele>
        <time>2014-03-06T11:16:21Z</time>
      </trkpt>
      <trkpt lat="46.02278" lon="6.45159">
        <ele>1707.919434</ele>
        <time>2014-03-06T11:16:32Z</time>
      </trkpt>
      <trkpt lat="46.02293" lon="6.45156">
        <ele>1707.919434</ele>
        <time>2014-03-06T11:16:41Z</time>
      </trkpt>
      <trkpt lat="46.02299" lon="6.45155">
        <ele>1708.400146</ele>
        <time>2014-03-06T11:16:47Z</time>
      </trkpt>
      <trkpt lat="46.02317" lon="6.4515">
        <ele>1709.361572</ele>
        <time>2014-03-06T11:17:03Z</time>
      </trkpt>
      <trkpt lat="46.02336" lon="6.4515">
        <ele>1709.842041</ele>
        <time>2014-03-06T11:17:19Z</time>
      </trkpt>
      <trkpt lat="46.02344" lon="6.45153">
        <ele>1708.880859</ele>
        <time>2014-03-06T11:17:25Z</time>
      </trkpt>
      <trkpt lat="46.02357" lon="6.4516">
        <ele>1710.803467</ele>
        <time>2014-03-06T11:17:37Z</time>
      </trkpt>
      <trkpt lat="46.02365" lon="6.45171">
        <ele>1712.726074</ele>
        <time>2014-03-06T11:17:51Z</time>
      </trkpt>
      <trkpt lat="46.02365" lon="6.45171">
        <ele>1712.726074</ele>
        <time>2014-03-06T11:17:52Z</time>
      </trkpt>
      <trkpt lat="46.02367" lon="6.45172">
        <ele>1714.167969</ele>
        <time>2014-03-06T11:17:57Z</time>
      </trkpt>
      <trkpt lat="46.02371" lon="6.45167">
        <ele>1714.648682</ele>
        <time>2014-03-06T11:18:02Z</time>
      </trkpt>
      <trkpt lat="46.02377" lon="6.45158">
        <ele>1715.610107</ele>
        <time>2014-03-06T11:18:14Z</time>
      </trkpt>
      <trkpt lat="46.02381" lon="6.45152">
        <ele>1718.013184</ele>
        <time>2014-03-06T11:18:27Z</time>
      </trkpt>
      <trkpt lat="46.02387" lon="6.45146">
        <ele>1717.052002</ele>
        <time>2014-03-06T11:18:41Z</time>
      </trkpt>
      <trkpt lat="46.02391" lon="6.4514">
        <ele>1718.493896</ele>
        <time>2014-03-06T11:18:55Z</time>
      </trkpt>
      <trkpt lat="46.02395" lon="6.45135">
        <ele>1718.974609</ele>
        <time>2014-03-06T11:19:09Z</time>
      </trkpt>
      <trkpt lat="46.02398" lon="6.45135">
        <ele>1719.455322</ele>
        <time>2014-03-06T11:19:20Z</time>
      </trkpt>
      <trkpt lat="46.02398" lon="6.45135">
        <ele>1720.897217</ele>
        <time>2014-03-06T11:19:22Z</time>
      </trkpt>
      <trkpt lat="46.024" lon="6.45136">
        <ele>1719.455322</ele>
        <time>2014-03-06T11:19:35Z</time>
      </trkpt>
      <trkpt lat="46.02402" lon="6.4514">
        <ele>1722.819824</ele>
        <time>2014-03-06T11:19:44Z</time>
      </trkpt>
      <trkpt lat="46.02402" lon="6.45141">
        <ele>1721.858398</ele>
        <time>2014-03-06T11:19:55Z</time>
      </trkpt>
      <trkpt lat="46.02402" lon="6.45141">
        <ele>1726.18457</ele>
        <time>2014-03-06T11:19:58Z</time>
      </trkpt>
      <trkpt lat="46.02403" lon="6.45142">
        <ele>1720.897217</ele>
        <time>2014-03-06T11:19:59Z</time>
      </trkpt>
      <trkpt lat="46.02408" lon="6.45145">
        <ele>1722.819824</ele>
        <time>2014-03-06T11:20:07Z</time>
      </trkpt>
      <trkpt lat="46.02413" lon="6.45145">
        <ele>1706.477295</ele>
        <time>2014-03-06T11:20:14Z</time>
      </trkpt>
      <trkpt lat="46.02413" lon="6.45145">
        <ele>1726.665283</ele>
        <time>2014-03-06T11:20:15Z</time>
      </trkpt>
      <trkpt lat="46.02414" lon="6.45145">
        <ele>1708.400146</ele>
        <time>2014-03-06T11:20:16Z</time>
      </trkpt>
      <trkpt lat="46.02414" lon="6.45145">
        <ele>1731.952393</ele>
        <time>2014-03-06T11:20:17Z</time>
      </trkpt>
      <trkpt lat="46.02414" lon="6.45144">
        <ele>1728.107178</ele>
        <time>2014-03-06T11:20:18Z</time>
      </trkpt>
      <trkpt lat="46.02414" lon="6.45144">
        <ele>1723.781006</ele>
        <time>2014-03-06T11:20:19Z</time>
      </trkpt>
      <trkpt lat="46.0242" lon="6.45141">
        <ele>1720.416504</ele>
        <time>2014-03-06T11:20:32Z</time>
      </trkpt>
      <trkpt lat="46.0242" lon="6.45141">
        <ele>1724.742676</ele>
        <time>2014-03-06T11:20:33Z</time>
      </trkpt>
      <trkpt lat="46.0242" lon="6.45142">
        <ele>1724.742676</ele>
        <time>2014-03-06T11:20:34Z</time>
      </trkpt>
      <trkpt lat="46.02421" lon="6.45142">
        <ele>1723.300537</ele>
        <time>2014-03-06T11:20:36Z</time>
      </trkpt>
      <trkpt lat="46.02423" lon="6.45146">
        <ele>1724.742676</ele>
        <time>2014-03-06T11:20:49Z</time>
      </trkpt>
      <trkpt lat="46.0242" lon="6.45144">
        <ele>1723.781006</ele>
        <time>2014-03-06T11:21:19Z</time>
      </trkpt>
      <trkpt lat="46.0242" lon="6.45142">
        <ele>1723.300537</ele>
        <time>2014-03-06T11:21:46Z</time>
      </trkpt>
      <trkpt lat="46.0242" lon="6.45142">
        <ele>1727.145996</ele>
        <time>2014-03-06T11:22:01Z</time>
      </trkpt>
      <trkpt lat="46.0242" lon="6.45142">
        <ele>1723.300537</ele>
        <time>2014-03-06T11:22:02Z</time>
      </trkpt>
      <trkpt lat="46.02421" lon="6.45142">
        <ele>1722.819824</ele>
        <time>2014-03-06T11:22:34Z</time>
      </trkpt>
      <trkpt lat="46.02421" lon="6.45143">
        <ele>1723.300537</ele>
        <time>2014-03-06T11:23:11Z</time>
      </trkpt>
      <trkpt lat="46.02422" lon="6.45143">
        <ele>1724.742676</ele>
        <time>2014-03-06T11:24:00Z</time>
      </trkpt>
      <trkpt lat="46.02421" lon="6.45143">
        <ele>1723.781006</ele>
        <time>2014-03-06T11:24:26Z</time>
      </trkpt>
      <trkpt lat="46.0242" lon="6.45141">
        <ele>1724.261963</ele>
        <time>2014-03-06T11:26:03Z</time>
      </trkpt>
      <trkpt lat="46.0242" lon="6.45141">
        <ele>1725.223145</ele>
        <time>2014-03-06T11:26:28Z</time>
      </trkpt>
      <trkpt lat="46.0242" lon="6.45141">
        <ele>1724.261963</ele>
        <time>2014-03-06T11:26:30Z</time>
      </trkpt>
      <trkpt lat="46.02419" lon="6.45138">
        <ele>1724.742676</ele>
        <time>2014-03-06T11:29:59Z</time>
      </trkpt>
      <trkpt lat="46.02421" lon="6.45142">
        <ele>1726.665283</ele>
        <time>2014-03-06T11:32:49Z</time>
      </trkpt>
      <trkpt lat="46.02421" lon="6.45142">
        <ele>1726.18457</ele>
        <time>2014-03-06T11:33:01Z</time>
      </trkpt>
      <trkpt lat="46.0242" lon="6.45141">
        <ele>1722.819824</ele>
        <time>2014-03-06T11:40:34Z</time>
      </trkpt>
      <trkpt lat="46.0242" lon="6.4514">
        <ele>1725.703857</ele>
        <time>2014-03-06T11:42:32Z</time>
      </trkpt>
      <trkpt lat="46.0242" lon="6.45141">
        <ele>1722.819824</ele>
        <time>2014-03-06T11:44:39Z</time>
      </trkpt>
      <trkpt lat="46.02419" lon="6.45141">
        <ele>1724.742676</ele>
        <time>2014-03-06T11:45:40Z</time>
      </trkpt>
      <trkpt lat="46.02419" lon="6.45141">
        <ele>1723.300537</ele>
        <time>2014-03-06T11:45:42Z</time>
      </trkpt>
      <trkpt lat="46.02421" lon="6.45142">
        <ele>1723.300537</ele>
        <time>2014-03-06T11:47:09Z</time>
      </trkpt>
      <trkpt lat="46.02421" lon="6.45145">
        <ele>1724.742676</ele>
        <time>2014-03-06T11:47:31Z</time>
      </trkpt>
      <trkpt lat="46.02421" lon="6.45145">
        <ele>1714.648682</ele>
        <time>2014-03-06T11:47:34Z</time>
      </trkpt>
      <trkpt lat="46.02421" lon="6.45145">
        <ele>1719.935791</ele>
        <time>2014-03-06T11:47:35Z</time>
      </trkpt>
      <trkpt lat="46.02421" lon="6.45145">
        <ele>1725.703857</ele>
        <time>2014-03-06T11:47:36Z</time>
      </trkpt>
      <trkpt lat="46.02421" lon="6.45145">
        <ele>1725.223145</ele>
        <time>2014-03-06T11:47:37Z</time>
      </trkpt>
      <trkpt lat="46.0242" lon="6.45144">
        <ele>1729.068359</ele>
        <time>2014-03-06T11:47:51Z</time>
      </trkpt>
      <trkpt lat="46.0242" lon="6.45144">
        <ele>1726.18457</ele>
        <time>2014-03-06T11:47:52Z</time>
      </trkpt>
      <trkpt lat="46.0242" lon="6.45145">
        <ele>1724.261963</ele>
        <time>2014-03-06T11:47:54Z</time>
      </trkpt>
      <trkpt lat="46.0242" lon="6.45147">
        <ele>1724.742676</ele>
        <time>2014-03-06T11:48:17Z</time>
      </trkpt>
      <trkpt lat="46.02419" lon="6.45144">
        <ele>1723.781006</ele>
        <time>2014-03-06T11:48:29Z</time>
      </trkpt>
      <trkpt lat="46.02419" lon="6.45141">
        <ele>1725.223145</ele>
        <time>2014-03-06T11:48:46Z</time>
      </trkpt>
      <trkpt lat="46.0242" lon="6.45142">
        <ele>1725.223145</ele>
        <time>2014-03-06T11:49:46Z</time>
      </trkpt>
      <trkpt lat="46.0242" lon="6.45142">
        <ele>1724.742676</ele>
        <time>2014-03-06T11:51:34Z</time>
      </trkpt>
      <trkpt lat="46.02421" lon="6.45142">
        <ele>1723.300537</ele>
        <time>2014-03-06T11:52:30Z</time>
      </trkpt>
      <trkpt lat="46.02421" lon="6.45142">
        <ele>1723.300537</ele>
        <time>2014-03-06T11:55:05Z</time>
      </trkpt>
      <trkpt lat="46.0242" lon="6.45143">
        <ele>1726.665283</ele>
        <time>2014-03-06T11:57:12Z</time>
      </trkpt>
      <trkpt lat="46.0242" lon="6.45143">
        <ele>1722.819824</ele>
        <time>2014-03-06T11:57:54Z</time>
      </trkpt>
      <trkpt lat="46.0242" lon="6.45143">
        <ele>1728.587891</ele>
        <time>2014-03-06T11:57:59Z</time>
      </trkpt>
      <trkpt lat="46.0242" lon="6.45143">
        <ele>1723.781006</ele>
        <time>2014-03-06T11:58:00Z</time>
      </trkpt>
      <trkpt lat="46.0242" lon="6.45144">
        <ele>1724.261963</ele>
        <time>2014-03-06T11:59:02Z</time>
      </trkpt>
      <trkpt lat="46.0242" lon="6.45144">
        <ele>1727.145996</ele>
        <time>2014-03-06T12:00:04Z</time>
      </trkpt>
      <trkpt lat="46.0242" lon="6.45143">
        <ele>1723.300537</ele>
        <time>2014-03-06T12:00:18Z</time>
      </trkpt>
      <trkpt lat="46.0242" lon="6.45144">
        <ele>1721.858398</ele>
        <time>2014-03-06T12:03:39Z</time>
      </trkpt>
      <trkpt lat="46.0242" lon="6.45143">
        <ele>1724.261963</ele>
        <time>2014-03-06T12:03:58Z</time>
      </trkpt>
      <trkpt lat="46.02421" lon="6.45143">
        <ele>1725.223145</ele>
        <time>2014-03-06T12:04:02Z</time>
      </trkpt>
      <trkpt lat="46.02422" lon="6.45142">
        <ele>1723.300537</ele>
        <time>2014-03-06T12:04:27Z</time>
      </trkpt>
      <trkpt lat="46.02422" lon="6.45142">
        <ele>1724.742676</ele>
        <time>2014-03-06T12:04:29Z</time>
      </trkpt>
      <trkpt lat="46.02422" lon="6.45142">
        <ele>1719.455322</ele>
        <time>2014-03-06T12:04:45Z</time>
      </trkpt>
      <trkpt lat="46.02422" lon="6.45142">
        <ele>1725.703857</ele>
        <time>2014-03-06T12:04:46Z</time>
      </trkpt>
      <trkpt lat="46.02422" lon="6.45142">
        <ele>1725.703857</ele>
        <time>2014-03-06T12:04:47Z</time>
      </trkpt>
      <trkpt lat="46.02424" lon="6.45142">
        <ele>1721.858398</ele>
        <time>2014-03-06T12:05:22Z</time>
      </trkpt>
      <trkpt lat="46.02423" lon="6.45142">
        <ele>1726.665283</ele>
        <time>2014-03-06T12:05:23Z</time>
      </trkpt>
      <trkpt lat="46.02423" lon="6.45142">
        <ele>1725.223145</ele>
        <time>2014-03-06T12:05:24Z</time>
      </trkpt>
      <trkpt lat="46.02423" lon="6.45142">
        <ele>1724.261963</ele>
        <time>2014-03-06T12:05:26Z</time>
      </trkpt>
      <trkpt lat="46.02423" lon="6.45142">
        <ele>1720.416504</ele>
        <time>2014-03-06T12:05:30Z</time>
      </trkpt>
      <trkpt lat="46.02423" lon="6.45142">
        <ele>1725.703857</ele>
        <time>2014-03-06T12:05:31Z</time>
      </trkpt>
      <trkpt lat="46.02423" lon="6.45143">
        <ele>1722.819824</ele>
        <time>2014-03-06T12:05:43Z</time>
      </trkpt>
      <trkpt lat="46.02422" lon="6.45144">
        <ele>1715.610107</ele>
        <time>2014-03-06T12:05:56Z</time>
      </trkpt>
      <trkpt lat="46.02422" lon="6.45144">
        <ele>1725.703857</ele>
        <time>2014-03-06T12:05:57Z</time>
      </trkpt>
      <trkpt lat="46.02422" lon="6.45144">
        <ele>1724.742676</ele>
        <time>2014-03-06T12:06:22Z</time>
      </trkpt>
      <trkpt lat="46.02422" lon="6.45144">
        <ele>1725.703857</ele>
        <time>2014-03-06T12:06:26Z</time>
      </trkpt>
      <trkpt lat="46.02421" lon="6.45144">
        <ele>1725.703857</ele>
        <time>2014-03-06T12:06:47Z</time>
      </trkpt>
      <trkpt lat="46.02421" lon="6.45144">
        <ele>1717.532471</ele>
        <time>2014-03-06T12:06:49Z</time>
      </trkpt>
      <trkpt lat="46.02421" lon="6.45144">
        <ele>1726.18457</ele>
        <time>2014-03-06T12:06:50Z</time>
      </trkpt>
      <trkpt lat="46.0242" lon="6.45144">
        <ele>1724.742676</ele>
        <time>2014-03-06T12:06:56Z</time>
      </trkpt>
      <trkpt lat="46.0242" lon="6.45143">
        <ele>1725.223145</ele>
        <time>2014-03-06T12:07:17Z</time>
      </trkpt>
      <trkpt lat="46.0242" lon="6.45143">
        <ele>1721.858398</ele>
        <time>2014-03-06T12:07:41Z</time>
      </trkpt>
      <trkpt lat="46.0242" lon="6.45143">
        <ele>1723.300537</ele>
        <time>2014-03-06T12:07:44Z</time>
      </trkpt>
      <trkpt lat="46.02419" lon="6.45142">
        <ele>1724.261963</ele>
        <time>2014-03-06T12:07:51Z</time>
      </trkpt>
      <trkpt lat="46.02419" lon="6.45142">
        <ele>1720.416504</ele>
        <time>2014-03-06T12:07:52Z</time>
      </trkpt>
      <trkpt lat="46.02419" lon="6.45142">
        <ele>1721.858398</ele>
        <time>2014-03-06T12:07:53Z</time>
      </trkpt>
      <trkpt lat="46.02419" lon="6.45141">
        <ele>1725.703857</ele>
        <time>2014-03-06T12:07:55Z</time>
      </trkpt>
      <trkpt lat="46.02419" lon="6.45141">
        <ele>1722.339111</ele>
        <time>2014-03-06T12:07:57Z</time>
      </trkpt>
      <trkpt lat="46.02419" lon="6.45141">
        <ele>1722.339111</ele>
        <time>2014-03-06T12:07:58Z</time>
      </trkpt>
      <trkpt lat="46.02419" lon="6.45144">
        <ele>1721.858398</ele>
        <time>2014-03-06T12:08:33Z</time>
      </trkpt>
      <trkpt lat="46.0242" lon="6.45146">
        <ele>1722.819824</ele>
        <time>2014-03-06T12:08:57Z</time>
      </trkpt>
      <trkpt lat="46.02423" lon="6.45164">
        <ele>1721.377686</ele>
        <time>2014-03-06T12:09:02Z</time>
      </trkpt>
      <trkpt lat="46.02416" lon="6.45173">
        <ele>1720.416504</ele>
        <time>2014-03-06T12:09:10Z</time>
      </trkpt>
      <trkpt lat="46.02403" lon="6.45175">
        <ele>1720.897217</ele>
        <time>2014-03-06T12:09:23Z</time>
      </trkpt>
      <trkpt lat="46.02386" lon="6.45186">
        <ele>1720.416504</ele>
        <time>2014-03-06T12:09:34Z</time>
      </trkpt>
      <trkpt lat="46.02379" lon="6.45193">
        <ele>1718.013184</ele>
        <time>2014-03-06T12:09:37Z</time>
      </trkpt>
      <trkpt lat="46.02377" lon="6.45211">
        <ele>1714.167969</ele>
        <time>2014-03-06T12:09:40Z</time>
      </trkpt>
      <trkpt lat="46.02377" lon="6.45226">
        <ele>1713.687256</ele>
        <time>2014-03-06T12:09:48Z</time>
      </trkpt>
      <trkpt lat="46.02376" lon="6.45225">
        <ele>1712.726074</ele>
        <time>2014-03-06T12:09:50Z</time>
      </trkpt>
      <trkpt lat="46.02364" lon="6.45218">
        <ele>1710.322754</ele>
        <time>2014-03-06T12:10:04Z</time>
      </trkpt>
      <trkpt lat="46.02363" lon="6.45219">
        <ele>1710.803467</ele>
        <time>2014-03-06T12:10:07Z</time>
      </trkpt>
      <trkpt lat="46.02343" lon="6.45229">
        <ele>1706.958008</ele>
        <time>2014-03-06T12:10:13Z</time>
      </trkpt>
      <trkpt lat="46.02337" lon="6.45232">
        <ele>1706.958008</ele>
        <time>2014-03-06T12:10:14Z</time>
      </trkpt>
      <trkpt lat="46.02314" lon="6.45243">
        <ele>1703.593506</ele>
        <time>2014-03-06T12:10:21Z</time>
      </trkpt>
      <trkpt lat="46.02304" lon="6.45246">
        <ele>1704.074219</ele>
        <time>2014-03-06T12:10:32Z</time>
      </trkpt>
      <trkpt lat="46.02286" lon="6.45254">
        <ele>1704.554688</ele>
        <time>2014-03-06T12:10:45Z</time>
      </trkpt>
      <trkpt lat="46.02272" lon="6.45263">
        <ele>1705.0354</ele>
        <time>2014-03-06T12:10:57Z</time>
      </trkpt>
      <trkpt lat="46.02258" lon="6.45272">
        <ele>1704.554688</ele>
        <time>2014-03-06T12:11:10Z</time>
      </trkpt>
      <trkpt lat="46.0225" lon="6.45279">
        <ele>1705.0354</ele>
        <time>2014-03-06T12:11:21Z</time>
      </trkpt>
      <trkpt lat="46.0225" lon="6.45281">
        <ele>1705.516113</ele>
        <time>2014-03-06T12:11:22Z</time>
      </trkpt>
      <trkpt lat="46.02251" lon="6.4531">
        <ele>1704.074219</ele>
        <time>2014-03-06T12:11:33Z</time>
      </trkpt>
      <trkpt lat="46.02253" lon="6.4532">
        <ele>1701.190186</ele>
        <time>2014-03-06T12:11:35Z</time>
      </trkpt>
      <trkpt lat="46.02254" lon="6.45325">
        <ele>1699.267578</ele>
        <time>2014-03-06T12:11:36Z</time>
      </trkpt>
      <trkpt lat="46.02254" lon="6.45361">
        <ele>1696.383789</ele>
        <time>2014-03-06T12:11:42Z</time>
      </trkpt>
      <trkpt lat="46.02254" lon="6.45377">
        <ele>1691.576904</ele>
        <time>2014-03-06T12:11:44Z</time>
      </trkpt>
      <trkpt lat="46.02253" lon="6.45387">
        <ele>1690.615479</ele>
        <time>2014-03-06T12:11:46Z</time>
      </trkpt>
      <trkpt lat="46.02253" lon="6.45402">
        <ele>1691.576904</ele>
        <time>2014-03-06T12:11:56Z</time>
      </trkpt>
      <trkpt lat="46.02253" lon="6.45433">
        <ele>1690.615479</ele>
        <time>2014-03-06T12:12:08Z</time>
      </trkpt>
      <trkpt lat="46.02251" lon="6.45443">
        <ele>1690.615479</ele>
        <time>2014-03-06T12:12:13Z</time>
      </trkpt>
      <trkpt lat="46.0225" lon="6.45447">
        <ele>1691.096191</ele>
        <time>2014-03-06T12:12:18Z</time>
      </trkpt>
      <trkpt lat="46.0225" lon="6.45464">
        <ele>1692.057861</ele>
        <time>2014-03-06T12:12:31Z</time>
      </trkpt>
      <trkpt lat="46.02252" lon="6.45477">
        <ele>1692.538574</ele>
        <time>2014-03-06T12:12:43Z</time>
      </trkpt>
      <trkpt lat="46.02237" lon="6.45485">
        <ele>1693.019043</ele>
        <time>2014-03-06T12:12:55Z</time>
      </trkpt>
      <trkpt lat="46.02237" lon="6.45485">
        <ele>1693.980469</ele>
        <time>2014-03-06T12:13:06Z</time>
      </trkpt>
      <trkpt lat="46.02267" lon="6.45502">
        <ele>1693.019043</ele>
        <time>2014-03-06T12:13:18Z</time>
      </trkpt>
      <trkpt lat="46.02275" lon="6.45519">
        <ele>1690.615479</ele>
        <time>2014-03-06T12:13:24Z</time>
      </trkpt>
      <trkpt lat="46.0228" lon="6.45528">
        <ele>1688.693115</ele>
        <time>2014-03-06T12:13:28Z</time>
      </trkpt>
      <trkpt lat="46.02289" lon="6.45543">
        <ele>1686.770264</ele>
        <time>2014-03-06T12:13:33Z</time>
      </trkpt>
      <trkpt lat="46.02299" lon="6.4556">
        <ele>1683.405762</ele>
        <time>2014-03-06T12:13:38Z</time>
      </trkpt>
      <trkpt lat="46.02301" lon="6.45563">
        <ele>1682.925049</ele>
        <time>2014-03-06T12:13:41Z</time>
      </trkpt>
      <trkpt lat="46.02304" lon="6.45569">
        <ele>1683.886475</ele>
        <time>2014-03-06T12:13:45Z</time>
      </trkpt>
      <trkpt lat="46.02306" lon="6.45573">
        <ele>1681.963867</ele>
        <time>2014-03-06T12:13:47Z</time>
      </trkpt>
      <trkpt lat="46.02312" lon="6.45586">
        <ele>1681.002686</ele>
        <time>2014-03-06T12:13:51Z</time>
      </trkpt>
      <trkpt lat="46.02315" lon="6.45594">
        <ele>1680.521973</ele>
        <time>2014-03-06T12:13:53Z</time>
      </trkpt>
      <trkpt lat="46.0232" lon="6.45612">
        <ele>1676.196045</ele>
        <time>2014-03-06T12:13:57Z</time>
      </trkpt>
      <trkpt lat="46.02323" lon="6.45623">
        <ele>1670.908691</ele>
        <time>2014-03-06T12:14:00Z</time>
      </trkpt>
      <trkpt lat="46.02323" lon="6.45623">
        <ele>1673.79248</ele>
        <time>2014-03-06T12:14:01Z</time>
      </trkpt>
      <trkpt lat="46.02323" lon="6.45623">
        <ele>1670.427979</ele>
        <time>2014-03-06T12:14:12Z</time>
      </trkpt>
      <trkpt lat="46.02323" lon="6.45623">
        <ele>1678.599365</ele>
        <time>2014-03-06T12:14:14Z</time>
      </trkpt>
      <trkpt lat="46.02323" lon="6.45623">
        <ele>1674.753906</ele>
        <time>2014-03-06T12:14:15Z</time>
      </trkpt>
      <trkpt lat="46.02329" lon="6.45644">
        <ele>1672.350586</ele>
        <time>2014-03-06T12:14:39Z</time>
      </trkpt>
      <trkpt lat="46.02336" lon="6.45663">
        <ele>1671.869873</ele>
        <time>2014-03-06T12:14:44Z</time>
      </trkpt>
      <trkpt lat="46.02347" lon="6.45676">
        <ele>1670.427979</ele>
        <time>2014-03-06T12:14:47Z</time>
      </trkpt>
      <trkpt lat="46.02362" lon="6.45686">
        <ele>1668.024658</ele>
        <time>2014-03-06T12:14:52Z</time>
      </trkpt>
      <trkpt lat="46.02374" lon="6.45695">
        <ele>1664.179443</ele>
        <time>2014-03-06T12:14:56Z</time>
      </trkpt>
      <trkpt lat="46.02382" lon="6.45705">
        <ele>1661.776367</ele>
        <time>2014-03-06T12:15:04Z</time>
      </trkpt>
      <trkpt lat="46.02388" lon="6.45712">
        <ele>1660.334229</ele>
        <time>2014-03-06T12:15:06Z</time>
      </trkpt>
      <trkpt lat="46.02395" lon="6.45721">
        <ele>1659.853271</ele>
        <time>2014-03-06T12:15:08Z</time>
      </trkpt>
      <trkpt lat="46.02401" lon="6.45729">
        <ele>1657.930908</ele>
        <time>2014-03-06T12:15:10Z</time>
      </trkpt>
      <trkpt lat="46.02419" lon="6.45753">
        <ele>1657.930908</ele>
        <time>2014-03-06T12:15:16Z</time>
      </trkpt>
      <trkpt lat="46.02431" lon="6.4577">
        <ele>1654.085693</ele>
        <time>2014-03-06T12:15:20Z</time>
      </trkpt>
      <trkpt lat="46.02446" lon="6.45795">
        <ele>1649.759766</ele>
        <time>2014-03-06T12:15:25Z</time>
      </trkpt>
      <trkpt lat="46.02469" lon="6.45836">
        <ele>1646.395264</ele>
        <time>2014-03-06T12:15:35Z</time>
      </trkpt>
      <trkpt lat="46.02474" lon="6.45856">
        <ele>1646.395264</ele>
        <time>2014-03-06T12:15:41Z</time>
      </trkpt>
      <trkpt lat="46.02478" lon="6.45871">
        <ele>1643.510986</ele>
        <time>2014-03-06T12:15:45Z</time>
      </trkpt>
      <trkpt lat="46.02486" lon="6.45891">
        <ele>1641.588379</ele>
        <time>2014-03-06T12:15:51Z</time>
      </trkpt>
      <trkpt lat="46.02487" lon="6.45893">
        <ele>1638.70459</ele>
        <time>2014-03-06T12:15:54Z</time>
      </trkpt>
      <trkpt lat="46.02487" lon="6.45893">
        <ele>1640.146484</ele>
        <time>2014-03-06T12:16:04Z</time>
      </trkpt>
      <trkpt lat="46.025" lon="6.45916">
        <ele>1636.30127</ele>
        <time>2014-03-06T12:16:13Z</time>
      </trkpt>
      <trkpt lat="46.02516" lon="6.4594">
        <ele>1633.417236</ele>
        <time>2014-03-06T12:16:22Z</time>
      </trkpt>
      <trkpt lat="46.02523" lon="6.4595">
        <ele>1629.572021</ele>
        <time>2014-03-06T12:16:26Z</time>
      </trkpt>
      <trkpt lat="46.02525" lon="6.45953">
        <ele>1631.01416</ele>
        <time>2014-03-06T12:16:27Z</time>
      </trkpt>
      <trkpt lat="46.02535" lon="6.45969">
        <ele>1626.207275</ele>
        <time>2014-03-06T12:16:33Z</time>
      </trkpt>
      <trkpt lat="46.02536" lon="6.45971">
        <ele>1624.765381</ele>
        <time>2014-03-06T12:16:35Z</time>
      </trkpt>
      <trkpt lat="46.02536" lon="6.45971">
        <ele>1624.284668</ele>
        <time>2014-03-06T12:16:36Z</time>
      </trkpt>
      <trkpt lat="46.02553" lon="6.46007">
        <ele>1620.920166</ele>
        <time>2014-03-06T12:16:46Z</time>
      </trkpt>
      <trkpt lat="46.02556" lon="6.46012">
        <ele>1620.920166</ele>
        <time>2014-03-06T12:16:47Z</time>
      </trkpt>
      <trkpt lat="46.02564" lon="6.46026">
        <ele>1620.439453</ele>
        <time>2014-03-06T12:16:50Z</time>
      </trkpt>
      <trkpt lat="46.02573" lon="6.46041">
        <ele>1618.997559</ele>
        <time>2014-03-06T12:16:58Z</time>
      </trkpt>
      <trkpt lat="46.02576" lon="6.46048">
        <ele>1617.55542</ele>
        <time>2014-03-06T12:17:01Z</time>
      </trkpt>
      <trkpt lat="46.02578" lon="6.46052">
        <ele>1618.516846</ele>
        <time>2014-03-06T12:17:03Z</time>
      </trkpt>
      <trkpt lat="46.02581" lon="6.4606">
        <ele>1616.113525</ele>
        <time>2014-03-06T12:17:05Z</time>
      </trkpt>
      <trkpt lat="46.02582" lon="6.46063">
        <ele>1612.268311</ele>
        <time>2014-03-06T12:17:06Z</time>
      </trkpt>
      <trkpt lat="46.02584" lon="6.46067">
        <ele>1613.710205</ele>
        <time>2014-03-06T12:17:07Z</time>
      </trkpt>
      <trkpt lat="46.02585" lon="6.4607">
        <ele>1614.190918</ele>
        <time>2014-03-06T12:17:08Z</time>
      </trkpt>
      <trkpt lat="46.0259" lon="6.46083">
        <ele>1611.787598</ele>
        <time>2014-03-06T12:17:12Z</time>
      </trkpt>
      <trkpt lat="46.02591" lon="6.46086">
        <ele>1611.787598</ele>
        <time>2014-03-06T12:17:14Z</time>
      </trkpt>
      <trkpt lat="46.02594" lon="6.46094">
        <ele>1611.306885</ele>
        <time>2014-03-06T12:17:18Z</time>
      </trkpt>
      <trkpt lat="46.02598" lon="6.46102">
        <ele>1607.46167</ele>
        <time>2014-03-06T12:17:20Z</time>
      </trkpt>
      <trkpt lat="46.02603" lon="6.4611">
        <ele>1607.46167</ele>
        <time>2014-03-06T12:17:23Z</time>
      </trkpt>
      <trkpt lat="46.02612" lon="6.46124">
        <ele>1605.05835</ele>
        <time>2014-03-06T12:17:30Z</time>
      </trkpt>
      <trkpt lat="46.02617" lon="6.46134">
        <ele>1604.097168</ele>
        <time>2014-03-06T12:17:41Z</time>
      </trkpt>
      <trkpt lat="46.02614" lon="6.46129">
        <ele>1601.213135</ele>
        <time>2014-03-06T12:17:47Z</time>
      </trkpt>
      <trkpt lat="46.02613" lon="6.46127">
        <ele>1598.809814</ele>
        <time>2014-03-06T12:17:50Z</time>
      </trkpt>
      <trkpt lat="46.02617" lon="6.46227">
        <ele>1597.848633</ele>
        <time>2014-03-06T12:18:00Z</time>
      </trkpt>
      <trkpt lat="46.02623" lon="6.46231">
        <ele>1596.887207</ele>
        <time>2014-03-06T12:18:10Z</time>
      </trkpt>
      <trkpt lat="46.02624" lon="6.46232">
        <ele>1593.522461</ele>
        <time>2014-03-06T12:18:14Z</time>
      </trkpt>
      <trkpt lat="46.02626" lon="6.46331">
        <ele>1591.119141</ele>
        <time>2014-03-06T12:18:21Z</time>
      </trkpt>
      <trkpt lat="46.0263" lon="6.46331">
        <ele>1590.638428</ele>
        <time>2014-03-06T12:18:24Z</time>
      </trkpt>
      <trkpt lat="46.02633" lon="6.46336">
        <ele>1587.273926</ele>
        <time>2014-03-06T12:18:29Z</time>
      </trkpt>
      <trkpt lat="46.02636" lon="6.46339">
        <ele>1587.273926</ele>
        <time>2014-03-06T12:18:30Z</time>
      </trkpt>
      <trkpt lat="46.02636" lon="6.46359">
        <ele>1584.87085</ele>
        <time>2014-03-06T12:18:34Z</time>
      </trkpt>
      <trkpt lat="46.02636" lon="6.46383">
        <ele>1581.025635</ele>
        <time>2014-03-06T12:18:39Z</time>
      </trkpt>
      <trkpt lat="46.02672" lon="6.46366">
        <ele>1576.699463</ele>
        <time>2014-03-06T12:18:45Z</time>
      </trkpt>
      <trkpt lat="46.02672" lon="6.46366">
        <ele>1575.257324</ele>
        <time>2014-03-06T12:18:48Z</time>
      </trkpt>
      <trkpt lat="46.02672" lon="6.46366">
        <ele>1573.81543</ele>
        <time>2014-03-06T12:18:54Z</time>
      </trkpt>
      <trkpt lat="46.02653" lon="6.46432">
        <ele>1573.334961</ele>
        <time>2014-03-06T12:18:58Z</time>
      </trkpt>
      <trkpt lat="46.02688" lon="6.46396">
        <ele>1570.450928</ele>
        <time>2014-03-06T12:19:04Z</time>
      </trkpt>
      <trkpt lat="46.02643" lon="6.46478">
        <ele>1567.086426</ele>
        <time>2014-03-06T12:19:13Z</time>
      </trkpt>
      <trkpt lat="46.02646" lon="6.46486">
        <ele>1565.163818</ele>
        <time>2014-03-06T12:19:15Z</time>
      </trkpt>
      <trkpt lat="46.02649" lon="6.46495">
        <ele>1562.760254</ele>
        <time>2014-03-06T12:19:17Z</time>
      </trkpt>
      <trkpt lat="46.02649" lon="6.46506">
        <ele>1562.279541</ele>
        <time>2014-03-06T12:19:19Z</time>
      </trkpt>
      <trkpt lat="46.02646" lon="6.46527">
        <ele>1561.799072</ele>
        <time>2014-03-06T12:19:23Z</time>
      </trkpt>
      <trkpt lat="46.02649" lon="6.46564">
        <ele>1558.434326</ele>
        <time>2014-03-06T12:19:30Z</time>
      </trkpt>
      <trkpt lat="46.02653" lon="6.46614">
        <ele>1556.031006</ele>
        <time>2014-03-06T12:19:45Z</time>
      </trkpt>
      <trkpt lat="46.02657" lon="6.46652">
        <ele>1552.185791</ele>
        <time>2014-03-06T12:19:54Z</time>
      </trkpt>
      <trkpt lat="46.02671" lon="6.46675">
        <ele>1549.302002</ele>
        <time>2014-03-06T12:20:01Z</time>
      </trkpt>
      <trkpt lat="46.0268" lon="6.46698">
        <ele>1547.37915</ele>
        <time>2014-03-06T12:20:07Z</time>
      </trkpt>
      <trkpt lat="46.02678" lon="6.4671">
        <ele>1546.417969</ele>
        <time>2014-03-06T12:20:10Z</time>
      </trkpt>
      <trkpt lat="46.02681" lon="6.46723">
        <ele>1543.053223</ele>
        <time>2014-03-06T12:20:14Z</time>
      </trkpt>
      <trkpt lat="46.02693" lon="6.46746">
        <ele>1538.727539</ele>
        <time>2014-03-06T12:20:25Z</time>
      </trkpt>
      <trkpt lat="46.02695" lon="6.46749">
        <ele>1538.727539</ele>
        <time>2014-03-06T12:20:26Z</time>
      </trkpt>
      <trkpt lat="46.02707" lon="6.46776">
        <ele>1536.324219</ele>
        <time>2014-03-06T12:20:36Z</time>
      </trkpt>
      <trkpt lat="46.02708" lon="6.46777">
        <ele>1536.804688</ele>
        <time>2014-03-06T12:20:40Z</time>
      </trkpt>
      <trkpt lat="46.02697" lon="6.46787">
        <ele>1531.998047</ele>
        <time>2014-03-06T12:20:48Z</time>
      </trkpt>
      <trkpt lat="46.02699" lon="6.46793">
        <ele>1531.517334</ele>
        <time>2014-03-06T12:20:50Z</time>
      </trkpt>
      <trkpt lat="46.02705" lon="6.46801">
        <ele>1528.633545</ele>
        <time>2014-03-06T12:21:03Z</time>
      </trkpt>
      <trkpt lat="46.02725" lon="6.46822">
        <ele>1524.78833</ele>
        <time>2014-03-06T12:21:14Z</time>
      </trkpt>
      <trkpt lat="46.02726" lon="6.46823">
        <ele>1524.78833</ele>
        <time>2014-03-06T12:21:15Z</time>
      </trkpt>
      <trkpt lat="46.0273" lon="6.46824">
        <ele>1524.307617</ele>
        <time>2014-03-06T12:21:17Z</time>
      </trkpt>
      <trkpt lat="46.02733" lon="6.46824">
        <ele>1524.78833</ele>
        <time>2014-03-06T12:21:25Z</time>
      </trkpt>
      <trkpt lat="46.0275" lon="6.46883">
        <ele>1521.423584</ele>
        <time>2014-03-06T12:21:30Z</time>
      </trkpt>
      <trkpt lat="46.0275" lon="6.46883">
        <ele>1518.539795</ele>
        <time>2014-03-06T12:21:38Z</time>
      </trkpt>
      <trkpt lat="46.0275" lon="6.46883">
        <ele>1517.0979</ele>
        <time>2014-03-06T12:21:41Z</time>
      </trkpt>
      <trkpt lat="46.02747" lon="6.46884">
        <ele>1515.655762</ele>
        <time>2014-03-06T12:21:45Z</time>
      </trkpt>
      <trkpt lat="46.02745" lon="6.46886">
        <ele>1515.175049</ele>
        <time>2014-03-06T12:21:46Z</time>
      </trkpt>
      <trkpt lat="46.02738" lon="6.46891">
        <ele>1513.73291</ele>
        <time>2014-03-06T12:21:48Z</time>
      </trkpt>
      <trkpt lat="46.02738" lon="6.46891">
        <ele>1513.73291</ele>
        <time>2014-03-06T12:21:53Z</time>
      </trkpt>
      <trkpt lat="46.02738" lon="6.46891">
        <ele>1513.73291</ele>
        <time>2014-03-06T12:21:55Z</time>
      </trkpt>
      <trkpt lat="46.02736" lon="6.46875">
        <ele>1512.771729</ele>
        <time>2014-03-06T12:22:00Z</time>
      </trkpt>
      <trkpt lat="46.02754" lon="6.46886">
        <ele>1509.407227</ele>
        <time>2014-03-06T12:22:07Z</time>
      </trkpt>
      <trkpt lat="46.02771" lon="6.46894">
        <ele>1507.003906</ele>
        <time>2014-03-06T12:22:10Z</time>
      </trkpt>
      <trkpt lat="46.02782" lon="6.46905">
        <ele>1506.523193</ele>
        <time>2014-03-06T12:22:13Z</time>
      </trkpt>
      <trkpt lat="46.02793" lon="6.46912">
        <ele>1504.600586</ele>
        <time>2014-03-06T12:22:16Z</time>
      </trkpt>
      <trkpt lat="46.02796" lon="6.46915">
        <ele>1502.677979</ele>
        <time>2014-03-06T12:22:17Z</time>
      </trkpt>
      <trkpt lat="46.02804" lon="6.46921">
        <ele>1499.793945</ele>
        <time>2014-03-06T12:22:20Z</time>
      </trkpt>
      <trkpt lat="46.02824" lon="6.46941">
        <ele>1494.987305</ele>
        <time>2014-03-06T12:22:23Z</time>
      </trkpt>
      <trkpt lat="46.0283" lon="6.46948">
        <ele>1493.064697</ele>
        <time>2014-03-06T12:22:25Z</time>
      </trkpt>
      <trkpt lat="46.02841" lon="6.46971">
        <ele>1489.700195</ele>
        <time>2014-03-06T12:22:33Z</time>
      </trkpt>
      <trkpt lat="46.02841" lon="6.46971">
        <ele>1489.700195</ele>
        <time>2014-03-06T12:22:39Z</time>
      </trkpt>
      <trkpt lat="46.02813" lon="6.47015">
        <ele>1486.816162</ele>
        <time>2014-03-06T12:22:44Z</time>
      </trkpt>
      <trkpt lat="46.02849" lon="6.46983">
        <ele>1482.490234</ele>
        <time>2014-03-06T12:22:50Z</time>
      </trkpt>
      <trkpt lat="46.02859" lon="6.47002">
        <ele>1482.009521</ele>
        <time>2014-03-06T12:22:51Z</time>
      </trkpt>
      <trkpt lat="46.02812" lon="6.47072">
        <ele>1477.683594</ele>
        <time>2014-03-06T12:22:58Z</time>
      </trkpt>
      <trkpt lat="46.02823" lon="6.47097">
        <ele>1474.319092</ele>
        <time>2014-03-06T12:23:03Z</time>
      </trkpt>
      <trkpt lat="46.02826" lon="6.471">
        <ele>1472.396484</ele>
        <time>2014-03-06T12:23:06Z</time>
      </trkpt>
      <trkpt lat="46.02827" lon="6.47102">
        <ele>1471.435059</ele>
        <time>2014-03-06T12:23:17Z</time>
      </trkpt>
      <trkpt lat="46.02829" lon="6.47109">
        <ele>1469.993164</ele>
        <time>2014-03-06T12:23:21Z</time>
      </trkpt>
      <trkpt lat="46.0278" lon="6.47147">
        <ele>1466.147705</ele>
        <time>2014-03-06T12:23:27Z</time>
      </trkpt>
      <trkpt lat="46.0278" lon="6.47147">
        <ele>1465.186523</ele>
        <time>2014-03-06T12:23:28Z</time>
      </trkpt>
      <trkpt lat="46.02779" lon="6.47161">
        <ele>1458.457275</ele>
        <time>2014-03-06T12:23:35Z</time>
      </trkpt>
      <trkpt lat="46.02779" lon="6.47161">
        <ele>1460.379883</ele>
        <time>2014-03-06T12:23:37Z</time>
      </trkpt>
      <trkpt lat="46.02779" lon="6.47161">
        <ele>1461.341309</ele>
        <time>2014-03-06T12:23:41Z</time>
      </trkpt>
      <trkpt lat="46.02778" lon="6.47178">
        <ele>1459.418701</ele>
        <time>2014-03-06T12:23:50Z</time>
      </trkpt>
      <trkpt lat="46.02778" lon="6.47185">
        <ele>1458.457275</ele>
        <time>2014-03-06T12:23:53Z</time>
      </trkpt>
      <trkpt lat="46.02777" lon="6.47193">
        <ele>1457.015381</ele>
        <time>2014-03-06T12:23:55Z</time>
      </trkpt>
      <trkpt lat="46.02785" lon="6.4723">
        <ele>1452.689453</ele>
        <time>2014-03-06T12:24:00Z</time>
      </trkpt>
      <trkpt lat="46.02789" lon="6.47235">
        <ele>1448.843994</ele>
        <time>2014-03-06T12:24:01Z</time>
      </trkpt>
      <trkpt lat="46.02794" lon="6.47244">
        <ele>1448.363281</ele>
        <time>2014-03-06T12:24:03Z</time>
      </trkpt>
      <trkpt lat="46.0278" lon="6.47299">
        <ele>1444.998779</ele>
        <time>2014-03-06T12:24:13Z</time>
      </trkpt>
      <trkpt lat="46.02797" lon="6.47249">
        <ele>1444.998779</ele>
        <time>2014-03-06T12:24:14Z</time>
      </trkpt>
      <trkpt lat="46.02802" lon="6.47265">
        <ele>1442.595703</ele>
        <time>2014-03-06T12:24:16Z</time>
      </trkpt>
      <trkpt lat="46.02803" lon="6.47274">
        <ele>1441.153564</ele>
        <time>2014-03-06T12:24:18Z</time>
      </trkpt>
      <trkpt lat="46.02803" lon="6.47277">
        <ele>1441.634277</ele>
        <time>2014-03-06T12:24:21Z</time>
      </trkpt>
      <trkpt lat="46.0281" lon="6.47294">
        <ele>1439.230957</ele>
        <time>2014-03-06T12:24:28Z</time>
      </trkpt>
      <trkpt lat="46.02811" lon="6.47298">
        <ele>1437.30835</ele>
        <time>2014-03-06T12:24:33Z</time>
      </trkpt>
      <trkpt lat="46.02813" lon="6.47304">
        <ele>1436.827637</ele>
        <time>2014-03-06T12:24:35Z</time>
      </trkpt>
      <trkpt lat="46.02825" lon="6.47359">
        <ele>1433.943604</ele>
        <time>2014-03-06T12:24:45Z</time>
      </trkpt>
      <trkpt lat="46.02836" lon="6.47394">
        <ele>1431.059814</ele>
        <time>2014-03-06T12:24:56Z</time>
      </trkpt>
      <trkpt lat="46.02841" lon="6.47401">
        <ele>1429.136963</ele>
        <time>2014-03-06T12:24:58Z</time>
      </trkpt>
      <trkpt lat="46.02853" lon="6.47426">
        <ele>1424.330566</ele>
        <time>2014-03-06T12:25:03Z</time>
      </trkpt>
      <trkpt lat="46.02858" lon="6.47437">
        <ele>1420.966064</ele>
        <time>2014-03-06T12:25:05Z</time>
      </trkpt>
      <trkpt lat="46.02862" lon="6.47445">
        <ele>1419.523926</ele>
        <time>2014-03-06T12:25:07Z</time>
      </trkpt>
      <trkpt lat="46.02871" lon="6.47484">
        <ele>1419.523926</ele>
        <time>2014-03-06T12:25:11Z</time>
      </trkpt>
      <trkpt lat="46.02865" lon="6.47449">
        <ele>1420.485352</ele>
        <time>2014-03-06T12:25:13Z</time>
      </trkpt>
      <trkpt lat="46.02837" lon="6.47473">
        <ele>1418.081787</ele>
        <time>2014-03-06T12:25:15Z</time>
      </trkpt>
      <trkpt lat="46.0284" lon="6.47493">
        <ele>1417.120605</ele>
        <time>2014-03-06T12:25:26Z</time>
      </trkpt>
      <trkpt lat="46.02859" lon="6.47503">
        <ele>1417.601074</ele>
        <time>2014-03-06T12:25:35Z</time>
      </trkpt>
      <trkpt lat="46.02853" lon="6.47524">
        <ele>1414.717285</ele>
        <time>2014-03-06T12:25:44Z</time>
      </trkpt>
      <trkpt lat="46.02853" lon="6.47529">
        <ele>1414.236572</ele>
        <time>2014-03-06T12:25:45Z</time>
      </trkpt>
      <trkpt lat="46.02834" lon="6.47545">
        <ele>1412.313965</ele>
        <time>2014-03-06T12:25:47Z</time>
      </trkpt>
      <trkpt lat="46.02825" lon="6.47532">
        <ele>1409.910645</ele>
        <time>2014-03-06T12:25:55Z</time>
      </trkpt>
      <trkpt lat="46.02822" lon="6.47528">
        <ele>1407.507568</ele>
        <time>2014-03-06T12:25:57Z</time>
      </trkpt>
      <trkpt lat="46.02853" lon="6.47536">
        <ele>1405.584961</ele>
        <time>2014-03-06T12:25:59Z</time>
      </trkpt>
      <trkpt lat="46.02853" lon="6.47536">
        <ele>1405.104248</ele>
        <time>2014-03-06T12:26:07Z</time>
      </trkpt>
      <trkpt lat="46.02844" lon="6.47525">
        <ele>1401.258789</ele>
        <time>2014-03-06T12:26:13Z</time>
      </trkpt>
      <trkpt lat="46.02846" lon="6.47528">
        <ele>1401.739502</ele>
        <time>2014-03-06T12:26:14Z</time>
      </trkpt>
      <trkpt lat="46.02854" lon="6.47541">
        <ele>1397.894287</ele>
        <time>2014-03-06T12:26:16Z</time>
      </trkpt>
      <trkpt lat="46.02793" lon="6.47574">
        <ele>1394.529541</ele>
        <time>2014-03-06T12:26:21Z</time>
      </trkpt>
      <trkpt lat="46.02794" lon="6.4758">
        <ele>1391.165039</ele>
        <time>2014-03-06T12:26:22Z</time>
      </trkpt>
      <trkpt lat="46.02793" lon="6.47589">
        <ele>1390.203857</ele>
        <time>2014-03-06T12:26:24Z</time>
      </trkpt>
      <trkpt lat="46.0279" lon="6.47589">
        <ele>1388.761963</ele>
        <time>2014-03-06T12:26:31Z</time>
      </trkpt>
      <trkpt lat="46.02768" lon="6.47591">
        <ele>1385.877686</ele>
        <time>2014-03-06T12:26:37Z</time>
      </trkpt>
      <trkpt lat="46.02756" lon="6.47593">
        <ele>1383.955078</ele>
        <time>2014-03-06T12:26:40Z</time>
      </trkpt>
      <trkpt lat="46.02754" lon="6.47594">
        <ele>1380.590576</ele>
        <time>2014-03-06T12:26:42Z</time>
      </trkpt>
      <trkpt lat="46.02751" lon="6.47595">
        <ele>1384.435791</ele>
        <time>2014-03-06T12:26:45Z</time>
      </trkpt>
      <trkpt lat="46.02739" lon="6.47598">
        <ele>1383.955078</ele>
        <time>2014-03-06T12:26:56Z</time>
      </trkpt>
      <trkpt lat="46.02734" lon="6.47598">
        <ele>1380.590576</ele>
        <time>2014-03-06T12:27:05Z</time>
      </trkpt>
      <trkpt lat="46.02736" lon="6.476">
        <ele>1383.955078</ele>
        <time>2014-03-06T12:27:07Z</time>
      </trkpt>
      <trkpt lat="46.02737" lon="6.476">
        <ele>1382.513184</ele>
        <time>2014-03-06T12:27:08Z</time>
      </trkpt>
      <trkpt lat="46.0275" lon="6.47612">
        <ele>1380.590576</ele>
        <time>2014-03-06T12:27:20Z</time>
      </trkpt>
      <trkpt lat="46.02766" lon="6.47628">
        <ele>1378.667969</ele>
        <time>2014-03-06T12:27:32Z</time>
      </trkpt>
      <trkpt lat="46.02776" lon="6.47639">
        <ele>1379.148438</ele>
        <time>2014-03-06T12:27:43Z</time>
      </trkpt>
      <trkpt lat="46.02782" lon="6.47652">
        <ele>1379.148438</ele>
        <time>2014-03-06T12:27:53Z</time>
      </trkpt>
      <trkpt lat="46.02791" lon="6.47666">
        <ele>1379.148438</ele>
        <time>2014-03-06T12:28:05Z</time>
      </trkpt>
      <trkpt lat="46.02799" lon="6.4768">
        <ele>1379.148438</ele>
        <time>2014-03-06T12:28:16Z</time>
      </trkpt>
      <trkpt lat="46.02817" lon="6.47705">
        <ele>1375.783936</ele>
        <time>2014-03-06T12:28:27Z</time>
      </trkpt>
      <trkpt lat="46.0282" lon="6.47708">
        <ele>1375.783936</ele>
        <time>2014-03-06T12:28:28Z</time>
      </trkpt>
      <trkpt lat="46.02828" lon="6.4772">
        <ele>1373.861328</ele>
        <time>2014-03-06T12:28:32Z</time>
      </trkpt>
      <trkpt lat="46.02838" lon="6.4774">
        <ele>1373.861328</ele>
        <time>2014-03-06T12:28:46Z</time>
      </trkpt>
      <trkpt lat="46.02845" lon="6.4775">
        <ele>1372.419434</ele>
        <time>2014-03-06T12:28:58Z</time>
      </trkpt>
      <trkpt lat="46.02844" lon="6.47752">
        <ele>1367.13208</ele>
        <time>2014-03-06T12:29:08Z</time>
      </trkpt>
      <trkpt lat="46.02845" lon="6.47751">
        <ele>1373.380859</ele>
        <time>2014-03-06T12:29:09Z</time>
      </trkpt>
      <trkpt lat="46.02846" lon="6.47751">
        <ele>1371.938477</ele>
        <time>2014-03-06T12:29:12Z</time>
      </trkpt>
      <trkpt lat="46.02848" lon="6.47752">
        <ele>1371.938477</ele>
        <time>2014-03-06T12:29:19Z</time>
      </trkpt>
      <trkpt lat="46.02849" lon="6.47755">
        <ele>1371.457764</ele>
        <time>2014-03-06T12:29:33Z</time>
      </trkpt>
      <trkpt lat="46.02855" lon="6.47762">
        <ele>1372.900146</ele>
        <time>2014-03-06T12:29:45Z</time>
      </trkpt>
      <trkpt lat="46.02856" lon="6.47763">
        <ele>1374.342041</ele>
        <time>2014-03-06T12:29:46Z</time>
      </trkpt>
      <trkpt lat="46.02866" lon="6.47767">
        <ele>1375.303223</ele>
        <time>2014-03-06T12:29:58Z</time>
      </trkpt>
      <trkpt lat="46.02876" lon="6.47774">
        <ele>1375.783936</ele>
        <time>2014-03-06T12:30:11Z</time>
      </trkpt>
      <trkpt lat="46.02886" lon="6.47773">
        <ele>1377.706543</ele>
        <time>2014-03-06T12:30:22Z</time>
      </trkpt>
      <trkpt lat="46.02893" lon="6.47775">
        <ele>1379.148438</ele>
        <time>2014-03-06T12:30:33Z</time>
      </trkpt>
      <trkpt lat="46.029" lon="6.47783">
        <ele>1378.667969</ele>
        <time>2014-03-06T12:30:44Z</time>
      </trkpt>
      <trkpt lat="46.02911" lon="6.47788">
        <ele>1380.109863</ele>
        <time>2014-03-06T12:30:55Z</time>
      </trkpt>
      <trkpt lat="46.02914" lon="6.4779">
        <ele>1380.590576</ele>
        <time>2014-03-06T12:30:58Z</time>
      </trkpt>
      <trkpt lat="46.02923" lon="6.47799">
        <ele>1378.667969</ele>
        <time>2014-03-06T12:31:08Z</time>
      </trkpt>
      <trkpt lat="46.0293" lon="6.47809">
        <ele>1377.706543</ele>
        <time>2014-03-06T12:31:19Z</time>
      </trkpt>
      <trkpt lat="46.02934" lon="6.47811">
        <ele>1377.706543</ele>
        <time>2014-03-06T12:31:26Z</time>
      </trkpt>
      <trkpt lat="46.02936" lon="6.47814">
        <ele>1376.264648</ele>
        <time>2014-03-06T12:31:37Z</time>
      </trkpt>
      <trkpt lat="46.02938" lon="6.47816">
        <ele>1376.264648</ele>
        <time>2014-03-06T12:31:40Z</time>
      </trkpt>
      <trkpt lat="46.02954" lon="6.47831">
        <ele>1374.822754</ele>
        <time>2014-03-06T12:31:52Z</time>
      </trkpt>
      <trkpt lat="46.02962" lon="6.47844">
        <ele>1373.380859</ele>
        <time>2014-03-06T12:32:01Z</time>
      </trkpt>
      <trkpt lat="46.02964" lon="6.47846">
        <ele>1371.938477</ele>
        <time>2014-03-06T12:32:03Z</time>
      </trkpt>
      <trkpt lat="46.02967" lon="6.4786">
        <ele>1371.938477</ele>
        <time>2014-03-06T12:32:13Z</time>
      </trkpt>
      <trkpt lat="46.02969" lon="6.47866">
        <ele>1371.457764</ele>
        <time>2014-03-06T12:32:24Z</time>
      </trkpt>
      <trkpt lat="46.02986" lon="6.47887">
        <ele>1368.093262</ele>
        <time>2014-03-06T12:32:32Z</time>
      </trkpt>
      <trkpt lat="46.02988" lon="6.4789">
        <ele>1367.612549</ele>
        <time>2014-03-06T12:32:33Z</time>
      </trkpt>
      <trkpt lat="46.03001" lon="6.47906">
        <ele>1366.170654</ele>
        <time>2014-03-06T12:32:38Z</time>
      </trkpt>
      <trkpt lat="46.03003" lon="6.4791">
        <ele>1363.286865</ele>
        <time>2014-03-06T12:32:39Z</time>
      </trkpt>
      <trkpt lat="46.03004" lon="6.4792">
        <ele>1361.844971</ele>
        <time>2014-03-06T12:32:43Z</time>
      </trkpt>
      <trkpt lat="46.03001" lon="6.47922">
        <ele>1360.402832</ele>
        <time>2014-03-06T12:32:45Z</time>
      </trkpt>
      <trkpt lat="46.03001" lon="6.47934">
        <ele>1357.03833</ele>
        <time>2014-03-06T12:32:50Z</time>
      </trkpt>
      <trkpt lat="46.03018" lon="6.47949">
        <ele>1353.673584</ele>
        <time>2014-03-06T12:33:01Z</time>
      </trkpt>
      <trkpt lat="46.03019" lon="6.47951">
        <ele>1353.673584</ele>
        <time>2014-03-06T12:33:02Z</time>
      </trkpt>
      <trkpt lat="46.03032" lon="6.47989">
        <ele>1349.828369</ele>
        <time>2014-03-06T12:33:08Z</time>
      </trkpt>
      <trkpt lat="46.03035" lon="6.47989">
        <ele>1349.828369</ele>
        <time>2014-03-06T12:33:09Z</time>
      </trkpt>
      <trkpt lat="46.03045" lon="6.47989">
        <ele>1345.983154</ele>
        <time>2014-03-06T12:33:15Z</time>
      </trkpt>
      <trkpt lat="46.03045" lon="6.47989">
        <ele>1349.828369</ele>
        <time>2014-03-06T12:33:16Z</time>
      </trkpt>
      <trkpt lat="46.03045" lon="6.47989">
        <ele>1348.866943</ele>
        <time>2014-03-06T12:33:17Z</time>
      </trkpt>
      <trkpt lat="46.0303" lon="6.47991">
        <ele>1345.502441</ele>
        <time>2014-03-06T12:33:25Z</time>
      </trkpt>
      <trkpt lat="46.03012" lon="6.48">
        <ele>1343.579834</ele>
        <time>2014-03-06T12:33:37Z</time>
      </trkpt>
      <trkpt lat="46.03004" lon="6.48003">
        <ele>1342.137939</ele>
        <time>2014-03-06T12:33:40Z</time>
      </trkpt>
      <trkpt lat="46.02975" lon="6.48001">
        <ele>1340.215332</ele>
        <time>2014-03-06T12:33:52Z</time>
      </trkpt>
      <trkpt lat="46.02959" lon="6.47984">
        <ele>1335.88916</ele>
        <time>2014-03-06T12:34:00Z</time>
      </trkpt>
      <trkpt lat="46.02955" lon="6.47973">
        <ele>1335.408447</ele>
        <time>2014-03-06T12:34:03Z</time>
      </trkpt>
      <trkpt lat="46.02942" lon="6.47957">
        <ele>1332.524658</ele>
        <time>2014-03-06T12:34:07Z</time>
      </trkpt>
      <trkpt lat="46.02913" lon="6.47931">
        <ele>1329.159912</ele>
        <time>2014-03-06T12:34:17Z</time>
      </trkpt>
      <trkpt lat="46.02911" lon="6.47928">
        <ele>1329.159912</ele>
        <time>2014-03-06T12:34:18Z</time>
      </trkpt>
      <trkpt lat="46.02875" lon="6.47914">
        <ele>1326.756836</ele>
        <time>2014-03-06T12:34:27Z</time>
      </trkpt>
      <trkpt lat="46.02871" lon="6.47914">
        <ele>1325.314697</ele>
        <time>2014-03-06T12:34:28Z</time>
      </trkpt>
      <trkpt lat="46.02825" lon="6.47896">
        <ele>1322.911377</ele>
        <time>2014-03-06T12:34:40Z</time>
      </trkpt>
      <trkpt lat="46.02802" lon="6.47885">
        <ele>1319.066162</ele>
        <time>2014-03-06T12:34:46Z</time>
      </trkpt>
      <trkpt lat="46.02789" lon="6.47885">
        <ele>1318.104736</ele>
        <time>2014-03-06T12:34:49Z</time>
      </trkpt>
      <trkpt lat="46.02769" lon="6.47872">
        <ele>1316.662842</ele>
        <time>2014-03-06T12:34:54Z</time>
      </trkpt>
      <trkpt lat="46.02732" lon="6.47843">
        <ele>1313.29834</ele>
        <time>2014-03-06T12:35:04Z</time>
      </trkpt>
      <trkpt lat="46.02721" lon="6.47834">
        <ele>1311.375732</ele>
        <time>2014-03-06T12:35:07Z</time>
      </trkpt>
      <trkpt lat="46.027" lon="6.47819">
        <ele>1308.491699</ele>
        <time>2014-03-06T12:35:14Z</time>
      </trkpt>
      <trkpt lat="46.02695" lon="6.47814">
        <ele>1307.530273</ele>
        <time>2014-03-06T12:35:16Z</time>
      </trkpt>
      <trkpt lat="46.02681" lon="6.47799">
        <ele>1304.64624</ele>
        <time>2014-03-06T12:35:22Z</time>
      </trkpt>
      <trkpt lat="46.02679" lon="6.47797">
        <ele>1304.64624</ele>
        <time>2014-03-06T12:35:23Z</time>
      </trkpt>
      <trkpt lat="46.02664" lon="6.4778">
        <ele>1300.320557</ele>
        <time>2014-03-06T12:35:32Z</time>
      </trkpt>
      <trkpt lat="46.02664" lon="6.4778">
        <ele>1301.762451</ele>
        <time>2014-03-06T12:35:33Z</time>
      </trkpt>
      <trkpt lat="46.02664" lon="6.4778">
        <ele>1305.126953</ele>
        <time>2014-03-06T12:35:40Z</time>
      </trkpt>
      <trkpt lat="46.02664" lon="6.4778">
        <ele>1300.320557</ele>
        <time>2014-03-06T12:35:43Z</time>
      </trkpt>
      <trkpt lat="46.02657" lon="6.47776">
        <ele>1304.165771</ele>
        <time>2014-03-06T12:35:45Z</time>
      </trkpt>
      <trkpt lat="46.02654" lon="6.47775">
        <ele>1299.839844</ele>
        <time>2014-03-06T12:35:52Z</time>
      </trkpt>
      <trkpt lat="46.02654" lon="6.47775">
        <ele>1298.397705</ele>
        <time>2014-03-06T12:35:58Z</time>
      </trkpt>
      <trkpt lat="46.02654" lon="6.47775">
        <ele>1305.126953</ele>
        <time>2014-03-06T12:35:59Z</time>
      </trkpt>
      <trkpt lat="46.02654" lon="6.47775">
        <ele>1300.801025</ele>
        <time>2014-03-06T12:36:00Z</time>
      </trkpt>
      <trkpt lat="46.02654" lon="6.47775">
        <ele>1293.591309</ele>
        <time>2014-03-06T12:36:02Z</time>
      </trkpt>
      <trkpt lat="46.02654" lon="6.47775">
        <ele>1301.281738</ele>
        <time>2014-03-06T12:36:03Z</time>
      </trkpt>
      <trkpt lat="46.02654" lon="6.47775">
        <ele>1296.475342</ele>
        <time>2014-03-06T12:36:10Z</time>
      </trkpt>
      <trkpt lat="46.02654" lon="6.47775">
        <ele>1305.607666</ele>
        <time>2014-03-06T12:36:11Z</time>
      </trkpt>
      <trkpt lat="46.02654" lon="6.47775">
        <ele>1302.723633</ele>
        <time>2014-03-06T12:36:12Z</time>
      </trkpt>
      <trkpt lat="46.02654" lon="6.47775">
        <ele>1299.359131</ele>
        <time>2014-03-06T12:36:13Z</time>
      </trkpt>
      <trkpt lat="46.02654" lon="6.47775">
        <ele>1299.839844</ele>
        <time>2014-03-06T12:36:14Z</time>
      </trkpt>
      <trkpt lat="46.02654" lon="6.47775">
        <ele>1303.685059</ele>
        <time>2014-03-06T12:36:15Z</time>
      </trkpt>
      <trkpt lat="46.02651" lon="6.47775">
        <ele>1303.685059</ele>
        <time>2014-03-06T12:36:19Z</time>
      </trkpt>
      <trkpt lat="46.0265" lon="6.47774">
        <ele>1300.320557</ele>
        <time>2014-03-06T12:36:20Z</time>
      </trkpt>
      <trkpt lat="46.02648" lon="6.47774">
        <ele>1300.320557</ele>
        <time>2014-03-06T12:36:22Z</time>
      </trkpt>
      <trkpt lat="46.02638" lon="6.47774">
        <ele>1298.878418</ele>
        <time>2014-03-06T12:36:34Z</time>
      </trkpt>
      <trkpt lat="46.02619" lon="6.47779">
        <ele>1297.436523</ele>
        <time>2014-03-06T12:36:47Z</time>
      </trkpt>
      <trkpt lat="46.02609" lon="6.47775">
        <ele>1295.033203</ele>
        <time>2014-03-06T12:36:59Z</time>
      </trkpt>
      <trkpt lat="46.02597" lon="6.47765">
        <ele>1295.033203</ele>
        <time>2014-03-06T12:37:06Z</time>
      </trkpt>
      <trkpt lat="46.02578" lon="6.47748">
        <ele>1292.149414</ele>
        <time>2014-03-06T12:37:21Z</time>
      </trkpt>
      <trkpt lat="46.02567" lon="6.47734">
        <ele>1291.187744</ele>
        <time>2014-03-06T12:37:32Z</time>
      </trkpt>
      <trkpt lat="46.02562" lon="6.47731">
        <ele>1290.226563</ele>
        <time>2014-03-06T12:37:44Z</time>
      </trkpt>
      <trkpt lat="46.02537" lon="6.47719">
        <ele>1287.342529</ele>
        <time>2014-03-06T12:37:56Z</time>
      </trkpt>
      <trkpt lat="46.02531" lon="6.47715">
        <ele>1286.861816</ele>
        <time>2014-03-06T12:38:00Z</time>
      </trkpt>
      <trkpt lat="46.02519" lon="6.47706">
        <ele>1285.419922</ele>
        <time>2014-03-06T12:38:11Z</time>
      </trkpt>
      <trkpt lat="46.02504" lon="6.47695">
        <ele>1283.978027</ele>
        <time>2014-03-06T12:38:25Z</time>
      </trkpt>
      <trkpt lat="46.02489" lon="6.47686">
        <ele>1282.05542</ele>
        <time>2014-03-06T12:38:35Z</time>
      </trkpt>
      <trkpt lat="46.02473" lon="6.47685">
        <ele>1280.613525</ele>
        <time>2014-03-06T12:38:46Z</time>
      </trkpt>
      <trkpt lat="46.02453" lon="6.47681">
        <ele>1278.690918</ele>
        <time>2014-03-06T12:39:00Z</time>
      </trkpt>
      <trkpt lat="46.02448" lon="6.47679">
        <ele>1277.729492</ele>
        <time>2014-03-06T12:39:03Z</time>
      </trkpt>
      <trkpt lat="46.02437" lon="6.47683">
        <ele>1276.768311</ele>
        <time>2014-03-06T12:39:11Z</time>
      </trkpt>
      <trkpt lat="46.02433" lon="6.47694">
        <ele>1275.806641</ele>
        <time>2014-03-06T12:39:21Z</time>
      </trkpt>
      <trkpt lat="46.02433" lon="6.47694">
        <ele>1274.845459</ele>
        <time>2014-03-06T12:39:23Z</time>
      </trkpt>
      <trkpt lat="46.02437" lon="6.47705">
        <ele>1274.364746</ele>
        <time>2014-03-06T12:39:30Z</time>
      </trkpt>
      <trkpt lat="46.02435" lon="6.47712">
        <ele>1278.210205</ele>
        <time>2014-03-06T12:39:32Z</time>
      </trkpt>
      <trkpt lat="46.02435" lon="6.47712">
        <ele>1274.845459</ele>
        <time>2014-03-06T12:39:33Z</time>
      </trkpt>
      <trkpt lat="46.02435" lon="6.47714">
        <ele>1275.325928</ele>
        <time>2014-03-06T12:39:41Z</time>
      </trkpt>
      <trkpt lat="46.02435" lon="6.47714">
        <ele>1272.922852</ele>
        <time>2014-03-06T12:39:44Z</time>
      </trkpt>
      <trkpt lat="46.02435" lon="6.47714">
        <ele>1274.845459</ele>
        <time>2014-03-06T12:39:46Z</time>
      </trkpt>
      <trkpt lat="46.02435" lon="6.47714">
        <ele>1270.519531</ele>
        <time>2014-03-06T12:39:49Z</time>
      </trkpt>
      <trkpt lat="46.02435" lon="6.47714">
        <ele>1274.364746</ele>
        <time>2014-03-06T12:39:50Z</time>
      </trkpt>
      <trkpt lat="46.02435" lon="6.47715">
        <ele>1270.038818</ele>
        <time>2014-03-06T12:39:55Z</time>
      </trkpt>
      <trkpt lat="46.02435" lon="6.47715">
        <ele>1271.480713</ele>
        <time>2014-03-06T12:39:58Z</time>
      </trkpt>
      <trkpt lat="46.02435" lon="6.47715">
        <ele>1274.845459</ele>
        <time>2014-03-06T12:40:01Z</time>
      </trkpt>
      <trkpt lat="46.02435" lon="6.47714">
        <ele>1273.884033</ele>
        <time>2014-03-06T12:40:02Z</time>
      </trkpt>
      <trkpt lat="46.02436" lon="6.47714">
        <ele>1283.016602</ele>
        <time>2014-03-06T12:40:04Z</time>
      </trkpt>
      <trkpt lat="46.02436" lon="6.47714">
        <ele>1274.364746</ele>
        <time>2014-03-06T12:40:05Z</time>
      </trkpt>
      <trkpt lat="46.02436" lon="6.47714">
        <ele>1271.961426</ele>
        <time>2014-03-06T12:40:13Z</time>
      </trkpt>
      <trkpt lat="46.02436" lon="6.47714">
        <ele>1273.884033</ele>
        <time>2014-03-06T12:40:15Z</time>
      </trkpt>
      <trkpt lat="46.02437" lon="6.47714">
        <ele>1274.364746</ele>
        <time>2014-03-06T12:40:48Z</time>
      </trkpt>
      <trkpt lat="46.02432" lon="6.47713">
        <ele>1273.403564</ele>
        <time>2014-03-06T12:40:52Z</time>
      </trkpt>
      <trkpt lat="46.02416" lon="6.47712">
        <ele>1272.442139</ele>
        <time>2014-03-06T12:41:05Z</time>
      </trkpt>
      <trkpt lat="46.02404" lon="6.47708">
        <ele>1273.403564</ele>
        <time>2014-03-06T12:41:17Z</time>
      </trkpt>
      <trkpt lat="46.02386" lon="6.47704">
        <ele>1269.077637</ele>
        <time>2014-03-06T12:41:23Z</time>
      </trkpt>
      <trkpt lat="46.02397" lon="6.47765">
        <ele>1269.077637</ele>
        <time>2014-03-06T12:41:24Z</time>
      </trkpt>
      <trkpt lat="46.02366" lon="6.47702">
        <ele>1265.713135</ele>
        <time>2014-03-06T12:41:29Z</time>
      </trkpt>
      <trkpt lat="46.02354" lon="6.47702">
        <ele>1266.674316</ele>
        <time>2014-03-06T12:41:41Z</time>
      </trkpt>
      <trkpt lat="46.02345" lon="6.47696">
        <ele>1267.155029</ele>
        <time>2014-03-06T12:41:51Z</time>
      </trkpt>
      <trkpt lat="46.02342" lon="6.47693">
        <ele>1268.596924</ele>
        <time>2014-03-06T12:41:55Z</time>
      </trkpt>
      <trkpt lat="46.02337" lon="6.47695">
        <ele>1266.674316</ele>
        <time>2014-03-06T12:41:58Z</time>
      </trkpt>
      <trkpt lat="46.02323" lon="6.47711">
        <ele>1265.713135</ele>
        <time>2014-03-06T12:42:07Z</time>
      </trkpt>
      <trkpt lat="46.02318" lon="6.47748">
        <ele>1261.387207</ele>
        <time>2014-03-06T12:42:14Z</time>
      </trkpt>
      <trkpt lat="46.02318" lon="6.47752">
        <ele>1261.86792</ele>
        <time>2014-03-06T12:42:15Z</time>
      </trkpt>
      <trkpt lat="46.02316" lon="6.47772">
        <ele>1259.464355</ele>
        <time>2014-03-06T12:42:25Z</time>
      </trkpt>
      <trkpt lat="46.02315" lon="6.47793">
        <ele>1258.983643</ele>
        <time>2014-03-06T12:42:35Z</time>
      </trkpt>
      <trkpt lat="46.02313" lon="6.47819">
        <ele>1257.541748</ele>
        <time>2014-03-06T12:42:45Z</time>
      </trkpt>
      <trkpt lat="46.02309" lon="6.47847">
        <ele>1256.580322</ele>
        <time>2014-03-06T12:42:58Z</time>
      </trkpt>
      <trkpt lat="46.02309" lon="6.47854">
        <ele>1255.138428</ele>
        <time>2014-03-06T12:43:01Z</time>
      </trkpt>
      <trkpt lat="46.02309" lon="6.47857">
        <ele>1256.580322</ele>
        <time>2014-03-06T12:43:03Z</time>
      </trkpt>
      <trkpt lat="46.02308" lon="6.47872">
        <ele>1255.138428</ele>
        <time>2014-03-06T12:43:14Z</time>
      </trkpt>
      <trkpt lat="46.02313" lon="6.47895">
        <ele>1252.254395</ele>
        <time>2014-03-06T12:43:24Z</time>
      </trkpt>
      <trkpt lat="46.02313" lon="6.47895">
        <ele>1252.735107</ele>
        <time>2014-03-06T12:43:25Z</time>
      </trkpt>
      <trkpt lat="46.02313" lon="6.47896">
        <ele>1256.580322</ele>
        <time>2014-03-06T12:43:27Z</time>
      </trkpt>
      <trkpt lat="46.02313" lon="6.47897">
        <ele>1256.580322</ele>
        <time>2014-03-06T12:43:28Z</time>
      </trkpt>
      <trkpt lat="46.02315" lon="6.47899">
        <ele>1255.138428</ele>
        <time>2014-03-06T12:43:35Z</time>
      </trkpt>
      <trkpt lat="46.0232" lon="6.47914">
        <ele>1255.619141</ele>
        <time>2014-03-06T12:43:48Z</time>
      </trkpt>
      <trkpt lat="46.0232" lon="6.47915">
        <ele>1255.619141</ele>
        <time>2014-03-06T12:43:59Z</time>
      </trkpt>
      <trkpt lat="46.02319" lon="6.47924">
        <ele>1251.773926</ele>
        <time>2014-03-06T12:44:04Z</time>
      </trkpt>
      <trkpt lat="46.02319" lon="6.47926">
        <ele>1253.696533</ele>
        <time>2014-03-06T12:44:06Z</time>
      </trkpt>
      <trkpt lat="46.02328" lon="6.47938">
        <ele>1253.21582</ele>
        <time>2014-03-06T12:44:19Z</time>
      </trkpt>
      <trkpt lat="46.02333" lon="6.47943">
        <ele>1254.657715</ele>
        <time>2014-03-06T12:44:25Z</time>
      </trkpt>
      <trkpt lat="46.02335" lon="6.47943">
        <ele>1255.138428</ele>
        <time>2014-03-06T12:44:27Z</time>
      </trkpt>
      <trkpt lat="46.02338" lon="6.47944">
        <ele>1252.735107</ele>
        <time>2014-03-06T12:44:31Z</time>
      </trkpt>
      <trkpt lat="46.0234" lon="6.47944">
        <ele>1254.177246</ele>
        <time>2014-03-06T12:44:33Z</time>
      </trkpt>
      <trkpt lat="46.02342" lon="6.47945">
        <ele>1255.138428</ele>
        <time>2014-03-06T12:44:37Z</time>
      </trkpt>
      <trkpt lat="46.02345" lon="6.47947">
        <ele>1256.099609</ele>
        <time>2014-03-06T12:44:42Z</time>
      </trkpt>
      <trkpt lat="46.0235" lon="6.47944">
        <ele>1257.061035</ele>
        <time>2014-03-06T12:44:49Z</time>
      </trkpt>
      <trkpt lat="46.02351" lon="6.47945">
        <ele>1257.541748</ele>
        <time>2014-03-06T12:44:53Z</time>
      </trkpt>
      <trkpt lat="46.02351" lon="6.47946">
        <ele>1256.099609</ele>
        <time>2014-03-06T12:44:55Z</time>
      </trkpt>
      <trkpt lat="46.02351" lon="6.47945">
        <ele>1252.254395</ele>
        <time>2014-03-06T12:45:00Z</time>
      </trkpt>
      <trkpt lat="46.02351" lon="6.47945">
        <ele>1257.061035</ele>
        <time>2014-03-06T12:45:01Z</time>
      </trkpt>
      <trkpt lat="46.02351" lon="6.47945">
        <ele>1251.293213</ele>
        <time>2014-03-06T12:45:03Z</time>
      </trkpt>
      <trkpt lat="46.02352" lon="6.47945">
        <ele>1255.138428</ele>
        <time>2014-03-06T12:45:04Z</time>
      </trkpt>
      <trkpt lat="46.02352" lon="6.47945">
        <ele>1256.580322</ele>
        <time>2014-03-06T12:45:06Z</time>
      </trkpt>
      <trkpt lat="46.02356" lon="6.47946">
        <ele>1253.696533</ele>
        <time>2014-03-06T12:45:16Z</time>
      </trkpt>
      <trkpt lat="46.02355" lon="6.47949">
        <ele>1256.099609</ele>
        <time>2014-03-06T12:45:18Z</time>
      </trkpt>
      <trkpt lat="46.02354" lon="6.47952">
        <ele>1255.138428</ele>
        <time>2014-03-06T12:45:20Z</time>
      </trkpt>
      <trkpt lat="46.02354" lon="6.47954">
        <ele>1255.138428</ele>
        <time>2014-03-06T12:45:21Z</time>
      </trkpt>
      <trkpt lat="46.02345" lon="6.4797">
        <ele>1255.619141</ele>
        <time>2014-03-06T12:45:32Z</time>
      </trkpt>
      <trkpt lat="46.02341" lon="6.47968">
        <ele>1255.619141</ele>
        <time>2014-03-06T12:45:43Z</time>
      </trkpt>
      <trkpt lat="46.02341" lon="6.47968">
        <ele>1254.177246</ele>
        <time>2014-03-06T12:45:46Z</time>
      </trkpt>
      <trkpt lat="46.02341" lon="6.47968">
        <ele>1258.022461</ele>
        <time>2014-03-06T12:45:47Z</time>
      </trkpt>
      <trkpt lat="46.02341" lon="6.47968">
        <ele>1254.177246</ele>
        <time>2014-03-06T12:45:48Z</time>
      </trkpt>
      <trkpt lat="46.0234" lon="6.47967">
        <ele>1257.061035</ele>
        <time>2014-03-06T12:46:02Z</time>
      </trkpt>
      <trkpt lat="46.02341" lon="6.47966">
        <ele>1253.21582</ele>
        <time>2014-03-06T12:46:13Z</time>
      </trkpt>
      <trkpt lat="46.02341" lon="6.47966">
        <ele>1257.541748</ele>
        <time>2014-03-06T12:46:14Z</time>
      </trkpt>
      <trkpt lat="46.02341" lon="6.47966">
        <ele>1253.696533</ele>
        <time>2014-03-06T12:46:15Z</time>
      </trkpt>
      <trkpt lat="46.02341" lon="6.47966">
        <ele>1257.541748</ele>
        <time>2014-03-06T12:46:16Z</time>
      </trkpt>
      <trkpt lat="46.02338" lon="6.47964">
        <ele>1251.773926</ele>
        <time>2014-03-06T12:46:32Z</time>
      </trkpt>
      <trkpt lat="46.02337" lon="6.47964">
        <ele>1257.061035</ele>
        <time>2014-03-06T12:46:33Z</time>
      </trkpt>
      <trkpt lat="46.02332" lon="6.47962">
        <ele>1252.735107</ele>
        <time>2014-03-06T12:46:43Z</time>
      </trkpt>
      <trkpt lat="46.02331" lon="6.47962">
        <ele>1256.580322</ele>
        <time>2014-03-06T12:46:44Z</time>
      </trkpt>
      <trkpt lat="46.02333" lon="6.47964">
        <ele>1256.580322</ele>
        <time>2014-03-06T12:46:48Z</time>
      </trkpt>
      <trkpt lat="46.02337" lon="6.47972">
        <ele>1256.580322</ele>
        <time>2014-03-06T12:46:57Z</time>
      </trkpt>
      <trkpt lat="46.02341" lon="6.47978">
        <ele>1257.541748</ele>
        <time>2014-03-06T12:47:05Z</time>
      </trkpt>
      <trkpt lat="46.02343" lon="6.47985">
        <ele>1258.022461</ele>
        <time>2014-03-06T12:47:13Z</time>
      </trkpt>
      <trkpt lat="46.02347" lon="6.47996">
        <ele>1258.983643</ele>
        <time>2014-03-06T12:47:24Z</time>
      </trkpt>
      <trkpt lat="46.02352" lon="6.48005">
        <ele>1260.425781</ele>
        <time>2014-03-06T12:47:35Z</time>
      </trkpt>
      <trkpt lat="46.02353" lon="6.48014">
        <ele>1261.387207</ele>
        <time>2014-03-06T12:47:57Z</time>
      </trkpt>
      <trkpt lat="46.02361" lon="6.48026">
        <ele>1261.387207</ele>
        <time>2014-03-06T12:48:09Z</time>
      </trkpt>
      <trkpt lat="46.02368" lon="6.48039">
        <ele>1260.906494</ele>
        <time>2014-03-06T12:48:20Z</time>
      </trkpt>
      <trkpt lat="46.02375" lon="6.48052">
        <ele>1261.86792</ele>
        <time>2014-03-06T12:48:30Z</time>
      </trkpt>
      <trkpt lat="46.02385" lon="6.4807">
        <ele>1260.425781</ele>
        <time>2014-03-06T12:48:42Z</time>
      </trkpt>
      <trkpt lat="46.02391" lon="6.48088">
        <ele>1260.906494</ele>
        <time>2014-03-06T12:48:54Z</time>
      </trkpt>
      <trkpt lat="46.02397" lon="6.48107">
        <ele>1259.944824</ele>
        <time>2014-03-06T12:49:04Z</time>
      </trkpt>
      <trkpt lat="46.024" lon="6.48129">
        <ele>1259.944824</ele>
        <time>2014-03-06T12:49:14Z</time>
      </trkpt>
      <trkpt lat="46.02408" lon="6.48146">
        <ele>1258.022461</ele>
        <time>2014-03-06T12:49:26Z</time>
      </trkpt>
      <trkpt lat="46.02413" lon="6.48158">
        <ele>1256.099609</ele>
        <time>2014-03-06T12:49:39Z</time>
      </trkpt>
      <trkpt lat="46.02416" lon="6.48168">
        <ele>1255.619141</ele>
        <time>2014-03-06T12:49:44Z</time>
      </trkpt>
      <trkpt lat="46.02422" lon="6.48191">
        <ele>1254.177246</ele>
        <time>2014-03-06T12:49:50Z</time>
      </trkpt>
      <trkpt lat="46.02425" lon="6.48193">
        <ele>1254.657715</ele>
        <time>2014-03-06T12:49:57Z</time>
      </trkpt>
      <trkpt lat="46.02429" lon="6.48201">
        <ele>1252.254395</ele>
        <time>2014-03-06T12:50:08Z</time>
      </trkpt>
      <trkpt lat="46.02435" lon="6.48218">
        <ele>1251.773926</ele>
        <time>2014-03-06T12:50:19Z</time>
      </trkpt>
      <trkpt lat="46.02439" lon="6.48235">
        <ele>1251.293213</ele>
        <time>2014-03-06T12:50:31Z</time>
      </trkpt>
      <trkpt lat="46.0244" lon="6.48237">
        <ele>1251.293213</ele>
        <time>2014-03-06T12:50:32Z</time>
      </trkpt>
      <trkpt lat="46.0244" lon="6.48241">
        <ele>1251.773926</ele>
        <time>2014-03-06T12:50:35Z</time>
      </trkpt>
      <trkpt lat="46.02446" lon="6.48255">
        <ele>1252.254395</ele>
        <time>2014-03-06T12:50:46Z</time>
      </trkpt>
      <trkpt lat="46.02452" lon="6.48268">
        <ele>1252.254395</ele>
        <time>2014-03-06T12:50:57Z</time>
      </trkpt>
      <trkpt lat="46.02458" lon="6.48277">
        <ele>1253.21582</ele>
        <time>2014-03-06T12:51:09Z</time>
      </trkpt>
      <trkpt lat="46.02463" lon="6.48286">
        <ele>1253.21582</ele>
        <time>2014-03-06T12:51:19Z</time>
      </trkpt>
      <trkpt lat="46.02464" lon="6.48288">
        <ele>1252.254395</ele>
        <time>2014-03-06T12:51:22Z</time>
      </trkpt>
      <trkpt lat="46.02467" lon="6.48295">
        <ele>1252.254395</ele>
        <time>2014-03-06T12:51:29Z</time>
      </trkpt>
      <trkpt lat="46.02476" lon="6.48311">
        <ele>1252.735107</ele>
        <time>2014-03-06T12:51:41Z</time>
      </trkpt>
      <trkpt lat="46.02484" lon="6.48327">
        <ele>1251.293213</ele>
        <time>2014-03-06T12:51:53Z</time>
      </trkpt>
      <trkpt lat="46.02485" lon="6.48338">
        <ele>1251.293213</ele>
        <time>2014-03-06T12:52:00Z</time>
      </trkpt>
      <trkpt lat="46.02481" lon="6.48344">
        <ele>1250.8125</ele>
        <time>2014-03-06T12:52:12Z</time>
      </trkpt>
      <trkpt lat="46.02479" lon="6.48351">
        <ele>1251.773926</ele>
        <time>2014-03-06T12:52:24Z</time>
      </trkpt>
      <trkpt lat="46.02479" lon="6.4836">
        <ele>1251.293213</ele>
        <time>2014-03-06T12:52:35Z</time>
      </trkpt>
      <trkpt lat="46.02482" lon="6.48362">
        <ele>1246.967285</ele>
        <time>2014-03-06T12:52:49Z</time>
      </trkpt>
      <trkpt lat="46.02482" lon="6.48362">
        <ele>1253.696533</ele>
        <time>2014-03-06T12:52:50Z</time>
      </trkpt>
      <trkpt lat="46.02485" lon="6.48365">
        <ele>1247.447998</ele>
        <time>2014-03-06T12:53:03Z</time>
      </trkpt>
      <trkpt lat="46.02485" lon="6.48366">
        <ele>1253.21582</ele>
        <time>2014-03-06T12:53:04Z</time>
      </trkpt>
      <trkpt lat="46.02485" lon="6.48374">
        <ele>1250.8125</ele>
        <time>2014-03-06T12:53:15Z</time>
      </trkpt>
      <trkpt lat="46.02484" lon="6.48375">
        <ele>1250.332031</ele>
        <time>2014-03-06T12:53:16Z</time>
      </trkpt>
      <trkpt lat="46.02485" lon="6.4838">
        <ele>1252.254395</ele>
        <time>2014-03-06T12:53:25Z</time>
      </trkpt>
      <trkpt lat="46.02486" lon="6.48386">
        <ele>1252.735107</ele>
        <time>2014-03-06T12:53:37Z</time>
      </trkpt>
      <trkpt lat="46.02487" lon="6.48391">
        <ele>1252.735107</ele>
        <time>2014-03-06T12:53:41Z</time>
      </trkpt>
      <trkpt lat="46.02488" lon="6.48396">
        <ele>1251.773926</ele>
        <time>2014-03-06T12:53:44Z</time>
      </trkpt>
      <trkpt lat="46.02489" lon="6.484">
        <ele>1253.21582</ele>
        <time>2014-03-06T12:53:47Z</time>
      </trkpt>
      <trkpt lat="46.0249" lon="6.48402">
        <ele>1253.696533</ele>
        <time>2014-03-06T12:53:58Z</time>
      </trkpt>
      <trkpt lat="46.02488" lon="6.48401">
        <ele>1249.851318</ele>
        <time>2014-03-06T12:54:15Z</time>
      </trkpt>
      <trkpt lat="46.02488" lon="6.48401">
        <ele>1253.21582</ele>
        <time>2014-03-06T12:54:17Z</time>
      </trkpt>
      <trkpt lat="46.02488" lon="6.48402">
        <ele>1252.735107</ele>
        <time>2014-03-06T12:54:26Z</time>
      </trkpt>
      <trkpt lat="46.02491" lon="6.48408">
        <ele>1253.696533</ele>
        <time>2014-03-06T12:54:36Z</time>
      </trkpt>
      <trkpt lat="46.02491" lon="6.48409">
        <ele>1253.696533</ele>
        <time>2014-03-06T12:54:37Z</time>
      </trkpt>
      <trkpt lat="46.02492" lon="6.48411">
        <ele>1253.696533</ele>
        <time>2014-03-06T12:54:39Z</time>
      </trkpt>
      <trkpt lat="46.02494" lon="6.48425">
        <ele>1254.657715</ele>
        <time>2014-03-06T12:54:50Z</time>
      </trkpt>
      <trkpt lat="46.02496" lon="6.48442">
        <ele>1254.657715</ele>
        <time>2014-03-06T12:55:01Z</time>
      </trkpt>
      <trkpt lat="46.02506" lon="6.48456">
        <ele>1250.8125</ele>
        <time>2014-03-06T12:55:09Z</time>
      </trkpt>
      <trkpt lat="46.02508" lon="6.48458">
        <ele>1250.332031</ele>
        <time>2014-03-06T12:55:10Z</time>
      </trkpt>
      <trkpt lat="46.02511" lon="6.48463">
        <ele>1249.370605</ele>
        <time>2014-03-06T12:55:12Z</time>
      </trkpt>
      <trkpt lat="46.02517" lon="6.4847">
        <ele>1249.851318</ele>
        <time>2014-03-06T12:55:17Z</time>
      </trkpt>
      <trkpt lat="46.02522" lon="6.48474">
        <ele>1247.928711</ele>
        <time>2014-03-06T12:55:21Z</time>
      </trkpt>
      <trkpt lat="46.02537" lon="6.48488">
        <ele>1246.967285</ele>
        <time>2014-03-06T12:55:34Z</time>
      </trkpt>
      <trkpt lat="46.02538" lon="6.48489">
        <ele>1243.602539</ele>
        <time>2014-03-06T12:55:36Z</time>
      </trkpt>
      <trkpt lat="46.02548" lon="6.48496">
        <ele>1243.602539</ele>
        <time>2014-03-06T12:55:46Z</time>
      </trkpt>
      <trkpt lat="46.02551" lon="6.48498">
        <ele>1246.486816</ele>
        <time>2014-03-06T12:55:49Z</time>
      </trkpt>
      <trkpt lat="46.02563" lon="6.48507">
        <ele>1247.928711</ele>
        <time>2014-03-06T12:56:02Z</time>
      </trkpt>
      <trkpt lat="46.02569" lon="6.48514">
        <ele>1249.370605</ele>
        <time>2014-03-06T12:56:09Z</time>
      </trkpt>
      <trkpt lat="46.02577" lon="6.48522">
        <ele>1248.40918</ele>
        <time>2014-03-06T12:56:21Z</time>
      </trkpt>
      <trkpt lat="46.02582" lon="6.48531">
        <ele>1251.773926</ele>
        <time>2014-03-06T12:56:31Z</time>
      </trkpt>
      <trkpt lat="46.02584" lon="6.48536">
        <ele>1252.254395</ele>
        <time>2014-03-06T12:56:38Z</time>
      </trkpt>
      <trkpt lat="46.02587" lon="6.48542">
        <ele>1252.735107</ele>
        <time>2014-03-06T12:56:50Z</time>
      </trkpt>
      <trkpt lat="46.02588" lon="6.48544">
        <ele>1251.773926</ele>
        <time>2014-03-06T12:57:05Z</time>
      </trkpt>
      <trkpt lat="46.02588" lon="6.48545">
        <ele>1252.254395</ele>
        <time>2014-03-06T12:57:07Z</time>
      </trkpt>
      <trkpt lat="46.02589" lon="6.48546">
        <ele>1253.21582</ele>
        <time>2014-03-06T12:57:08Z</time>
      </trkpt>
      <trkpt lat="46.02594" lon="6.48554">
        <ele>1254.177246</ele>
        <time>2014-03-06T12:57:19Z</time>
      </trkpt>
      <trkpt lat="46.02599" lon="6.48561">
        <ele>1255.138428</ele>
        <time>2014-03-06T12:57:27Z</time>
      </trkpt>
      <trkpt lat="46.0261" lon="6.48568">
        <ele>1254.657715</ele>
        <time>2014-03-06T12:57:39Z</time>
      </trkpt>
      <trkpt lat="46.02614" lon="6.48573">
        <ele>1255.619141</ele>
        <time>2014-03-06T12:57:51Z</time>
      </trkpt>
      <trkpt lat="46.02623" lon="6.48578">
        <ele>1256.580322</ele>
        <time>2014-03-06T12:58:02Z</time>
      </trkpt>
      <trkpt lat="46.02624" lon="6.48579">
        <ele>1255.619141</ele>
        <time>2014-03-06T12:58:04Z</time>
      </trkpt>
      <trkpt lat="46.02631" lon="6.48583">
        <ele>1256.580322</ele>
        <time>2014-03-06T12:58:23Z</time>
      </trkpt>
      <trkpt lat="46.02636" lon="6.48586">
        <ele>1255.138428</ele>
        <time>2014-03-06T12:58:29Z</time>
      </trkpt>
      <trkpt lat="46.02645" lon="6.48593">
        <ele>1256.099609</ele>
        <time>2014-03-06T12:58:41Z</time>
      </trkpt>
      <trkpt lat="46.02657" lon="6.48607">
        <ele>1256.099609</ele>
        <time>2014-03-06T12:58:54Z</time>
      </trkpt>
      <trkpt lat="46.02663" lon="6.48621">
        <ele>1252.735107</ele>
        <time>2014-03-06T12:59:06Z</time>
      </trkpt>
      <trkpt lat="46.02663" lon="6.48621">
        <ele>1253.21582</ele>
        <time>2014-03-06T12:59:12Z</time>
      </trkpt>
      <trkpt lat="46.02695" lon="6.48642">
        <ele>1253.21582</ele>
        <time>2014-03-06T12:59:24Z</time>
      </trkpt>
      <trkpt lat="46.02709" lon="6.48647">
        <ele>1250.332031</ele>
        <time>2014-03-06T12:59:28Z</time>
      </trkpt>
      <trkpt lat="46.02716" lon="6.48649">
        <ele>1248.889893</ele>
        <time>2014-03-06T12:59:30Z</time>
      </trkpt>
      <trkpt lat="46.02727" lon="6.48654">
        <ele>1247.928711</ele>
        <time>2014-03-06T12:59:33Z</time>
      </trkpt>
      <trkpt lat="46.02711" lon="6.48643">
        <ele>1246.486816</ele>
        <time>2014-03-06T12:59:35Z</time>
      </trkpt>
      <trkpt lat="46.02711" lon="6.48643">
        <ele>1245.525391</ele>
        <time>2014-03-06T12:59:38Z</time>
      </trkpt>
      <trkpt lat="46.02736" lon="6.48727">
        <ele>1241.199219</ele>
        <time>2014-03-06T12:59:43Z</time>
      </trkpt>
      <trkpt lat="46.02748" lon="6.48738">
        <ele>1239.276611</ele>
        <time>2014-03-06T12:59:46Z</time>
      </trkpt>
      <trkpt lat="46.02761" lon="6.48748">
        <ele>1236.873291</ele>
        <time>2014-03-06T12:59:49Z</time>
      </trkpt>
      <trkpt lat="46.02782" lon="6.48763">
        <ele>1233.508789</ele>
        <time>2014-03-06T12:59:56Z</time>
      </trkpt>
      <trkpt lat="46.02848" lon="6.48702">
        <ele>1231.105713</ele>
        <time>2014-03-06T13:00:02Z</time>
      </trkpt>
      <trkpt lat="46.02848" lon="6.48702">
        <ele>1230.625</ele>
        <time>2014-03-06T13:00:10Z</time>
      </trkpt>
      <trkpt lat="46.02848" lon="6.48702">
        <ele>1226.779541</ele>
        <time>2014-03-06T13:00:19Z</time>
      </trkpt>
      <trkpt lat="46.02848" lon="6.48702">
        <ele>1232.547607</ele>
        <time>2014-03-06T13:00:20Z</time>
      </trkpt>
      <trkpt lat="46.02848" lon="6.48702">
        <ele>1232.547607</ele>
        <time>2014-03-06T13:00:24Z</time>
      </trkpt>
      <trkpt lat="46.02848" lon="6.48702">
        <ele>1229.182861</ele>
        <time>2014-03-06T13:00:35Z</time>
      </trkpt>
      <trkpt lat="46.02848" lon="6.48702">
        <ele>1231.105713</ele>
        <time>2014-03-06T13:00:47Z</time>
      </trkpt>
      <trkpt lat="46.02848" lon="6.48702">
        <ele>1230.144287</ele>
        <time>2014-03-06T13:01:03Z</time>
      </trkpt>
    </trkseg>
  </trk>
</gpx>